<?xml version="1.0" encoding="UTF-8" standalone="no" ?>
<gpx xmlns="http://www.topografix.com/GPX/1/1" xmlns:xsi="http://www.w3.org/2001/XMLSchema-instance" xsi:schemaLocation="http://www.topografix.com/GPX/1/1 http://www.topografix.com/GPX/1/1/gpx.xsd" version="1.1" creator="VisuGPX - https://www.visugpx.com">
  <metadata>
    <name>2020-02-23 LE THOLONET</name>
  </metadata>
  <trk>
    <name><![CDATA[2020-02-23 LE THOLONET]]></name>
    <extensions>
      <line xmlns="http://www.topografix.com/GPX/gpx_style/0/2">
        <color>0000FF</color>
        <width>4</width>
      </line>
    </extensions>
    <trkseg>
      <trkpt lat="43.52241" lon="5.51193">
        <ele>167.89</ele>
        <time>2020-02-23T08:43:09Z</time>
      </trkpt>
      <trkpt lat="43.52241" lon="5.51192">
        <ele>167.89</ele>
        <time>2020-02-23T08:43:10Z</time>
      </trkpt>
      <trkpt lat="43.5224" lon="5.51186">
        <ele>168.37</ele>
        <time>2020-02-23T08:43:42Z</time>
      </trkpt>
      <trkpt lat="43.5224" lon="5.51188">
        <ele>169.33</ele>
        <time>2020-02-23T08:44:19Z</time>
      </trkpt>
      <trkpt lat="43.52239" lon="5.51188">
        <ele>169.33</ele>
        <time>2020-02-23T08:44:30Z</time>
      </trkpt>
      <trkpt lat="43.52242" lon="5.51188">
        <ele>169.33</ele>
        <time>2020-02-23T08:44:52Z</time>
      </trkpt>
      <trkpt lat="43.52242" lon="5.51185">
        <ele>169.81</ele>
        <time>2020-02-23T08:45:22Z</time>
      </trkpt>
      <trkpt lat="43.5224" lon="5.51183">
        <ele>169.81</ele>
        <time>2020-02-23T08:45:40Z</time>
      </trkpt>
      <trkpt lat="43.52242" lon="5.51185">
        <ele>170.29</ele>
        <time>2020-02-23T08:45:58Z</time>
      </trkpt>
      <trkpt lat="43.52243" lon="5.51186">
        <ele>170.29</ele>
        <time>2020-02-23T08:46:11Z</time>
      </trkpt>
      <trkpt lat="43.52242" lon="5.51185">
        <ele>170.29</ele>
        <time>2020-02-23T08:46:28Z</time>
      </trkpt>
      <trkpt lat="43.52227" lon="5.51175">
        <ele>170.29</ele>
        <time>2020-02-23T08:46:44Z</time>
      </trkpt>
      <trkpt lat="43.5222" lon="5.51163">
        <ele>169.33</ele>
        <time>2020-02-23T08:46:57Z</time>
      </trkpt>
      <trkpt lat="43.52214" lon="5.51147">
        <ele>168.85</ele>
        <time>2020-02-23T08:47:12Z</time>
      </trkpt>
      <trkpt lat="43.52205" lon="5.5113">
        <ele>168.37</ele>
        <time>2020-02-23T08:47:30Z</time>
      </trkpt>
      <trkpt lat="43.52203" lon="5.51126">
        <ele>167.89</ele>
        <time>2020-02-23T08:47:41Z</time>
      </trkpt>
      <trkpt lat="43.52205" lon="5.51115">
        <ele>167.41</ele>
        <time>2020-02-23T08:47:48Z</time>
      </trkpt>
      <trkpt lat="43.52215" lon="5.51091">
        <ele>166.93</ele>
        <time>2020-02-23T08:48:04Z</time>
      </trkpt>
      <trkpt lat="43.52218" lon="5.51088">
        <ele>166.93</ele>
        <time>2020-02-23T08:48:07Z</time>
      </trkpt>
      <trkpt lat="43.52227" lon="5.51061">
        <ele>166.93</ele>
        <time>2020-02-23T08:48:26Z</time>
      </trkpt>
      <trkpt lat="43.52235" lon="5.51041">
        <ele>166.93</ele>
        <time>2020-02-23T08:48:43Z</time>
      </trkpt>
      <trkpt lat="43.52235" lon="5.51039">
        <ele>166.93</ele>
        <time>2020-02-23T08:48:44Z</time>
      </trkpt>
      <trkpt lat="43.52241" lon="5.51022">
        <ele>166.93</ele>
        <time>2020-02-23T08:48:58Z</time>
      </trkpt>
      <trkpt lat="43.52248" lon="5.51003">
        <ele>166.93</ele>
        <time>2020-02-23T08:49:12Z</time>
      </trkpt>
      <trkpt lat="43.52249" lon="5.50992">
        <ele>166.93</ele>
        <time>2020-02-23T08:49:23Z</time>
      </trkpt>
      <trkpt lat="43.5225" lon="5.50987">
        <ele>166.93</ele>
        <time>2020-02-23T08:49:27Z</time>
      </trkpt>
      <trkpt lat="43.52251" lon="5.50984">
        <ele>166.93</ele>
        <time>2020-02-23T08:49:29Z</time>
      </trkpt>
      <trkpt lat="43.52252" lon="5.50972">
        <ele>166.93</ele>
        <time>2020-02-23T08:49:37Z</time>
      </trkpt>
      <trkpt lat="43.52258" lon="5.50942">
        <ele>166.93</ele>
        <time>2020-02-23T08:49:56Z</time>
      </trkpt>
      <trkpt lat="43.52258" lon="5.5094">
        <ele>166.93</ele>
        <time>2020-02-23T08:49:58Z</time>
      </trkpt>
      <trkpt lat="43.52258" lon="5.50937">
        <ele>166.93</ele>
        <time>2020-02-23T08:50:00Z</time>
      </trkpt>
      <trkpt lat="43.5226" lon="5.50914">
        <ele>166.93</ele>
        <time>2020-02-23T08:50:16Z</time>
      </trkpt>
      <trkpt lat="43.52263" lon="5.50899">
        <ele>166.93</ele>
        <time>2020-02-23T08:50:29Z</time>
      </trkpt>
      <trkpt lat="43.52263" lon="5.50897">
        <ele>166.93</ele>
        <time>2020-02-23T08:50:31Z</time>
      </trkpt>
      <trkpt lat="43.5226" lon="5.50891">
        <ele>166.93</ele>
        <time>2020-02-23T08:50:35Z</time>
      </trkpt>
      <trkpt lat="43.52253" lon="5.50883">
        <ele>166.93</ele>
        <time>2020-02-23T08:50:46Z</time>
      </trkpt>
      <trkpt lat="43.5225" lon="5.50859">
        <ele>168.37</ele>
        <time>2020-02-23T08:51:02Z</time>
      </trkpt>
      <trkpt lat="43.52244" lon="5.50828">
        <ele>168.85</ele>
        <time>2020-02-23T08:51:19Z</time>
      </trkpt>
      <trkpt lat="43.52236" lon="5.50809">
        <ele>168.85</ele>
        <time>2020-02-23T08:51:34Z</time>
      </trkpt>
      <trkpt lat="43.5223" lon="5.50787">
        <ele>168.85</ele>
        <time>2020-02-23T08:51:49Z</time>
      </trkpt>
      <trkpt lat="43.52227" lon="5.50773">
        <ele>168.85</ele>
        <time>2020-02-23T08:52:04Z</time>
      </trkpt>
      <trkpt lat="43.52223" lon="5.5076">
        <ele>169.33</ele>
        <time>2020-02-23T08:52:14Z</time>
      </trkpt>
      <trkpt lat="43.52213" lon="5.50734">
        <ele>169.33</ele>
        <time>2020-02-23T08:52:31Z</time>
      </trkpt>
      <trkpt lat="43.52206" lon="5.50709">
        <ele>169.33</ele>
        <time>2020-02-23T08:52:47Z</time>
      </trkpt>
      <trkpt lat="43.52205" lon="5.50681">
        <ele>170.29</ele>
        <time>2020-02-23T08:53:03Z</time>
      </trkpt>
      <trkpt lat="43.52205" lon="5.50652">
        <ele>170.29</ele>
        <time>2020-02-23T08:53:20Z</time>
      </trkpt>
      <trkpt lat="43.52206" lon="5.50627">
        <ele>170.77</ele>
        <time>2020-02-23T08:53:35Z</time>
      </trkpt>
      <trkpt lat="43.5221" lon="5.50608">
        <ele>171.25</ele>
        <time>2020-02-23T08:53:49Z</time>
      </trkpt>
      <trkpt lat="43.52211" lon="5.50607">
        <ele>171.25</ele>
        <time>2020-02-23T08:53:50Z</time>
      </trkpt>
      <trkpt lat="43.52218" lon="5.506">
        <ele>171.73</ele>
        <time>2020-02-23T08:54:06Z</time>
      </trkpt>
      <trkpt lat="43.5223" lon="5.50607">
        <ele>172.69</ele>
        <time>2020-02-23T08:54:22Z</time>
      </trkpt>
      <trkpt lat="43.52241" lon="5.50606">
        <ele>173.66</ele>
        <time>2020-02-23T08:54:32Z</time>
      </trkpt>
      <trkpt lat="43.52247" lon="5.50607">
        <ele>174.14</ele>
        <time>2020-02-23T08:54:37Z</time>
      </trkpt>
      <trkpt lat="43.52259" lon="5.5061">
        <ele>175.1</ele>
        <time>2020-02-23T08:54:49Z</time>
      </trkpt>
      <trkpt lat="43.52274" lon="5.50617">
        <ele>175.58</ele>
        <time>2020-02-23T08:54:59Z</time>
      </trkpt>
      <trkpt lat="43.52292" lon="5.50629">
        <ele>176.54</ele>
        <time>2020-02-23T08:55:16Z</time>
      </trkpt>
      <trkpt lat="43.5231" lon="5.5064">
        <ele>177.5</ele>
        <time>2020-02-23T08:55:32Z</time>
      </trkpt>
      <trkpt lat="43.52323" lon="5.5065">
        <ele>178.46</ele>
        <time>2020-02-23T08:55:45Z</time>
      </trkpt>
      <trkpt lat="43.52336" lon="5.50659">
        <ele>179.42</ele>
        <time>2020-02-23T08:55:59Z</time>
      </trkpt>
      <trkpt lat="43.5235" lon="5.50671">
        <ele>180.87</ele>
        <time>2020-02-23T08:56:12Z</time>
      </trkpt>
      <trkpt lat="43.5237" lon="5.50684">
        <ele>182.79</ele>
        <time>2020-02-23T08:56:30Z</time>
      </trkpt>
      <trkpt lat="43.52377" lon="5.50676">
        <ele>184.23</ele>
        <time>2020-02-23T08:56:39Z</time>
      </trkpt>
      <trkpt lat="43.52386" lon="5.50656">
        <ele>187.11</ele>
        <time>2020-02-23T08:56:56Z</time>
      </trkpt>
      <trkpt lat="43.52391" lon="5.50641">
        <ele>189.04</ele>
        <time>2020-02-23T08:57:11Z</time>
      </trkpt>
      <trkpt lat="43.52399" lon="5.50645">
        <ele>190.96</ele>
        <time>2020-02-23T08:57:27Z</time>
      </trkpt>
      <trkpt lat="43.52398" lon="5.50642">
        <ele>190.96</ele>
        <time>2020-02-23T08:57:51Z</time>
      </trkpt>
      <trkpt lat="43.52399" lon="5.50643">
        <ele>191.44</ele>
        <time>2020-02-23T08:58:13Z</time>
      </trkpt>
      <trkpt lat="43.52394" lon="5.50636">
        <ele>191.44</ele>
        <time>2020-02-23T08:58:35Z</time>
      </trkpt>
      <trkpt lat="43.52394" lon="5.50635">
        <ele>190</ele>
        <time>2020-02-23T08:58:36Z</time>
      </trkpt>
      <trkpt lat="43.52393" lon="5.50615">
        <ele>191.44</ele>
        <time>2020-02-23T08:58:49Z</time>
      </trkpt>
      <trkpt lat="43.52396" lon="5.5059">
        <ele>193.84</ele>
        <time>2020-02-23T08:59:02Z</time>
      </trkpt>
      <trkpt lat="43.52402" lon="5.50569">
        <ele>194.32</ele>
        <time>2020-02-23T08:59:14Z</time>
      </trkpt>
      <trkpt lat="43.52407" lon="5.50543">
        <ele>194.32</ele>
        <time>2020-02-23T08:59:28Z</time>
      </trkpt>
      <trkpt lat="43.52408" lon="5.50521">
        <ele>193.36</ele>
        <time>2020-02-23T08:59:40Z</time>
      </trkpt>
      <trkpt lat="43.52408" lon="5.5052">
        <ele>193.36</ele>
        <time>2020-02-23T08:59:41Z</time>
      </trkpt>
      <trkpt lat="43.52415" lon="5.50495">
        <ele>192.4</ele>
        <time>2020-02-23T08:59:55Z</time>
      </trkpt>
      <trkpt lat="43.52419" lon="5.50485">
        <ele>192.4</ele>
        <time>2020-02-23T09:00:00Z</time>
      </trkpt>
      <trkpt lat="43.52423" lon="5.50478">
        <ele>192.4</ele>
        <time>2020-02-23T09:00:06Z</time>
      </trkpt>
      <trkpt lat="43.52436" lon="5.50467">
        <ele>192.4</ele>
        <time>2020-02-23T09:00:18Z</time>
      </trkpt>
      <trkpt lat="43.52439" lon="5.50464">
        <ele>192.4</ele>
        <time>2020-02-23T09:00:20Z</time>
      </trkpt>
      <trkpt lat="43.52441" lon="5.50458">
        <ele>193.84</ele>
        <time>2020-02-23T09:00:23Z</time>
      </trkpt>
      <trkpt lat="43.52444" lon="5.50437">
        <ele>197.21</ele>
        <time>2020-02-23T09:00:36Z</time>
      </trkpt>
      <trkpt lat="43.52449" lon="5.5042">
        <ele>200.09</ele>
        <time>2020-02-23T09:00:51Z</time>
      </trkpt>
      <trkpt lat="43.52458" lon="5.50414">
        <ele>201.53</ele>
        <time>2020-02-23T09:01:04Z</time>
      </trkpt>
      <trkpt lat="43.52469" lon="5.50408">
        <ele>203.46</ele>
        <time>2020-02-23T09:01:17Z</time>
      </trkpt>
      <trkpt lat="43.52478" lon="5.50402">
        <ele>204.42</ele>
        <time>2020-02-23T09:01:30Z</time>
      </trkpt>
      <trkpt lat="43.52483" lon="5.50406">
        <ele>204.9</ele>
        <time>2020-02-23T09:01:41Z</time>
      </trkpt>
      <trkpt lat="43.5249" lon="5.50404">
        <ele>205.86</ele>
        <time>2020-02-23T09:01:54Z</time>
      </trkpt>
      <trkpt lat="43.52491" lon="5.50408">
        <ele>206.34</ele>
        <time>2020-02-23T09:02:09Z</time>
      </trkpt>
      <trkpt lat="43.52499" lon="5.50413">
        <ele>207.78</ele>
        <time>2020-02-23T09:02:29Z</time>
      </trkpt>
      <trkpt lat="43.52502" lon="5.50416">
        <ele>208.26</ele>
        <time>2020-02-23T09:02:33Z</time>
      </trkpt>
      <trkpt lat="43.52504" lon="5.50417">
        <ele>208.26</ele>
        <time>2020-02-23T09:02:35Z</time>
      </trkpt>
      <trkpt lat="43.5252" lon="5.50421">
        <ele>211.63</ele>
        <time>2020-02-23T09:02:50Z</time>
      </trkpt>
      <trkpt lat="43.52532" lon="5.50415">
        <ele>214.51</ele>
        <time>2020-02-23T09:03:03Z</time>
      </trkpt>
      <trkpt lat="43.52533" lon="5.50415">
        <ele>214.51</ele>
        <time>2020-02-23T09:03:04Z</time>
      </trkpt>
      <trkpt lat="43.52551" lon="5.50419">
        <ele>217.88</ele>
        <time>2020-02-23T09:03:19Z</time>
      </trkpt>
      <trkpt lat="43.52558" lon="5.50421">
        <ele>218.84</ele>
        <time>2020-02-23T09:03:26Z</time>
      </trkpt>
      <trkpt lat="43.52561" lon="5.50423">
        <ele>219.32</ele>
        <time>2020-02-23T09:03:29Z</time>
      </trkpt>
      <trkpt lat="43.52576" lon="5.50426">
        <ele>221.72</ele>
        <time>2020-02-23T09:03:43Z</time>
      </trkpt>
      <trkpt lat="43.52585" lon="5.50429">
        <ele>223.64</ele>
        <time>2020-02-23T09:03:51Z</time>
      </trkpt>
      <trkpt lat="43.52602" lon="5.50429">
        <ele>227.01</ele>
        <time>2020-02-23T09:04:06Z</time>
      </trkpt>
      <trkpt lat="43.52619" lon="5.50432">
        <ele>229.89</ele>
        <time>2020-02-23T09:04:21Z</time>
      </trkpt>
      <trkpt lat="43.52623" lon="5.50432">
        <ele>230.37</ele>
        <time>2020-02-23T09:04:32Z</time>
      </trkpt>
      <trkpt lat="43.52631" lon="5.50429">
        <ele>231.33</ele>
        <time>2020-02-23T09:04:39Z</time>
      </trkpt>
      <trkpt lat="43.52648" lon="5.50427">
        <ele>233.74</ele>
        <time>2020-02-23T09:04:54Z</time>
      </trkpt>
      <trkpt lat="43.52663" lon="5.50433">
        <ele>237.1</ele>
        <time>2020-02-23T09:05:07Z</time>
      </trkpt>
      <trkpt lat="43.52673" lon="5.50434">
        <ele>238.06</ele>
        <time>2020-02-23T09:05:17Z</time>
      </trkpt>
      <trkpt lat="43.52676" lon="5.50439">
        <ele>237.58</ele>
        <time>2020-02-23T09:05:30Z</time>
      </trkpt>
      <trkpt lat="43.52676" lon="5.50431">
        <ele>238.06</ele>
        <time>2020-02-23T09:05:46Z</time>
      </trkpt>
      <trkpt lat="43.52681" lon="5.50426">
        <ele>238.06</ele>
        <time>2020-02-23T09:05:58Z</time>
      </trkpt>
      <trkpt lat="43.52683" lon="5.50426">
        <ele>238.54</ele>
        <time>2020-02-23T09:06:06Z</time>
      </trkpt>
      <trkpt lat="43.5269" lon="5.50428">
        <ele>238.54</ele>
        <time>2020-02-23T09:06:12Z</time>
      </trkpt>
      <trkpt lat="43.52703" lon="5.50429">
        <ele>239.99</ele>
        <time>2020-02-23T09:06:27Z</time>
      </trkpt>
      <trkpt lat="43.5271" lon="5.50428">
        <ele>240.47</ele>
        <time>2020-02-23T09:06:41Z</time>
      </trkpt>
      <trkpt lat="43.52711" lon="5.50424">
        <ele>240.47</ele>
        <time>2020-02-23T09:06:58Z</time>
      </trkpt>
      <trkpt lat="43.52716" lon="5.50426">
        <ele>241.43</ele>
        <time>2020-02-23T09:07:08Z</time>
      </trkpt>
      <trkpt lat="43.5272" lon="5.50429">
        <ele>242.87</ele>
        <time>2020-02-23T09:07:12Z</time>
      </trkpt>
      <trkpt lat="43.52728" lon="5.50429">
        <ele>244.79</ele>
        <time>2020-02-23T09:07:18Z</time>
      </trkpt>
      <trkpt lat="43.52731" lon="5.5043">
        <ele>246.23</ele>
        <time>2020-02-23T09:07:22Z</time>
      </trkpt>
      <trkpt lat="43.52734" lon="5.50428">
        <ele>246.72</ele>
        <time>2020-02-23T09:07:25Z</time>
      </trkpt>
      <trkpt lat="43.52742" lon="5.50428">
        <ele>249.6</ele>
        <time>2020-02-23T09:07:37Z</time>
      </trkpt>
      <trkpt lat="43.52742" lon="5.50427">
        <ele>250.08</ele>
        <time>2020-02-23T09:07:52Z</time>
      </trkpt>
      <trkpt lat="43.52756" lon="5.50414">
        <ele>252.48</ele>
        <time>2020-02-23T09:08:07Z</time>
      </trkpt>
      <trkpt lat="43.52769" lon="5.50407">
        <ele>254.41</ele>
        <time>2020-02-23T09:08:22Z</time>
      </trkpt>
      <trkpt lat="43.52778" lon="5.50409">
        <ele>255.85</ele>
        <time>2020-02-23T09:08:34Z</time>
      </trkpt>
      <trkpt lat="43.52774" lon="5.50409">
        <ele>256.33</ele>
        <time>2020-02-23T09:08:54Z</time>
      </trkpt>
      <trkpt lat="43.52774" lon="5.50412">
        <ele>256.33</ele>
        <time>2020-02-23T09:09:15Z</time>
      </trkpt>
      <trkpt lat="43.52775" lon="5.50414">
        <ele>256.33</ele>
        <time>2020-02-23T09:09:37Z</time>
      </trkpt>
      <trkpt lat="43.5278" lon="5.50423">
        <ele>258.25</ele>
        <time>2020-02-23T09:09:44Z</time>
      </trkpt>
      <trkpt lat="43.5278" lon="5.5044">
        <ele>260.17</ele>
        <time>2020-02-23T09:09:57Z</time>
      </trkpt>
      <trkpt lat="43.52781" lon="5.50459">
        <ele>261.62</ele>
        <time>2020-02-23T09:10:10Z</time>
      </trkpt>
      <trkpt lat="43.52785" lon="5.5048">
        <ele>264.5</ele>
        <time>2020-02-23T09:10:26Z</time>
      </trkpt>
      <trkpt lat="43.52795" lon="5.50496">
        <ele>266.9</ele>
        <time>2020-02-23T09:10:40Z</time>
      </trkpt>
      <trkpt lat="43.528" lon="5.50513">
        <ele>267.86</ele>
        <time>2020-02-23T09:10:53Z</time>
      </trkpt>
      <trkpt lat="43.52803" lon="5.5052">
        <ele>268.83</ele>
        <time>2020-02-23T09:11:04Z</time>
      </trkpt>
      <trkpt lat="43.52814" lon="5.50537">
        <ele>271.23</ele>
        <time>2020-02-23T09:11:19Z</time>
      </trkpt>
      <trkpt lat="43.52819" lon="5.50544">
        <ele>272.67</ele>
        <time>2020-02-23T09:11:33Z</time>
      </trkpt>
      <trkpt lat="43.52819" lon="5.50543">
        <ele>272.67</ele>
        <time>2020-02-23T09:11:54Z</time>
      </trkpt>
      <trkpt lat="43.52818" lon="5.50543">
        <ele>272.67</ele>
        <time>2020-02-23T09:12:08Z</time>
      </trkpt>
      <trkpt lat="43.52825" lon="5.5056">
        <ele>274.59</ele>
        <time>2020-02-23T09:12:18Z</time>
      </trkpt>
      <trkpt lat="43.5283" lon="5.50566">
        <ele>275.56</ele>
        <time>2020-02-23T09:12:23Z</time>
      </trkpt>
      <trkpt lat="43.52841" lon="5.50582">
        <ele>277.96</ele>
        <time>2020-02-23T09:12:36Z</time>
      </trkpt>
      <trkpt lat="43.52849" lon="5.50593">
        <ele>278.92</ele>
        <time>2020-02-23T09:12:44Z</time>
      </trkpt>
      <trkpt lat="43.52853" lon="5.50597">
        <ele>279.4</ele>
        <time>2020-02-23T09:12:47Z</time>
      </trkpt>
      <trkpt lat="43.5287" lon="5.50611">
        <ele>282.28</ele>
        <time>2020-02-23T09:13:02Z</time>
      </trkpt>
      <trkpt lat="43.5288" lon="5.50622">
        <ele>283.25</ele>
        <time>2020-02-23T09:13:15Z</time>
      </trkpt>
      <trkpt lat="43.52882" lon="5.50629">
        <ele>283.25</ele>
        <time>2020-02-23T09:13:28Z</time>
      </trkpt>
      <trkpt lat="43.52877" lon="5.50628">
        <ele>283.25</ele>
        <time>2020-02-23T09:13:49Z</time>
      </trkpt>
      <trkpt lat="43.52878" lon="5.50634">
        <ele>283.25</ele>
        <time>2020-02-23T09:13:53Z</time>
      </trkpt>
      <trkpt lat="43.52879" lon="5.50654">
        <ele>283.73</ele>
        <time>2020-02-23T09:14:07Z</time>
      </trkpt>
      <trkpt lat="43.5288" lon="5.50651">
        <ele>283.73</ele>
        <time>2020-02-23T09:14:31Z</time>
      </trkpt>
      <trkpt lat="43.5288" lon="5.50653">
        <ele>284.21</ele>
        <time>2020-02-23T09:14:53Z</time>
      </trkpt>
      <trkpt lat="43.52878" lon="5.50655">
        <ele>284.21</ele>
        <time>2020-02-23T09:15:17Z</time>
      </trkpt>
      <trkpt lat="43.5288" lon="5.50671">
        <ele>282.77</ele>
        <time>2020-02-23T09:15:28Z</time>
      </trkpt>
      <trkpt lat="43.52892" lon="5.50682">
        <ele>281.8</ele>
        <time>2020-02-23T09:15:36Z</time>
      </trkpt>
      <trkpt lat="43.52896" lon="5.50684">
        <ele>281.32</ele>
        <time>2020-02-23T09:15:38Z</time>
      </trkpt>
      <trkpt lat="43.52911" lon="5.50706">
        <ele>279.88</ele>
        <time>2020-02-23T09:15:54Z</time>
      </trkpt>
      <trkpt lat="43.52923" lon="5.50719">
        <ele>278.44</ele>
        <time>2020-02-23T09:16:07Z</time>
      </trkpt>
      <trkpt lat="43.52927" lon="5.50722">
        <ele>278.44</ele>
        <time>2020-02-23T09:16:11Z</time>
      </trkpt>
      <trkpt lat="43.52931" lon="5.50724">
        <ele>277.96</ele>
        <time>2020-02-23T09:16:15Z</time>
      </trkpt>
      <trkpt lat="43.5294" lon="5.50728">
        <ele>276.04</ele>
        <time>2020-02-23T09:16:28Z</time>
      </trkpt>
      <trkpt lat="43.52955" lon="5.50721">
        <ele>273.15</ele>
        <time>2020-02-23T09:16:42Z</time>
      </trkpt>
      <trkpt lat="43.52963" lon="5.50715">
        <ele>271.71</ele>
        <time>2020-02-23T09:16:53Z</time>
      </trkpt>
      <trkpt lat="43.52976" lon="5.50717">
        <ele>270.27</ele>
        <time>2020-02-23T09:17:06Z</time>
      </trkpt>
      <trkpt lat="43.52991" lon="5.50729">
        <ele>267.38</ele>
        <time>2020-02-23T09:17:22Z</time>
      </trkpt>
      <trkpt lat="43.53002" lon="5.50737">
        <ele>265.94</ele>
        <time>2020-02-23T09:17:35Z</time>
      </trkpt>
      <trkpt lat="43.53011" lon="5.50739">
        <ele>265.46</ele>
        <time>2020-02-23T09:17:43Z</time>
      </trkpt>
      <trkpt lat="43.53018" lon="5.5074">
        <ele>264.5</ele>
        <time>2020-02-23T09:17:48Z</time>
      </trkpt>
      <trkpt lat="43.53031" lon="5.50743">
        <ele>263.06</ele>
        <time>2020-02-23T09:18:01Z</time>
      </trkpt>
      <trkpt lat="43.53045" lon="5.50746">
        <ele>261.14</ele>
        <time>2020-02-23T09:18:13Z</time>
      </trkpt>
      <trkpt lat="43.53057" lon="5.50756">
        <ele>259.21</ele>
        <time>2020-02-23T09:18:24Z</time>
      </trkpt>
      <trkpt lat="43.5306" lon="5.50761">
        <ele>258.25</ele>
        <time>2020-02-23T09:18:28Z</time>
      </trkpt>
      <trkpt lat="43.53073" lon="5.50774">
        <ele>254.89</ele>
        <time>2020-02-23T09:18:41Z</time>
      </trkpt>
      <trkpt lat="43.53073" lon="5.50775">
        <ele>254.89</ele>
        <time>2020-02-23T09:18:42Z</time>
      </trkpt>
      <trkpt lat="43.53084" lon="5.50789">
        <ele>252.48</ele>
        <time>2020-02-23T09:18:55Z</time>
      </trkpt>
      <trkpt lat="43.53089" lon="5.50797">
        <ele>250.56</ele>
        <time>2020-02-23T09:19:02Z</time>
      </trkpt>
      <trkpt lat="43.53094" lon="5.50805">
        <ele>248.64</ele>
        <time>2020-02-23T09:19:10Z</time>
      </trkpt>
      <trkpt lat="43.53098" lon="5.5081">
        <ele>247.2</ele>
        <time>2020-02-23T09:19:15Z</time>
      </trkpt>
      <trkpt lat="43.53103" lon="5.50813">
        <ele>246.72</ele>
        <time>2020-02-23T09:19:20Z</time>
      </trkpt>
      <trkpt lat="43.53119" lon="5.50827">
        <ele>242.87</ele>
        <time>2020-02-23T09:19:36Z</time>
      </trkpt>
      <trkpt lat="43.53136" lon="5.50838">
        <ele>239.99</ele>
        <time>2020-02-23T09:19:52Z</time>
      </trkpt>
      <trkpt lat="43.53146" lon="5.50845">
        <ele>238.54</ele>
        <time>2020-02-23T09:20:01Z</time>
      </trkpt>
      <trkpt lat="43.53151" lon="5.50848">
        <ele>237.58</ele>
        <time>2020-02-23T09:20:05Z</time>
      </trkpt>
      <trkpt lat="43.53167" lon="5.50859">
        <ele>234.22</ele>
        <time>2020-02-23T09:20:21Z</time>
      </trkpt>
      <trkpt lat="43.53169" lon="5.50854">
        <ele>234.22</ele>
        <time>2020-02-23T09:20:32Z</time>
      </trkpt>
      <trkpt lat="43.53169" lon="5.50855">
        <ele>234.22</ele>
        <time>2020-02-23T09:20:41Z</time>
      </trkpt>
      <trkpt lat="43.53171" lon="5.50857">
        <ele>233.74</ele>
        <time>2020-02-23T09:20:43Z</time>
      </trkpt>
      <trkpt lat="43.53188" lon="5.50863">
        <ele>230.37</ele>
        <time>2020-02-23T09:20:57Z</time>
      </trkpt>
      <trkpt lat="43.53202" lon="5.50862">
        <ele>227.97</ele>
        <time>2020-02-23T09:21:12Z</time>
      </trkpt>
      <trkpt lat="43.53202" lon="5.50863">
        <ele>227.49</ele>
        <time>2020-02-23T09:21:29Z</time>
      </trkpt>
      <trkpt lat="43.53203" lon="5.50861">
        <ele>227.97</ele>
        <time>2020-02-23T09:21:49Z</time>
      </trkpt>
      <trkpt lat="43.53202" lon="5.50865">
        <ele>227.97</ele>
        <time>2020-02-23T09:22:22Z</time>
      </trkpt>
      <trkpt lat="43.53203" lon="5.50863">
        <ele>227.49</ele>
        <time>2020-02-23T09:22:38Z</time>
      </trkpt>
      <trkpt lat="43.53204" lon="5.50863">
        <ele>227.49</ele>
        <time>2020-02-23T09:22:40Z</time>
      </trkpt>
      <trkpt lat="43.53215" lon="5.50866">
        <ele>225.09</ele>
        <time>2020-02-23T09:22:48Z</time>
      </trkpt>
      <trkpt lat="43.53234" lon="5.50868">
        <ele>222.2</ele>
        <time>2020-02-23T09:23:01Z</time>
      </trkpt>
      <trkpt lat="43.53238" lon="5.50867">
        <ele>221.24</ele>
        <time>2020-02-23T09:23:05Z</time>
      </trkpt>
      <trkpt lat="43.53249" lon="5.50866">
        <ele>219.8</ele>
        <time>2020-02-23T09:23:12Z</time>
      </trkpt>
      <trkpt lat="43.5326" lon="5.50858">
        <ele>217.4</ele>
        <time>2020-02-23T09:23:25Z</time>
      </trkpt>
      <trkpt lat="43.53262" lon="5.50853">
        <ele>217.4</ele>
        <time>2020-02-23T09:23:45Z</time>
      </trkpt>
      <trkpt lat="43.53271" lon="5.5086">
        <ele>216.43</ele>
        <time>2020-02-23T09:23:59Z</time>
      </trkpt>
      <trkpt lat="43.53283" lon="5.50866">
        <ele>216.43</ele>
        <time>2020-02-23T09:24:09Z</time>
      </trkpt>
      <trkpt lat="43.53291" lon="5.50879">
        <ele>217.88</ele>
        <time>2020-02-23T09:24:17Z</time>
      </trkpt>
      <trkpt lat="43.53295" lon="5.50887">
        <ele>218.36</ele>
        <time>2020-02-23T09:24:21Z</time>
      </trkpt>
      <trkpt lat="43.53297" lon="5.50893">
        <ele>218.36</ele>
        <time>2020-02-23T09:24:24Z</time>
      </trkpt>
      <trkpt lat="43.533" lon="5.50906">
        <ele>219.32</ele>
        <time>2020-02-23T09:24:31Z</time>
      </trkpt>
      <trkpt lat="43.53301" lon="5.50911">
        <ele>219.32</ele>
        <time>2020-02-23T09:24:34Z</time>
      </trkpt>
      <trkpt lat="43.53308" lon="5.50932">
        <ele>220.28</ele>
        <time>2020-02-23T09:24:47Z</time>
      </trkpt>
      <trkpt lat="43.53312" lon="5.5094">
        <ele>220.76</ele>
        <time>2020-02-23T09:25:00Z</time>
      </trkpt>
      <trkpt lat="43.53311" lon="5.50945">
        <ele>221.24</ele>
        <time>2020-02-23T09:25:23Z</time>
      </trkpt>
      <trkpt lat="43.53309" lon="5.50942">
        <ele>221.24</ele>
        <time>2020-02-23T09:25:45Z</time>
      </trkpt>
      <trkpt lat="43.53314" lon="5.50938">
        <ele>221.72</ele>
        <time>2020-02-23T09:26:05Z</time>
      </trkpt>
      <trkpt lat="43.53316" lon="5.50929">
        <ele>224.61</ele>
        <time>2020-02-23T09:26:14Z</time>
      </trkpt>
      <trkpt lat="43.5332" lon="5.50929">
        <ele>227.49</ele>
        <time>2020-02-23T09:26:22Z</time>
      </trkpt>
      <trkpt lat="43.53323" lon="5.5093">
        <ele>227.97</ele>
        <time>2020-02-23T09:26:38Z</time>
      </trkpt>
      <trkpt lat="43.53323" lon="5.50931">
        <ele>227.97</ele>
        <time>2020-02-23T09:26:49Z</time>
      </trkpt>
      <trkpt lat="43.53317" lon="5.50935">
        <ele>224.61</ele>
        <time>2020-02-23T09:26:55Z</time>
      </trkpt>
      <trkpt lat="43.53315" lon="5.50937">
        <ele>224.12</ele>
        <time>2020-02-23T09:26:58Z</time>
      </trkpt>
      <trkpt lat="43.53311" lon="5.50938">
        <ele>222.68</ele>
        <time>2020-02-23T09:27:01Z</time>
      </trkpt>
      <trkpt lat="43.53312" lon="5.50953">
        <ele>221.72</ele>
        <time>2020-02-23T09:27:11Z</time>
      </trkpt>
      <trkpt lat="43.53315" lon="5.50962">
        <ele>221.72</ele>
        <time>2020-02-23T09:27:25Z</time>
      </trkpt>
      <trkpt lat="43.53317" lon="5.50968">
        <ele>223.16</ele>
        <time>2020-02-23T09:27:28Z</time>
      </trkpt>
      <trkpt lat="43.53316" lon="5.50973">
        <ele>223.64</ele>
        <time>2020-02-23T09:27:31Z</time>
      </trkpt>
      <trkpt lat="43.53322" lon="5.51004">
        <ele>227.01</ele>
        <time>2020-02-23T09:27:45Z</time>
      </trkpt>
      <trkpt lat="43.53325" lon="5.51024">
        <ele>228.45</ele>
        <time>2020-02-23T09:27:56Z</time>
      </trkpt>
      <trkpt lat="43.5333" lon="5.51031">
        <ele>229.41</ele>
        <time>2020-02-23T09:28:11Z</time>
      </trkpt>
      <trkpt lat="43.53325" lon="5.51038">
        <ele>229.41</ele>
        <time>2020-02-23T09:28:31Z</time>
      </trkpt>
      <trkpt lat="43.53325" lon="5.51052">
        <ele>229.89</ele>
        <time>2020-02-23T09:28:41Z</time>
      </trkpt>
      <trkpt lat="43.53316" lon="5.51059">
        <ele>229.41</ele>
        <time>2020-02-23T09:28:53Z</time>
      </trkpt>
      <trkpt lat="43.53307" lon="5.51059">
        <ele>227.97</ele>
        <time>2020-02-23T09:29:05Z</time>
      </trkpt>
      <trkpt lat="43.53298" lon="5.51065">
        <ele>229.89</ele>
        <time>2020-02-23T09:29:19Z</time>
      </trkpt>
      <trkpt lat="43.53296" lon="5.51062">
        <ele>230.85</ele>
        <time>2020-02-23T09:29:41Z</time>
      </trkpt>
      <trkpt lat="43.53298" lon="5.51063">
        <ele>230.85</ele>
        <time>2020-02-23T09:30:02Z</time>
      </trkpt>
      <trkpt lat="43.53297" lon="5.51062">
        <ele>230.85</ele>
        <time>2020-02-23T09:30:20Z</time>
      </trkpt>
      <trkpt lat="43.53297" lon="5.51061">
        <ele>230.85</ele>
        <time>2020-02-23T09:30:37Z</time>
      </trkpt>
      <trkpt lat="43.53297" lon="5.51062">
        <ele>231.81</ele>
        <time>2020-02-23T09:30:50Z</time>
      </trkpt>
      <trkpt lat="43.53297" lon="5.51064">
        <ele>231.81</ele>
        <time>2020-02-23T09:31:05Z</time>
      </trkpt>
      <trkpt lat="43.53292" lon="5.51064">
        <ele>230.37</ele>
        <time>2020-02-23T09:31:15Z</time>
      </trkpt>
      <trkpt lat="43.53285" lon="5.51063">
        <ele>229.89</ele>
        <time>2020-02-23T09:31:24Z</time>
      </trkpt>
      <trkpt lat="43.53279" lon="5.51069">
        <ele>229.89</ele>
        <time>2020-02-23T09:31:38Z</time>
      </trkpt>
      <trkpt lat="43.5328" lon="5.5107">
        <ele>229.89</ele>
        <time>2020-02-23T09:31:56Z</time>
      </trkpt>
      <trkpt lat="43.53281" lon="5.51069">
        <ele>231.33</ele>
        <time>2020-02-23T09:32:19Z</time>
      </trkpt>
      <trkpt lat="43.53277" lon="5.51075">
        <ele>229.41</ele>
        <time>2020-02-23T09:32:33Z</time>
      </trkpt>
      <trkpt lat="43.53277" lon="5.51075">
        <ele>229.41</ele>
        <time>2020-02-23T09:32:49Z</time>
      </trkpt>
      <trkpt lat="43.53275" lon="5.51078">
        <ele>229.41</ele>
        <time>2020-02-23T09:32:52Z</time>
      </trkpt>
      <trkpt lat="43.53272" lon="5.51087">
        <ele>229.41</ele>
        <time>2020-02-23T09:33:03Z</time>
      </trkpt>
      <trkpt lat="43.53268" lon="5.51096">
        <ele>228.93</ele>
        <time>2020-02-23T09:33:20Z</time>
      </trkpt>
      <trkpt lat="43.53267" lon="5.51098">
        <ele>230.37</ele>
        <time>2020-02-23T09:33:33Z</time>
      </trkpt>
      <trkpt lat="43.53261" lon="5.51103">
        <ele>230.37</ele>
        <time>2020-02-23T09:33:44Z</time>
      </trkpt>
      <trkpt lat="43.53255" lon="5.51112">
        <ele>230.85</ele>
        <time>2020-02-23T09:33:58Z</time>
      </trkpt>
      <trkpt lat="43.53252" lon="5.5111">
        <ele>230.85</ele>
        <time>2020-02-23T09:34:12Z</time>
      </trkpt>
      <trkpt lat="43.53254" lon="5.51111">
        <ele>230.85</ele>
        <time>2020-02-23T09:34:29Z</time>
      </trkpt>
      <trkpt lat="43.53254" lon="5.51111">
        <ele>229.41</ele>
        <time>2020-02-23T09:34:33Z</time>
      </trkpt>
      <trkpt lat="43.53254" lon="5.51115">
        <ele>230.37</ele>
        <time>2020-02-23T09:34:49Z</time>
      </trkpt>
      <trkpt lat="43.53254" lon="5.51121">
        <ele>230.37</ele>
        <time>2020-02-23T09:35:02Z</time>
      </trkpt>
      <trkpt lat="43.53254" lon="5.51118">
        <ele>230.85</ele>
        <time>2020-02-23T09:35:12Z</time>
      </trkpt>
      <trkpt lat="43.53261" lon="5.51104">
        <ele>230.37</ele>
        <time>2020-02-23T09:35:22Z</time>
      </trkpt>
      <trkpt lat="43.53264" lon="5.51099">
        <ele>230.37</ele>
        <time>2020-02-23T09:35:26Z</time>
      </trkpt>
      <trkpt lat="43.53272" lon="5.51095">
        <ele>230.85</ele>
        <time>2020-02-23T09:35:38Z</time>
      </trkpt>
      <trkpt lat="43.5327" lon="5.51101">
        <ele>232.78</ele>
        <time>2020-02-23T09:35:51Z</time>
      </trkpt>
      <trkpt lat="43.53273" lon="5.51108">
        <ele>234.7</ele>
        <time>2020-02-23T09:36:10Z</time>
      </trkpt>
      <trkpt lat="43.53275" lon="5.51119">
        <ele>237.58</ele>
        <time>2020-02-23T09:36:23Z</time>
      </trkpt>
      <trkpt lat="43.53268" lon="5.51129">
        <ele>240.95</ele>
        <time>2020-02-23T09:36:36Z</time>
      </trkpt>
      <trkpt lat="43.53264" lon="5.5114">
        <ele>243.35</ele>
        <time>2020-02-23T09:36:50Z</time>
      </trkpt>
      <trkpt lat="43.53255" lon="5.51143">
        <ele>243.83</ele>
        <time>2020-02-23T09:37:04Z</time>
      </trkpt>
      <trkpt lat="43.53249" lon="5.51145">
        <ele>244.79</ele>
        <time>2020-02-23T09:37:16Z</time>
      </trkpt>
      <trkpt lat="43.53248" lon="5.51145">
        <ele>244.79</ele>
        <time>2020-02-23T09:37:24Z</time>
      </trkpt>
      <trkpt lat="43.53253" lon="5.51141">
        <ele>243.35</ele>
        <time>2020-02-23T09:37:36Z</time>
      </trkpt>
      <trkpt lat="43.5324" lon="5.51145">
        <ele>244.79</ele>
        <time>2020-02-23T09:37:51Z</time>
      </trkpt>
      <trkpt lat="43.53228" lon="5.51141">
        <ele>244.79</ele>
        <time>2020-02-23T09:38:03Z</time>
      </trkpt>
      <trkpt lat="43.53219" lon="5.51134">
        <ele>244.79</ele>
        <time>2020-02-23T09:38:15Z</time>
      </trkpt>
      <trkpt lat="43.53217" lon="5.51133">
        <ele>244.79</ele>
        <time>2020-02-23T09:38:18Z</time>
      </trkpt>
      <trkpt lat="43.53208" lon="5.51128">
        <ele>244.79</ele>
        <time>2020-02-23T09:38:32Z</time>
      </trkpt>
      <trkpt lat="43.53211" lon="5.51127">
        <ele>244.31</ele>
        <time>2020-02-23T09:38:55Z</time>
      </trkpt>
      <trkpt lat="43.53203" lon="5.51124">
        <ele>244.31</ele>
        <time>2020-02-23T09:39:12Z</time>
      </trkpt>
      <trkpt lat="43.53199" lon="5.51111">
        <ele>244.31</ele>
        <time>2020-02-23T09:39:24Z</time>
      </trkpt>
      <trkpt lat="43.53197" lon="5.51104">
        <ele>244.31</ele>
        <time>2020-02-23T09:39:37Z</time>
      </trkpt>
      <trkpt lat="43.53196" lon="5.51096">
        <ele>245.27</ele>
        <time>2020-02-23T09:39:48Z</time>
      </trkpt>
      <trkpt lat="43.53193" lon="5.51091">
        <ele>246.72</ele>
        <time>2020-02-23T09:39:53Z</time>
      </trkpt>
      <trkpt lat="43.53185" lon="5.51077">
        <ele>248.64</ele>
        <time>2020-02-23T09:40:08Z</time>
      </trkpt>
      <trkpt lat="43.53179" lon="5.51078">
        <ele>249.12</ele>
        <time>2020-02-23T09:40:18Z</time>
      </trkpt>
      <trkpt lat="43.53169" lon="5.51082">
        <ele>251.52</ele>
        <time>2020-02-23T09:40:33Z</time>
      </trkpt>
      <trkpt lat="43.5317" lon="5.51083">
        <ele>251.52</ele>
        <time>2020-02-23T09:40:34Z</time>
      </trkpt>
      <trkpt lat="43.53163" lon="5.51091">
        <ele>254.41</ele>
        <time>2020-02-23T09:40:48Z</time>
      </trkpt>
      <trkpt lat="43.53163" lon="5.51092">
        <ele>254.41</ele>
        <time>2020-02-23T09:40:49Z</time>
      </trkpt>
      <trkpt lat="43.53163" lon="5.51096">
        <ele>254.89</ele>
        <time>2020-02-23T09:40:52Z</time>
      </trkpt>
      <trkpt lat="43.53158" lon="5.51099">
        <ele>254.89</ele>
        <time>2020-02-23T09:41:00Z</time>
      </trkpt>
      <trkpt lat="43.53155" lon="5.51102">
        <ele>255.37</ele>
        <time>2020-02-23T09:41:03Z</time>
      </trkpt>
      <trkpt lat="43.53147" lon="5.51112">
        <ele>255.85</ele>
        <time>2020-02-23T09:41:19Z</time>
      </trkpt>
      <trkpt lat="43.53148" lon="5.5111">
        <ele>256.33</ele>
        <time>2020-02-23T09:41:40Z</time>
      </trkpt>
      <trkpt lat="43.5315" lon="5.51107">
        <ele>256.33</ele>
        <time>2020-02-23T09:42:00Z</time>
      </trkpt>
      <trkpt lat="43.53151" lon="5.51112">
        <ele>256.33</ele>
        <time>2020-02-23T09:42:13Z</time>
      </trkpt>
      <trkpt lat="43.5315" lon="5.51116">
        <ele>256.33</ele>
        <time>2020-02-23T09:42:16Z</time>
      </trkpt>
      <trkpt lat="43.53147" lon="5.5112">
        <ele>258.25</ele>
        <time>2020-02-23T09:42:19Z</time>
      </trkpt>
      <trkpt lat="43.53142" lon="5.51136">
        <ele>259.21</ele>
        <time>2020-02-23T09:42:30Z</time>
      </trkpt>
      <trkpt lat="43.53142" lon="5.51141">
        <ele>259.69</ele>
        <time>2020-02-23T09:42:34Z</time>
      </trkpt>
      <trkpt lat="43.53148" lon="5.51156">
        <ele>262.58</ele>
        <time>2020-02-23T09:42:45Z</time>
      </trkpt>
      <trkpt lat="43.53148" lon="5.51165">
        <ele>264.02</ele>
        <time>2020-02-23T09:42:58Z</time>
      </trkpt>
      <trkpt lat="43.5315" lon="5.51175">
        <ele>264.98</ele>
        <time>2020-02-23T09:43:05Z</time>
      </trkpt>
      <trkpt lat="43.53149" lon="5.512">
        <ele>267.38</ele>
        <time>2020-02-23T09:43:20Z</time>
      </trkpt>
      <trkpt lat="43.53145" lon="5.51223">
        <ele>269.31</ele>
        <time>2020-02-23T09:43:35Z</time>
      </trkpt>
      <trkpt lat="43.53145" lon="5.51227">
        <ele>269.79</ele>
        <time>2020-02-23T09:43:38Z</time>
      </trkpt>
      <trkpt lat="43.53143" lon="5.51236">
        <ele>270.27</ele>
        <time>2020-02-23T09:43:43Z</time>
      </trkpt>
      <trkpt lat="43.53141" lon="5.51255">
        <ele>271.71</ele>
        <time>2020-02-23T09:43:58Z</time>
      </trkpt>
      <trkpt lat="43.53141" lon="5.51259">
        <ele>272.67</ele>
        <time>2020-02-23T09:44:16Z</time>
      </trkpt>
      <trkpt lat="43.53139" lon="5.51262">
        <ele>272.67</ele>
        <time>2020-02-23T09:44:22Z</time>
      </trkpt>
      <trkpt lat="43.53132" lon="5.51284">
        <ele>274.59</ele>
        <time>2020-02-23T09:44:36Z</time>
      </trkpt>
      <trkpt lat="43.53129" lon="5.51296">
        <ele>275.56</ele>
        <time>2020-02-23T09:44:44Z</time>
      </trkpt>
      <trkpt lat="43.5313" lon="5.513">
        <ele>276.52</ele>
        <time>2020-02-23T09:44:47Z</time>
      </trkpt>
      <trkpt lat="43.53125" lon="5.51318">
        <ele>279.4</ele>
        <time>2020-02-23T09:44:59Z</time>
      </trkpt>
      <trkpt lat="43.53121" lon="5.51337">
        <ele>282.28</ele>
        <time>2020-02-23T09:45:11Z</time>
      </trkpt>
      <trkpt lat="43.53115" lon="5.5136">
        <ele>285.17</ele>
        <time>2020-02-23T09:45:25Z</time>
      </trkpt>
      <trkpt lat="43.5311" lon="5.51376">
        <ele>286.61</ele>
        <time>2020-02-23T09:45:38Z</time>
      </trkpt>
      <trkpt lat="43.53106" lon="5.51384">
        <ele>286.61</ele>
        <time>2020-02-23T09:45:50Z</time>
      </trkpt>
      <trkpt lat="43.53107" lon="5.51385">
        <ele>286.61</ele>
        <time>2020-02-23T09:46:18Z</time>
      </trkpt>
      <trkpt lat="43.53108" lon="5.51391">
        <ele>286.61</ele>
        <time>2020-02-23T09:46:31Z</time>
      </trkpt>
      <trkpt lat="43.53115" lon="5.51392">
        <ele>285.17</ele>
        <time>2020-02-23T09:46:49Z</time>
      </trkpt>
      <trkpt lat="43.53119" lon="5.51391">
        <ele>284.21</ele>
        <time>2020-02-23T09:47:07Z</time>
      </trkpt>
      <trkpt lat="43.53119" lon="5.51392">
        <ele>284.21</ele>
        <time>2020-02-23T09:47:26Z</time>
      </trkpt>
      <trkpt lat="43.53122" lon="5.51393">
        <ele>284.21</ele>
        <time>2020-02-23T09:48:02Z</time>
      </trkpt>
      <trkpt lat="43.5312" lon="5.51391">
        <ele>284.21</ele>
        <time>2020-02-23T09:48:27Z</time>
      </trkpt>
      <trkpt lat="43.5312" lon="5.51391">
        <ele>284.21</ele>
        <time>2020-02-23T09:48:44Z</time>
      </trkpt>
      <trkpt lat="43.53119" lon="5.51393">
        <ele>284.21</ele>
        <time>2020-02-23T09:49:03Z</time>
      </trkpt>
      <trkpt lat="43.53114" lon="5.51394">
        <ele>284.21</ele>
        <time>2020-02-23T09:49:22Z</time>
      </trkpt>
      <trkpt lat="43.53108" lon="5.51391">
        <ele>285.65</ele>
        <time>2020-02-23T09:49:29Z</time>
      </trkpt>
      <trkpt lat="43.53112" lon="5.51393">
        <ele>285.65</ele>
        <time>2020-02-23T09:49:40Z</time>
      </trkpt>
      <trkpt lat="43.53112" lon="5.51393">
        <ele>285.65</ele>
        <time>2020-02-23T09:49:41Z</time>
      </trkpt>
      <trkpt lat="43.5311" lon="5.51389">
        <ele>285.65</ele>
        <time>2020-02-23T09:49:54Z</time>
      </trkpt>
      <trkpt lat="43.53103" lon="5.51381">
        <ele>286.61</ele>
        <time>2020-02-23T09:50:08Z</time>
      </trkpt>
      <trkpt lat="43.53097" lon="5.51377">
        <ele>287.09</ele>
        <time>2020-02-23T09:50:21Z</time>
      </trkpt>
      <trkpt lat="43.53097" lon="5.51376">
        <ele>287.09</ele>
        <time>2020-02-23T09:50:35Z</time>
      </trkpt>
      <trkpt lat="43.53099" lon="5.51375">
        <ele>287.09</ele>
        <time>2020-02-23T09:50:51Z</time>
      </trkpt>
      <trkpt lat="43.53092" lon="5.51373">
        <ele>287.09</ele>
        <time>2020-02-23T09:51:05Z</time>
      </trkpt>
      <trkpt lat="43.53078" lon="5.51376">
        <ele>285.65</ele>
        <time>2020-02-23T09:51:17Z</time>
      </trkpt>
      <trkpt lat="43.53073" lon="5.51377">
        <ele>285.17</ele>
        <time>2020-02-23T09:51:21Z</time>
      </trkpt>
      <trkpt lat="43.53064" lon="5.51379">
        <ele>284.21</ele>
        <time>2020-02-23T09:51:28Z</time>
      </trkpt>
      <trkpt lat="43.53054" lon="5.5138">
        <ele>282.77</ele>
        <time>2020-02-23T09:51:42Z</time>
      </trkpt>
      <trkpt lat="43.53045" lon="5.51379">
        <ele>280.84</ele>
        <time>2020-02-23T09:52:00Z</time>
      </trkpt>
      <trkpt lat="43.53032" lon="5.5138">
        <ele>279.4</ele>
        <time>2020-02-23T09:52:10Z</time>
      </trkpt>
      <trkpt lat="43.53016" lon="5.51378">
        <ele>277.48</ele>
        <time>2020-02-23T09:52:26Z</time>
      </trkpt>
      <trkpt lat="43.53005" lon="5.51383">
        <ele>275.56</ele>
        <time>2020-02-23T09:52:41Z</time>
      </trkpt>
      <trkpt lat="43.53004" lon="5.51386">
        <ele>275.07</ele>
        <time>2020-02-23T09:52:44Z</time>
      </trkpt>
      <trkpt lat="43.53002" lon="5.51389">
        <ele>274.11</ele>
        <time>2020-02-23T09:52:48Z</time>
      </trkpt>
      <trkpt lat="43.52986" lon="5.51396">
        <ele>272.19</ele>
        <time>2020-02-23T09:53:02Z</time>
      </trkpt>
      <trkpt lat="43.52966" lon="5.51402">
        <ele>270.75</ele>
        <time>2020-02-23T09:53:15Z</time>
      </trkpt>
      <trkpt lat="43.52951" lon="5.51406">
        <ele>270.75</ele>
        <time>2020-02-23T09:53:28Z</time>
      </trkpt>
      <trkpt lat="43.52944" lon="5.51408">
        <ele>272.67</ele>
        <time>2020-02-23T09:53:35Z</time>
      </trkpt>
      <trkpt lat="43.52942" lon="5.51409">
        <ele>273.15</ele>
        <time>2020-02-23T09:53:39Z</time>
      </trkpt>
      <trkpt lat="43.52926" lon="5.51413">
        <ele>274.11</ele>
        <time>2020-02-23T09:53:53Z</time>
      </trkpt>
      <trkpt lat="43.52917" lon="5.51417">
        <ele>275.07</ele>
        <time>2020-02-23T09:54:01Z</time>
      </trkpt>
      <trkpt lat="43.52903" lon="5.5142">
        <ele>277</ele>
        <time>2020-02-23T09:54:16Z</time>
      </trkpt>
      <trkpt lat="43.52889" lon="5.51428">
        <ele>279.88</ele>
        <time>2020-02-23T09:54:32Z</time>
      </trkpt>
      <trkpt lat="43.52887" lon="5.51429">
        <ele>280.36</ele>
        <time>2020-02-23T09:54:34Z</time>
      </trkpt>
      <trkpt lat="43.5287" lon="5.5144">
        <ele>281.32</ele>
        <time>2020-02-23T09:54:48Z</time>
      </trkpt>
      <trkpt lat="43.52855" lon="5.51445">
        <ele>283.73</ele>
        <time>2020-02-23T09:55:01Z</time>
      </trkpt>
      <trkpt lat="43.52835" lon="5.51446">
        <ele>285.65</ele>
        <time>2020-02-23T09:55:15Z</time>
      </trkpt>
      <trkpt lat="43.52824" lon="5.51448">
        <ele>285.65</ele>
        <time>2020-02-23T09:55:24Z</time>
      </trkpt>
      <trkpt lat="43.52809" lon="5.51451">
        <ele>287.09</ele>
        <time>2020-02-23T09:55:38Z</time>
      </trkpt>
      <trkpt lat="43.52799" lon="5.51452">
        <ele>288.05</ele>
        <time>2020-02-23T09:55:47Z</time>
      </trkpt>
      <trkpt lat="43.52796" lon="5.51454">
        <ele>288.53</ele>
        <time>2020-02-23T09:55:49Z</time>
      </trkpt>
      <trkpt lat="43.52789" lon="5.51458">
        <ele>289.49</ele>
        <time>2020-02-23T09:55:54Z</time>
      </trkpt>
      <trkpt lat="43.52781" lon="5.51463">
        <ele>290.94</ele>
        <time>2020-02-23T09:56:01Z</time>
      </trkpt>
      <trkpt lat="43.52758" lon="5.51477">
        <ele>292.86</ele>
        <time>2020-02-23T09:56:18Z</time>
      </trkpt>
      <trkpt lat="43.52747" lon="5.51483">
        <ele>294.78</ele>
        <time>2020-02-23T09:56:29Z</time>
      </trkpt>
      <trkpt lat="43.52734" lon="5.5149">
        <ele>298.15</ele>
        <time>2020-02-23T09:56:44Z</time>
      </trkpt>
      <trkpt lat="43.52729" lon="5.51495">
        <ele>298.63</ele>
        <time>2020-02-23T09:56:57Z</time>
      </trkpt>
      <trkpt lat="43.52721" lon="5.515">
        <ele>300.07</ele>
        <time>2020-02-23T09:57:10Z</time>
      </trkpt>
      <trkpt lat="43.5272" lon="5.51505">
        <ele>300.55</ele>
        <time>2020-02-23T09:57:26Z</time>
      </trkpt>
      <trkpt lat="43.5272" lon="5.51509">
        <ele>301.03</ele>
        <time>2020-02-23T09:58:02Z</time>
      </trkpt>
      <trkpt lat="43.52726" lon="5.51501">
        <ele>299.59</ele>
        <time>2020-02-23T09:58:17Z</time>
      </trkpt>
      <trkpt lat="43.52731" lon="5.51498">
        <ele>299.59</ele>
        <time>2020-02-23T09:58:39Z</time>
      </trkpt>
      <trkpt lat="43.52731" lon="5.51499">
        <ele>299.59</ele>
        <time>2020-02-23T09:58:40Z</time>
      </trkpt>
      <trkpt lat="43.52728" lon="5.5151">
        <ele>300.55</ele>
        <time>2020-02-23T09:58:46Z</time>
      </trkpt>
      <trkpt lat="43.52722" lon="5.51524">
        <ele>302.47</ele>
        <time>2020-02-23T09:58:59Z</time>
      </trkpt>
      <trkpt lat="43.52723" lon="5.51523">
        <ele>302.95</ele>
        <time>2020-02-23T09:59:21Z</time>
      </trkpt>
      <trkpt lat="43.52721" lon="5.51522">
        <ele>302.95</ele>
        <time>2020-02-23T09:59:56Z</time>
      </trkpt>
      <trkpt lat="43.5272" lon="5.51523">
        <ele>302.95</ele>
        <time>2020-02-23T10:00:07Z</time>
      </trkpt>
      <trkpt lat="43.52721" lon="5.51526">
        <ele>302.95</ele>
        <time>2020-02-23T10:00:22Z</time>
      </trkpt>
      <trkpt lat="43.52726" lon="5.51532">
        <ele>302.95</ele>
        <time>2020-02-23T10:00:30Z</time>
      </trkpt>
      <trkpt lat="43.52733" lon="5.51552">
        <ele>303.43</ele>
        <time>2020-02-23T10:00:45Z</time>
      </trkpt>
      <trkpt lat="43.52732" lon="5.51583">
        <ele>306.32</ele>
        <time>2020-02-23T10:01:04Z</time>
      </trkpt>
      <trkpt lat="43.52732" lon="5.51592">
        <ele>306.8</ele>
        <time>2020-02-23T10:01:09Z</time>
      </trkpt>
      <trkpt lat="43.52733" lon="5.51624">
        <ele>309.68</ele>
        <time>2020-02-23T10:01:27Z</time>
      </trkpt>
      <trkpt lat="43.52735" lon="5.51638">
        <ele>311.12</ele>
        <time>2020-02-23T10:01:36Z</time>
      </trkpt>
      <trkpt lat="43.52734" lon="5.51651">
        <ele>312.57</ele>
        <time>2020-02-23T10:01:44Z</time>
      </trkpt>
      <trkpt lat="43.52732" lon="5.51672">
        <ele>314.97</ele>
        <time>2020-02-23T10:01:57Z</time>
      </trkpt>
      <trkpt lat="43.5272" lon="5.51692">
        <ele>317.85</ele>
        <time>2020-02-23T10:02:13Z</time>
      </trkpt>
      <trkpt lat="43.52719" lon="5.51699">
        <ele>317.85</ele>
        <time>2020-02-23T10:02:28Z</time>
      </trkpt>
      <trkpt lat="43.52718" lon="5.517">
        <ele>318.33</ele>
        <time>2020-02-23T10:02:54Z</time>
      </trkpt>
      <trkpt lat="43.52718" lon="5.51699">
        <ele>318.81</ele>
        <time>2020-02-23T10:03:23Z</time>
      </trkpt>
      <trkpt lat="43.5272" lon="5.51699">
        <ele>318.81</ele>
        <time>2020-02-23T10:03:48Z</time>
      </trkpt>
      <trkpt lat="43.52724" lon="5.51706">
        <ele>318.81</ele>
        <time>2020-02-23T10:04:03Z</time>
      </trkpt>
      <trkpt lat="43.52726" lon="5.51717">
        <ele>318.33</ele>
        <time>2020-02-23T10:04:16Z</time>
      </trkpt>
      <trkpt lat="43.52726" lon="5.51721">
        <ele>318.33</ele>
        <time>2020-02-23T10:04:31Z</time>
      </trkpt>
      <trkpt lat="43.52727" lon="5.51724">
        <ele>318.33</ele>
        <time>2020-02-23T10:04:49Z</time>
      </trkpt>
      <trkpt lat="43.52726" lon="5.51746">
        <ele>318.33</ele>
        <time>2020-02-23T10:05:03Z</time>
      </trkpt>
      <trkpt lat="43.52721" lon="5.51771">
        <ele>319.3</ele>
        <time>2020-02-23T10:05:18Z</time>
      </trkpt>
      <trkpt lat="43.5272" lon="5.51778">
        <ele>319.3</ele>
        <time>2020-02-23T10:05:22Z</time>
      </trkpt>
      <trkpt lat="43.52718" lon="5.51782">
        <ele>319.78</ele>
        <time>2020-02-23T10:05:25Z</time>
      </trkpt>
      <trkpt lat="43.52714" lon="5.51811">
        <ele>320.26</ele>
        <time>2020-02-23T10:05:40Z</time>
      </trkpt>
      <trkpt lat="43.52716" lon="5.51821">
        <ele>321.22</ele>
        <time>2020-02-23T10:05:47Z</time>
      </trkpt>
      <trkpt lat="43.52715" lon="5.51825">
        <ele>321.22</ele>
        <time>2020-02-23T10:05:49Z</time>
      </trkpt>
      <trkpt lat="43.52714" lon="5.51843">
        <ele>322.66</ele>
        <time>2020-02-23T10:05:59Z</time>
      </trkpt>
      <trkpt lat="43.52714" lon="5.51846">
        <ele>322.66</ele>
        <time>2020-02-23T10:06:01Z</time>
      </trkpt>
      <trkpt lat="43.52706" lon="5.51869">
        <ele>323.14</ele>
        <time>2020-02-23T10:06:15Z</time>
      </trkpt>
      <trkpt lat="43.52694" lon="5.51895">
        <ele>323.62</ele>
        <time>2020-02-23T10:06:31Z</time>
      </trkpt>
      <trkpt lat="43.52689" lon="5.51925">
        <ele>323.62</ele>
        <time>2020-02-23T10:06:48Z</time>
      </trkpt>
      <trkpt lat="43.5269" lon="5.51957">
        <ele>323.62</ele>
        <time>2020-02-23T10:07:04Z</time>
      </trkpt>
      <trkpt lat="43.52691" lon="5.51966">
        <ele>323.62</ele>
        <time>2020-02-23T10:07:09Z</time>
      </trkpt>
      <trkpt lat="43.52694" lon="5.51998">
        <ele>324.58</ele>
        <time>2020-02-23T10:07:26Z</time>
      </trkpt>
      <trkpt lat="43.52695" lon="5.52028">
        <ele>325.54</ele>
        <time>2020-02-23T10:07:40Z</time>
      </trkpt>
      <trkpt lat="43.52697" lon="5.52054">
        <ele>326.02</ele>
        <time>2020-02-23T10:07:55Z</time>
      </trkpt>
      <trkpt lat="43.52695" lon="5.52061">
        <ele>326.02</ele>
        <time>2020-02-23T10:08:00Z</time>
      </trkpt>
      <trkpt lat="43.52695" lon="5.52071">
        <ele>326.02</ele>
        <time>2020-02-23T10:08:05Z</time>
      </trkpt>
      <trkpt lat="43.52702" lon="5.52104">
        <ele>324.58</ele>
        <time>2020-02-23T10:08:22Z</time>
      </trkpt>
      <trkpt lat="43.52703" lon="5.52106">
        <ele>324.58</ele>
        <time>2020-02-23T10:08:23Z</time>
      </trkpt>
      <trkpt lat="43.52707" lon="5.52138">
        <ele>324.58</ele>
        <time>2020-02-23T10:08:39Z</time>
      </trkpt>
      <trkpt lat="43.52712" lon="5.52167">
        <ele>325.54</ele>
        <time>2020-02-23T10:08:54Z</time>
      </trkpt>
      <trkpt lat="43.52716" lon="5.52194">
        <ele>326.5</ele>
        <time>2020-02-23T10:09:09Z</time>
      </trkpt>
      <trkpt lat="43.5272" lon="5.52224">
        <ele>326.99</ele>
        <time>2020-02-23T10:09:24Z</time>
      </trkpt>
      <trkpt lat="43.52727" lon="5.5225">
        <ele>325.54</ele>
        <time>2020-02-23T10:09:39Z</time>
      </trkpt>
      <trkpt lat="43.52739" lon="5.52272">
        <ele>322.18</ele>
        <time>2020-02-23T10:09:54Z</time>
      </trkpt>
      <trkpt lat="43.52742" lon="5.52277">
        <ele>321.22</ele>
        <time>2020-02-23T10:09:58Z</time>
      </trkpt>
      <trkpt lat="43.52753" lon="5.52291">
        <ele>319.3</ele>
        <time>2020-02-23T10:10:10Z</time>
      </trkpt>
      <trkpt lat="43.52759" lon="5.523">
        <ele>318.81</ele>
        <time>2020-02-23T10:10:22Z</time>
      </trkpt>
      <trkpt lat="43.52761" lon="5.52302">
        <ele>318.81</ele>
        <time>2020-02-23T10:10:24Z</time>
      </trkpt>
      <trkpt lat="43.52776" lon="5.52319">
        <ele>316.89</ele>
        <time>2020-02-23T10:10:41Z</time>
      </trkpt>
      <trkpt lat="43.52787" lon="5.52332">
        <ele>315.45</ele>
        <time>2020-02-23T10:10:53Z</time>
      </trkpt>
      <trkpt lat="43.52791" lon="5.52332">
        <ele>315.45</ele>
        <time>2020-02-23T10:11:05Z</time>
      </trkpt>
      <trkpt lat="43.52794" lon="5.52334">
        <ele>315.45</ele>
        <time>2020-02-23T10:11:18Z</time>
      </trkpt>
      <trkpt lat="43.52794" lon="5.52335">
        <ele>315.45</ele>
        <time>2020-02-23T10:11:45Z</time>
      </trkpt>
      <trkpt lat="43.52796" lon="5.52333">
        <ele>315.45</ele>
        <time>2020-02-23T10:12:10Z</time>
      </trkpt>
      <trkpt lat="43.52799" lon="5.52337">
        <ele>314.97</ele>
        <time>2020-02-23T10:12:28Z</time>
      </trkpt>
      <trkpt lat="43.52799" lon="5.52339">
        <ele>314.97</ele>
        <time>2020-02-23T10:12:29Z</time>
      </trkpt>
      <trkpt lat="43.52796" lon="5.52345">
        <ele>314.49</ele>
        <time>2020-02-23T10:12:44Z</time>
      </trkpt>
      <trkpt lat="43.52797" lon="5.52348">
        <ele>314.49</ele>
        <time>2020-02-23T10:12:46Z</time>
      </trkpt>
      <trkpt lat="43.52801" lon="5.52362">
        <ele>313.53</ele>
        <time>2020-02-23T10:12:57Z</time>
      </trkpt>
      <trkpt lat="43.52803" lon="5.52368">
        <ele>313.53</ele>
        <time>2020-02-23T10:13:01Z</time>
      </trkpt>
      <trkpt lat="43.52808" lon="5.52387">
        <ele>312.57</ele>
        <time>2020-02-23T10:13:15Z</time>
      </trkpt>
      <trkpt lat="43.52812" lon="5.52397">
        <ele>312.57</ele>
        <time>2020-02-23T10:13:23Z</time>
      </trkpt>
      <trkpt lat="43.52815" lon="5.52403">
        <ele>311.6</ele>
        <time>2020-02-23T10:13:28Z</time>
      </trkpt>
      <trkpt lat="43.52822" lon="5.5241">
        <ele>310.64</ele>
        <time>2020-02-23T10:13:34Z</time>
      </trkpt>
      <trkpt lat="43.52829" lon="5.52432">
        <ele>310.16</ele>
        <time>2020-02-23T10:13:47Z</time>
      </trkpt>
      <trkpt lat="43.52827" lon="5.52454">
        <ele>310.16</ele>
        <time>2020-02-23T10:14:01Z</time>
      </trkpt>
      <trkpt lat="43.52827" lon="5.52456">
        <ele>310.16</ele>
        <time>2020-02-23T10:14:02Z</time>
      </trkpt>
      <trkpt lat="43.52827" lon="5.52465">
        <ele>312.57</ele>
        <time>2020-02-23T10:14:14Z</time>
      </trkpt>
      <trkpt lat="43.52825" lon="5.5247">
        <ele>312.09</ele>
        <time>2020-02-23T10:14:34Z</time>
      </trkpt>
      <trkpt lat="43.52823" lon="5.52466">
        <ele>312.09</ele>
        <time>2020-02-23T10:14:54Z</time>
      </trkpt>
      <trkpt lat="43.52826" lon="5.52469">
        <ele>312.09</ele>
        <time>2020-02-23T10:15:05Z</time>
      </trkpt>
      <trkpt lat="43.52836" lon="5.52476">
        <ele>314.49</ele>
        <time>2020-02-23T10:15:16Z</time>
      </trkpt>
      <trkpt lat="43.52852" lon="5.52488">
        <ele>317.85</ele>
        <time>2020-02-23T10:15:25Z</time>
      </trkpt>
      <trkpt lat="43.52865" lon="5.525">
        <ele>318.33</ele>
        <time>2020-02-23T10:15:35Z</time>
      </trkpt>
      <trkpt lat="43.52868" lon="5.52505">
        <ele>318.33</ele>
        <time>2020-02-23T10:15:39Z</time>
      </trkpt>
      <trkpt lat="43.52878" lon="5.52522">
        <ele>318.33</ele>
        <time>2020-02-23T10:15:54Z</time>
      </trkpt>
      <trkpt lat="43.5288" lon="5.52523">
        <ele>318.33</ele>
        <time>2020-02-23T10:15:57Z</time>
      </trkpt>
      <trkpt lat="43.52881" lon="5.52525">
        <ele>318.33</ele>
        <time>2020-02-23T10:15:58Z</time>
      </trkpt>
      <trkpt lat="43.52882" lon="5.52526">
        <ele>318.33</ele>
        <time>2020-02-23T10:15:59Z</time>
      </trkpt>
      <trkpt lat="43.52884" lon="5.52527">
        <ele>318.33</ele>
        <time>2020-02-23T10:16:00Z</time>
      </trkpt>
      <trkpt lat="43.52894" lon="5.52541">
        <ele>318.33</ele>
        <time>2020-02-23T10:16:11Z</time>
      </trkpt>
      <trkpt lat="43.52895" lon="5.52542">
        <ele>318.33</ele>
        <time>2020-02-23T10:16:12Z</time>
      </trkpt>
      <trkpt lat="43.52896" lon="5.52543">
        <ele>318.33</ele>
        <time>2020-02-23T10:16:13Z</time>
      </trkpt>
      <trkpt lat="43.52897" lon="5.52546">
        <ele>318.33</ele>
        <time>2020-02-23T10:16:27Z</time>
      </trkpt>
      <trkpt lat="43.52898" lon="5.52545">
        <ele>318.33</ele>
        <time>2020-02-23T10:16:46Z</time>
      </trkpt>
      <trkpt lat="43.52899" lon="5.5255">
        <ele>318.33</ele>
        <time>2020-02-23T10:16:59Z</time>
      </trkpt>
      <trkpt lat="43.5291" lon="5.52571">
        <ele>319.78</ele>
        <time>2020-02-23T10:17:14Z</time>
      </trkpt>
      <trkpt lat="43.52922" lon="5.52588">
        <ele>321.7</ele>
        <time>2020-02-23T10:17:30Z</time>
      </trkpt>
      <trkpt lat="43.52926" lon="5.52592">
        <ele>322.18</ele>
        <time>2020-02-23T10:17:35Z</time>
      </trkpt>
      <trkpt lat="43.52934" lon="5.52598">
        <ele>323.62</ele>
        <time>2020-02-23T10:17:49Z</time>
      </trkpt>
      <trkpt lat="43.52943" lon="5.52602">
        <ele>324.58</ele>
        <time>2020-02-23T10:18:04Z</time>
      </trkpt>
      <trkpt lat="43.52956" lon="5.52609">
        <ele>326.02</ele>
        <time>2020-02-23T10:18:17Z</time>
      </trkpt>
      <trkpt lat="43.52957" lon="5.5261">
        <ele>326.02</ele>
        <time>2020-02-23T10:18:18Z</time>
      </trkpt>
      <trkpt lat="43.52967" lon="5.52618">
        <ele>327.47</ele>
        <time>2020-02-23T10:18:30Z</time>
      </trkpt>
      <trkpt lat="43.52982" lon="5.52623">
        <ele>328.91</ele>
        <time>2020-02-23T10:18:44Z</time>
      </trkpt>
      <trkpt lat="43.52996" lon="5.52623">
        <ele>331.31</ele>
        <time>2020-02-23T10:19:00Z</time>
      </trkpt>
      <trkpt lat="43.52999" lon="5.52622">
        <ele>331.31</ele>
        <time>2020-02-23T10:19:21Z</time>
      </trkpt>
      <trkpt lat="43.52995" lon="5.52623">
        <ele>330.83</ele>
        <time>2020-02-23T10:19:30Z</time>
      </trkpt>
      <trkpt lat="43.52994" lon="5.52624">
        <ele>330.83</ele>
        <time>2020-02-23T10:19:31Z</time>
      </trkpt>
      <trkpt lat="43.52994" lon="5.52641">
        <ele>330.83</ele>
        <time>2020-02-23T10:19:44Z</time>
      </trkpt>
      <trkpt lat="43.52995" lon="5.5265">
        <ele>332.27</ele>
        <time>2020-02-23T10:19:57Z</time>
      </trkpt>
      <trkpt lat="43.52996" lon="5.52647">
        <ele>332.27</ele>
        <time>2020-02-23T10:20:18Z</time>
      </trkpt>
      <trkpt lat="43.52997" lon="5.52649">
        <ele>332.75</ele>
        <time>2020-02-23T10:20:33Z</time>
      </trkpt>
      <trkpt lat="43.52996" lon="5.52648">
        <ele>333.23</ele>
        <time>2020-02-23T10:21:06Z</time>
      </trkpt>
      <trkpt lat="43.52996" lon="5.52659">
        <ele>335.64</ele>
        <time>2020-02-23T10:21:29Z</time>
      </trkpt>
      <trkpt lat="43.52989" lon="5.5267">
        <ele>338.52</ele>
        <time>2020-02-23T10:21:38Z</time>
      </trkpt>
      <trkpt lat="43.52979" lon="5.52684">
        <ele>341.89</ele>
        <time>2020-02-23T10:21:50Z</time>
      </trkpt>
      <trkpt lat="43.52973" lon="5.52699">
        <ele>344.77</ele>
        <time>2020-02-23T10:22:02Z</time>
      </trkpt>
      <trkpt lat="43.52971" lon="5.52704">
        <ele>346.69</ele>
        <time>2020-02-23T10:22:07Z</time>
      </trkpt>
      <trkpt lat="43.52964" lon="5.52718">
        <ele>349.1</ele>
        <time>2020-02-23T10:22:20Z</time>
      </trkpt>
      <trkpt lat="43.52959" lon="5.52732">
        <ele>351.02</ele>
        <time>2020-02-23T10:22:30Z</time>
      </trkpt>
      <trkpt lat="43.52959" lon="5.52734">
        <ele>351.02</ele>
        <time>2020-02-23T10:22:31Z</time>
      </trkpt>
      <trkpt lat="43.52959" lon="5.52735">
        <ele>351.02</ele>
        <time>2020-02-23T10:22:32Z</time>
      </trkpt>
      <trkpt lat="43.52959" lon="5.52737">
        <ele>351.5</ele>
        <time>2020-02-23T10:22:33Z</time>
      </trkpt>
      <trkpt lat="43.52958" lon="5.52738">
        <ele>351.5</ele>
        <time>2020-02-23T10:22:34Z</time>
      </trkpt>
      <trkpt lat="43.52957" lon="5.52742">
        <ele>351.98</ele>
        <time>2020-02-23T10:22:37Z</time>
      </trkpt>
      <trkpt lat="43.52952" lon="5.5276">
        <ele>355.34</ele>
        <time>2020-02-23T10:22:50Z</time>
      </trkpt>
      <trkpt lat="43.52948" lon="5.52775">
        <ele>357.27</ele>
        <time>2020-02-23T10:23:01Z</time>
      </trkpt>
      <trkpt lat="43.52948" lon="5.52776">
        <ele>357.75</ele>
        <time>2020-02-23T10:23:02Z</time>
      </trkpt>
      <trkpt lat="43.52952" lon="5.52784">
        <ele>359.19</ele>
        <time>2020-02-23T10:23:17Z</time>
      </trkpt>
      <trkpt lat="43.52957" lon="5.52786">
        <ele>359.19</ele>
        <time>2020-02-23T10:23:29Z</time>
      </trkpt>
      <trkpt lat="43.52958" lon="5.52787">
        <ele>359.19</ele>
        <time>2020-02-23T10:23:30Z</time>
      </trkpt>
      <trkpt lat="43.52958" lon="5.52787">
        <ele>359.67</ele>
        <time>2020-02-23T10:23:41Z</time>
      </trkpt>
      <trkpt lat="43.52956" lon="5.52789">
        <ele>359.67</ele>
        <time>2020-02-23T10:23:53Z</time>
      </trkpt>
      <trkpt lat="43.52958" lon="5.52789">
        <ele>359.67</ele>
        <time>2020-02-23T10:23:54Z</time>
      </trkpt>
      <trkpt lat="43.52959" lon="5.5279">
        <ele>359.67</ele>
        <time>2020-02-23T10:23:55Z</time>
      </trkpt>
      <trkpt lat="43.52973" lon="5.52802">
        <ele>360.63</ele>
        <time>2020-02-23T10:24:09Z</time>
      </trkpt>
      <trkpt lat="43.52986" lon="5.52813">
        <ele>361.59</ele>
        <time>2020-02-23T10:24:25Z</time>
      </trkpt>
      <trkpt lat="43.5299" lon="5.52821">
        <ele>361.59</ele>
        <time>2020-02-23T10:24:33Z</time>
      </trkpt>
      <trkpt lat="43.52992" lon="5.52822">
        <ele>362.07</ele>
        <time>2020-02-23T10:24:36Z</time>
      </trkpt>
      <trkpt lat="43.52993" lon="5.52823">
        <ele>362.07</ele>
        <time>2020-02-23T10:24:37Z</time>
      </trkpt>
      <trkpt lat="43.52994" lon="5.52824">
        <ele>362.07</ele>
        <time>2020-02-23T10:24:38Z</time>
      </trkpt>
      <trkpt lat="43.52997" lon="5.52833">
        <ele>362.07</ele>
        <time>2020-02-23T10:24:51Z</time>
      </trkpt>
      <trkpt lat="43.52997" lon="5.52834">
        <ele>362.07</ele>
        <time>2020-02-23T10:24:52Z</time>
      </trkpt>
      <trkpt lat="43.52999" lon="5.52855">
        <ele>362.07</ele>
        <time>2020-02-23T10:25:07Z</time>
      </trkpt>
      <trkpt lat="43.53" lon="5.52855">
        <ele>362.07</ele>
        <time>2020-02-23T10:25:17Z</time>
      </trkpt>
      <trkpt lat="43.53002" lon="5.52855">
        <ele>362.07</ele>
        <time>2020-02-23T10:25:18Z</time>
      </trkpt>
      <trkpt lat="43.53003" lon="5.52855">
        <ele>362.07</ele>
        <time>2020-02-23T10:25:19Z</time>
      </trkpt>
      <trkpt lat="43.53004" lon="5.52855">
        <ele>362.07</ele>
        <time>2020-02-23T10:25:20Z</time>
      </trkpt>
      <trkpt lat="43.53005" lon="5.52856">
        <ele>362.07</ele>
        <time>2020-02-23T10:25:21Z</time>
      </trkpt>
      <trkpt lat="43.53009" lon="5.52855">
        <ele>362.07</ele>
        <time>2020-02-23T10:25:25Z</time>
      </trkpt>
      <trkpt lat="43.53011" lon="5.52855">
        <ele>362.07</ele>
        <time>2020-02-23T10:25:26Z</time>
      </trkpt>
      <trkpt lat="43.5302" lon="5.52855">
        <ele>362.07</ele>
        <time>2020-02-23T10:25:40Z</time>
      </trkpt>
      <trkpt lat="43.53023" lon="5.52859">
        <ele>362.07</ele>
        <time>2020-02-23T10:25:54Z</time>
      </trkpt>
      <trkpt lat="43.53026" lon="5.52861">
        <ele>362.07</ele>
        <time>2020-02-23T10:25:58Z</time>
      </trkpt>
      <trkpt lat="43.53031" lon="5.52863">
        <ele>362.07</ele>
        <time>2020-02-23T10:26:01Z</time>
      </trkpt>
      <trkpt lat="43.53032" lon="5.52864">
        <ele>362.07</ele>
        <time>2020-02-23T10:26:02Z</time>
      </trkpt>
      <trkpt lat="43.53033" lon="5.52866">
        <ele>362.07</ele>
        <time>2020-02-23T10:26:03Z</time>
      </trkpt>
      <trkpt lat="43.53034" lon="5.52867">
        <ele>362.07</ele>
        <time>2020-02-23T10:26:04Z</time>
      </trkpt>
      <trkpt lat="43.53035" lon="5.52868">
        <ele>362.07</ele>
        <time>2020-02-23T10:26:05Z</time>
      </trkpt>
      <trkpt lat="43.53047" lon="5.52885">
        <ele>362.07</ele>
        <time>2020-02-23T10:26:20Z</time>
      </trkpt>
      <trkpt lat="43.53048" lon="5.52887">
        <ele>362.07</ele>
        <time>2020-02-23T10:26:24Z</time>
      </trkpt>
      <trkpt lat="43.53049" lon="5.52888">
        <ele>362.07</ele>
        <time>2020-02-23T10:26:25Z</time>
      </trkpt>
      <trkpt lat="43.53053" lon="5.52894">
        <ele>362.07</ele>
        <time>2020-02-23T10:26:35Z</time>
      </trkpt>
      <trkpt lat="43.53065" lon="5.52916">
        <ele>362.07</ele>
        <time>2020-02-23T10:26:52Z</time>
      </trkpt>
      <trkpt lat="43.53077" lon="5.52941">
        <ele>360.63</ele>
        <time>2020-02-23T10:27:10Z</time>
      </trkpt>
      <trkpt lat="43.53086" lon="5.52958">
        <ele>359.67</ele>
        <time>2020-02-23T10:27:23Z</time>
      </trkpt>
      <trkpt lat="43.53097" lon="5.5298">
        <ele>358.23</ele>
        <time>2020-02-23T10:27:39Z</time>
      </trkpt>
      <trkpt lat="43.5311" lon="5.53004">
        <ele>356.79</ele>
        <time>2020-02-23T10:27:55Z</time>
      </trkpt>
      <trkpt lat="43.53119" lon="5.53031">
        <ele>354.86</ele>
        <time>2020-02-23T10:28:11Z</time>
      </trkpt>
      <trkpt lat="43.53125" lon="5.53058">
        <ele>353.42</ele>
        <time>2020-02-23T10:28:27Z</time>
      </trkpt>
      <trkpt lat="43.53131" lon="5.53084">
        <ele>352.46</ele>
        <time>2020-02-23T10:28:43Z</time>
      </trkpt>
      <trkpt lat="43.53134" lon="5.53093">
        <ele>351.5</ele>
        <time>2020-02-23T10:28:49Z</time>
      </trkpt>
      <trkpt lat="43.53134" lon="5.53095">
        <ele>351.5</ele>
        <time>2020-02-23T10:28:50Z</time>
      </trkpt>
      <trkpt lat="43.53135" lon="5.53097">
        <ele>351.5</ele>
        <time>2020-02-23T10:28:51Z</time>
      </trkpt>
      <trkpt lat="43.53136" lon="5.53098">
        <ele>351.5</ele>
        <time>2020-02-23T10:28:52Z</time>
      </trkpt>
      <trkpt lat="43.53136" lon="5.53099">
        <ele>351.5</ele>
        <time>2020-02-23T10:28:53Z</time>
      </trkpt>
      <trkpt lat="43.53143" lon="5.53109">
        <ele>350.54</ele>
        <time>2020-02-23T10:29:01Z</time>
      </trkpt>
      <trkpt lat="43.53151" lon="5.53121">
        <ele>350.06</ele>
        <time>2020-02-23T10:29:15Z</time>
      </trkpt>
      <trkpt lat="43.53149" lon="5.53117">
        <ele>350.06</ele>
        <time>2020-02-23T10:29:31Z</time>
      </trkpt>
      <trkpt lat="43.5315" lon="5.53118">
        <ele>350.06</ele>
        <time>2020-02-23T10:29:50Z</time>
      </trkpt>
      <trkpt lat="43.5315" lon="5.5312">
        <ele>350.06</ele>
        <time>2020-02-23T10:30:04Z</time>
      </trkpt>
      <trkpt lat="43.5315" lon="5.53119">
        <ele>350.06</ele>
        <time>2020-02-23T10:30:46Z</time>
      </trkpt>
      <trkpt lat="43.53151" lon="5.53122">
        <ele>350.06</ele>
        <time>2020-02-23T10:30:51Z</time>
      </trkpt>
      <trkpt lat="43.53154" lon="5.53127">
        <ele>350.06</ele>
        <time>2020-02-23T10:30:56Z</time>
      </trkpt>
      <trkpt lat="43.53171" lon="5.53143">
        <ele>351.5</ele>
        <time>2020-02-23T10:31:12Z</time>
      </trkpt>
      <trkpt lat="43.53191" lon="5.53154">
        <ele>351.98</ele>
        <time>2020-02-23T10:31:28Z</time>
      </trkpt>
      <trkpt lat="43.53201" lon="5.53161">
        <ele>353.9</ele>
        <time>2020-02-23T10:31:43Z</time>
      </trkpt>
      <trkpt lat="43.53202" lon="5.53162">
        <ele>353.42</ele>
        <time>2020-02-23T10:32:03Z</time>
      </trkpt>
      <trkpt lat="43.53202" lon="5.53162">
        <ele>353.42</ele>
        <time>2020-02-23T10:32:09Z</time>
      </trkpt>
      <trkpt lat="43.53213" lon="5.53168">
        <ele>354.86</ele>
        <time>2020-02-23T10:32:18Z</time>
      </trkpt>
      <trkpt lat="43.53219" lon="5.53172">
        <ele>355.34</ele>
        <time>2020-02-23T10:32:23Z</time>
      </trkpt>
      <trkpt lat="43.5324" lon="5.53183">
        <ele>358.23</ele>
        <time>2020-02-23T10:32:41Z</time>
      </trkpt>
      <trkpt lat="43.53258" lon="5.53191">
        <ele>361.11</ele>
        <time>2020-02-23T10:32:56Z</time>
      </trkpt>
      <trkpt lat="43.53275" lon="5.53203">
        <ele>364</ele>
        <time>2020-02-23T10:33:12Z</time>
      </trkpt>
      <trkpt lat="43.53293" lon="5.53217">
        <ele>366.4</ele>
        <time>2020-02-23T10:33:28Z</time>
      </trkpt>
      <trkpt lat="43.5331" lon="5.53229">
        <ele>368.32</ele>
        <time>2020-02-23T10:33:46Z</time>
      </trkpt>
      <trkpt lat="43.5331" lon="5.53232">
        <ele>368.8</ele>
        <time>2020-02-23T10:34:00Z</time>
      </trkpt>
      <trkpt lat="43.53315" lon="5.53234">
        <ele>368.32</ele>
        <time>2020-02-23T10:34:17Z</time>
      </trkpt>
      <trkpt lat="43.53317" lon="5.53235">
        <ele>368.32</ele>
        <time>2020-02-23T10:34:32Z</time>
      </trkpt>
      <trkpt lat="43.53312" lon="5.53237">
        <ele>368.32</ele>
        <time>2020-02-23T10:34:39Z</time>
      </trkpt>
      <trkpt lat="43.53312" lon="5.53253">
        <ele>368.8</ele>
        <time>2020-02-23T10:34:49Z</time>
      </trkpt>
      <trkpt lat="43.53311" lon="5.53274">
        <ele>368.8</ele>
        <time>2020-02-23T10:35:04Z</time>
      </trkpt>
      <trkpt lat="43.53311" lon="5.53273">
        <ele>369.28</ele>
        <time>2020-02-23T10:35:29Z</time>
      </trkpt>
      <trkpt lat="43.53311" lon="5.53274">
        <ele>369.76</ele>
        <time>2020-02-23T10:36:02Z</time>
      </trkpt>
      <trkpt lat="43.5331" lon="5.53258">
        <ele>369.76</ele>
        <time>2020-02-23T10:36:17Z</time>
      </trkpt>
      <trkpt lat="43.5331" lon="5.53258">
        <ele>369.76</ele>
        <time>2020-02-23T10:36:20Z</time>
      </trkpt>
      <trkpt lat="43.53311" lon="5.53248">
        <ele>369.76</ele>
        <time>2020-02-23T10:36:25Z</time>
      </trkpt>
      <trkpt lat="43.53333" lon="5.53242">
        <ele>369.76</ele>
        <time>2020-02-23T10:36:38Z</time>
      </trkpt>
      <trkpt lat="43.53358" lon="5.53258">
        <ele>368.8</ele>
        <time>2020-02-23T10:36:53Z</time>
      </trkpt>
      <trkpt lat="43.53384" lon="5.53278">
        <ele>366.88</ele>
        <time>2020-02-23T10:37:10Z</time>
      </trkpt>
      <trkpt lat="43.53405" lon="5.53301">
        <ele>364</ele>
        <time>2020-02-23T10:37:27Z</time>
      </trkpt>
      <trkpt lat="43.53423" lon="5.53317">
        <ele>363.04</ele>
        <time>2020-02-23T10:37:42Z</time>
      </trkpt>
      <trkpt lat="43.53443" lon="5.53336">
        <ele>363.04</ele>
        <time>2020-02-23T10:37:59Z</time>
      </trkpt>
      <trkpt lat="43.53464" lon="5.53357">
        <ele>365.92</ele>
        <time>2020-02-23T10:38:17Z</time>
      </trkpt>
      <trkpt lat="43.53481" lon="5.53378">
        <ele>368.8</ele>
        <time>2020-02-23T10:38:35Z</time>
      </trkpt>
      <trkpt lat="43.53492" lon="5.53398">
        <ele>371.21</ele>
        <time>2020-02-23T10:38:49Z</time>
      </trkpt>
      <trkpt lat="43.53492" lon="5.534">
        <ele>371.69</ele>
        <time>2020-02-23T10:38:50Z</time>
      </trkpt>
      <trkpt lat="43.53492" lon="5.53402">
        <ele>371.69</ele>
        <time>2020-02-23T10:38:51Z</time>
      </trkpt>
      <trkpt lat="43.53502" lon="5.53429">
        <ele>372.17</ele>
        <time>2020-02-23T10:39:07Z</time>
      </trkpt>
      <trkpt lat="43.53508" lon="5.53454">
        <ele>372.65</ele>
        <time>2020-02-23T10:39:22Z</time>
      </trkpt>
      <trkpt lat="43.5351" lon="5.53483">
        <ele>373.13</ele>
        <time>2020-02-23T10:39:37Z</time>
      </trkpt>
      <trkpt lat="43.53509" lon="5.53512">
        <ele>373.61</ele>
        <time>2020-02-23T10:39:54Z</time>
      </trkpt>
      <trkpt lat="43.53512" lon="5.53519">
        <ele>373.61</ele>
        <time>2020-02-23T10:40:10Z</time>
      </trkpt>
      <trkpt lat="43.53518" lon="5.53537">
        <ele>373.61</ele>
        <time>2020-02-23T10:40:24Z</time>
      </trkpt>
      <trkpt lat="43.53529" lon="5.53565">
        <ele>373.61</ele>
        <time>2020-02-23T10:40:41Z</time>
      </trkpt>
      <trkpt lat="43.53531" lon="5.53569">
        <ele>373.61</ele>
        <time>2020-02-23T10:40:44Z</time>
      </trkpt>
      <trkpt lat="43.53532" lon="5.53571">
        <ele>373.61</ele>
        <time>2020-02-23T10:40:45Z</time>
      </trkpt>
      <trkpt lat="43.53547" lon="5.53588">
        <ele>372.17</ele>
        <time>2020-02-23T10:41:01Z</time>
      </trkpt>
      <trkpt lat="43.53563" lon="5.53601">
        <ele>371.69</ele>
        <time>2020-02-23T10:41:16Z</time>
      </trkpt>
      <trkpt lat="43.5358" lon="5.53607">
        <ele>371.21</ele>
        <time>2020-02-23T10:41:32Z</time>
      </trkpt>
      <trkpt lat="43.53581" lon="5.53607">
        <ele>371.21</ele>
        <time>2020-02-23T10:41:33Z</time>
      </trkpt>
      <trkpt lat="43.53601" lon="5.53611">
        <ele>371.21</ele>
        <time>2020-02-23T10:41:50Z</time>
      </trkpt>
      <trkpt lat="43.53602" lon="5.53611">
        <ele>371.21</ele>
        <time>2020-02-23T10:41:54Z</time>
      </trkpt>
      <trkpt lat="43.5362" lon="5.53609">
        <ele>371.21</ele>
        <time>2020-02-23T10:42:09Z</time>
      </trkpt>
      <trkpt lat="43.53636" lon="5.53603">
        <ele>370.73</ele>
        <time>2020-02-23T10:42:22Z</time>
      </trkpt>
      <trkpt lat="43.53655" lon="5.53592">
        <ele>370.73</ele>
        <time>2020-02-23T10:42:38Z</time>
      </trkpt>
      <trkpt lat="43.5367" lon="5.53578">
        <ele>370.24</ele>
        <time>2020-02-23T10:42:53Z</time>
      </trkpt>
      <trkpt lat="43.53678" lon="5.53571">
        <ele>370.24</ele>
        <time>2020-02-23T10:43:02Z</time>
      </trkpt>
      <trkpt lat="43.53688" lon="5.53563">
        <ele>370.24</ele>
        <time>2020-02-23T10:43:16Z</time>
      </trkpt>
      <trkpt lat="43.5369" lon="5.53561">
        <ele>370.24</ele>
        <time>2020-02-23T10:43:18Z</time>
      </trkpt>
      <trkpt lat="43.53703" lon="5.53545">
        <ele>369.76</ele>
        <time>2020-02-23T10:43:33Z</time>
      </trkpt>
      <trkpt lat="43.53717" lon="5.53532">
        <ele>369.28</ele>
        <time>2020-02-23T10:43:47Z</time>
      </trkpt>
      <trkpt lat="43.53737" lon="5.53524">
        <ele>368.8</ele>
        <time>2020-02-23T10:44:04Z</time>
      </trkpt>
      <trkpt lat="43.53743" lon="5.53523">
        <ele>368.8</ele>
        <time>2020-02-23T10:44:09Z</time>
      </trkpt>
      <trkpt lat="43.53744" lon="5.53523">
        <ele>368.8</ele>
        <time>2020-02-23T10:44:10Z</time>
      </trkpt>
      <trkpt lat="43.53746" lon="5.53523">
        <ele>368.8</ele>
        <time>2020-02-23T10:44:11Z</time>
      </trkpt>
      <trkpt lat="43.53747" lon="5.53523">
        <ele>368.8</ele>
        <time>2020-02-23T10:44:12Z</time>
      </trkpt>
      <trkpt lat="43.53748" lon="5.53523">
        <ele>368.8</ele>
        <time>2020-02-23T10:44:13Z</time>
      </trkpt>
      <trkpt lat="43.53768" lon="5.53528">
        <ele>368.32</ele>
        <time>2020-02-23T10:44:29Z</time>
      </trkpt>
      <trkpt lat="43.53782" lon="5.53538">
        <ele>368.32</ele>
        <time>2020-02-23T10:44:42Z</time>
      </trkpt>
      <trkpt lat="43.53786" lon="5.5354">
        <ele>367.84</ele>
        <time>2020-02-23T10:44:45Z</time>
      </trkpt>
      <trkpt lat="43.53791" lon="5.53544">
        <ele>367.84</ele>
        <time>2020-02-23T10:44:50Z</time>
      </trkpt>
      <trkpt lat="43.53795" lon="5.53549">
        <ele>367.36</ele>
        <time>2020-02-23T10:44:55Z</time>
      </trkpt>
      <trkpt lat="43.53816" lon="5.53564">
        <ele>365.92</ele>
        <time>2020-02-23T10:45:11Z</time>
      </trkpt>
      <trkpt lat="43.53828" lon="5.53577">
        <ele>364.96</ele>
        <time>2020-02-23T10:45:23Z</time>
      </trkpt>
      <trkpt lat="43.53837" lon="5.53592">
        <ele>364</ele>
        <time>2020-02-23T10:45:36Z</time>
      </trkpt>
      <trkpt lat="43.53838" lon="5.53595">
        <ele>363.52</ele>
        <time>2020-02-23T10:45:39Z</time>
      </trkpt>
      <trkpt lat="43.53842" lon="5.53601">
        <ele>363.52</ele>
        <time>2020-02-23T10:45:54Z</time>
      </trkpt>
      <trkpt lat="43.53844" lon="5.53601">
        <ele>363.52</ele>
        <time>2020-02-23T10:46:16Z</time>
      </trkpt>
      <trkpt lat="43.53842" lon="5.53597">
        <ele>363.52</ele>
        <time>2020-02-23T10:46:49Z</time>
      </trkpt>
      <trkpt lat="43.53843" lon="5.53598">
        <ele>363.04</ele>
        <time>2020-02-23T10:47:16Z</time>
      </trkpt>
      <trkpt lat="43.53841" lon="5.53595">
        <ele>363.04</ele>
        <time>2020-02-23T10:47:37Z</time>
      </trkpt>
      <trkpt lat="43.53845" lon="5.53595">
        <ele>362.55</ele>
        <time>2020-02-23T10:47:54Z</time>
      </trkpt>
      <trkpt lat="43.53858" lon="5.53587">
        <ele>361.11</ele>
        <time>2020-02-23T10:48:08Z</time>
      </trkpt>
      <trkpt lat="43.53871" lon="5.53579">
        <ele>359.19</ele>
        <time>2020-02-23T10:48:22Z</time>
      </trkpt>
      <trkpt lat="43.53886" lon="5.53569">
        <ele>357.75</ele>
        <time>2020-02-23T10:48:36Z</time>
      </trkpt>
      <trkpt lat="43.53905" lon="5.53564">
        <ele>355.83</ele>
        <time>2020-02-23T10:48:50Z</time>
      </trkpt>
      <trkpt lat="43.53921" lon="5.53576">
        <ele>354.38</ele>
        <time>2020-02-23T10:49:05Z</time>
      </trkpt>
      <trkpt lat="43.53923" lon="5.53573">
        <ele>354.38</ele>
        <time>2020-02-23T10:49:18Z</time>
      </trkpt>
      <trkpt lat="43.53926" lon="5.53581">
        <ele>353.9</ele>
        <time>2020-02-23T10:49:32Z</time>
      </trkpt>
      <trkpt lat="43.53935" lon="5.53596">
        <ele>352.46</ele>
        <time>2020-02-23T10:49:48Z</time>
      </trkpt>
      <trkpt lat="43.53945" lon="5.53607">
        <ele>351.5</ele>
        <time>2020-02-23T10:50:02Z</time>
      </trkpt>
      <trkpt lat="43.53961" lon="5.5362">
        <ele>351.5</ele>
        <time>2020-02-23T10:50:20Z</time>
      </trkpt>
      <trkpt lat="43.53972" lon="5.53628">
        <ele>351.5</ele>
        <time>2020-02-23T10:50:35Z</time>
      </trkpt>
      <trkpt lat="43.53971" lon="5.53627">
        <ele>351.5</ele>
        <time>2020-02-23T10:50:51Z</time>
      </trkpt>
      <trkpt lat="43.53971" lon="5.53629">
        <ele>352.46</ele>
        <time>2020-02-23T10:51:32Z</time>
      </trkpt>
      <trkpt lat="43.53972" lon="5.53627">
        <ele>352.46</ele>
        <time>2020-02-23T10:51:53Z</time>
      </trkpt>
      <trkpt lat="43.53972" lon="5.53627">
        <ele>352.46</ele>
        <time>2020-02-23T10:52:14Z</time>
      </trkpt>
      <trkpt lat="43.53972" lon="5.53628">
        <ele>352.46</ele>
        <time>2020-02-23T10:52:31Z</time>
      </trkpt>
      <trkpt lat="43.53973" lon="5.53629">
        <ele>352.46</ele>
        <time>2020-02-23T10:52:32Z</time>
      </trkpt>
      <trkpt lat="43.53974" lon="5.5363">
        <ele>352.46</ele>
        <time>2020-02-23T10:52:33Z</time>
      </trkpt>
      <trkpt lat="43.53996" lon="5.53646">
        <ele>352.46</ele>
        <time>2020-02-23T10:52:53Z</time>
      </trkpt>
      <trkpt lat="43.54002" lon="5.53652">
        <ele>352.46</ele>
        <time>2020-02-23T10:53:07Z</time>
      </trkpt>
      <trkpt lat="43.54004" lon="5.53652">
        <ele>352.46</ele>
        <time>2020-02-23T10:53:20Z</time>
      </trkpt>
      <trkpt lat="43.54006" lon="5.53652">
        <ele>352.46</ele>
        <time>2020-02-23T10:53:21Z</time>
      </trkpt>
      <trkpt lat="43.54022" lon="5.53653">
        <ele>352.46</ele>
        <time>2020-02-23T10:53:37Z</time>
      </trkpt>
      <trkpt lat="43.54026" lon="5.53652">
        <ele>352.46</ele>
        <time>2020-02-23T10:53:50Z</time>
      </trkpt>
      <trkpt lat="43.5403" lon="5.53656">
        <ele>352.46</ele>
        <time>2020-02-23T10:54:04Z</time>
      </trkpt>
      <trkpt lat="43.54046" lon="5.53657">
        <ele>352.46</ele>
        <time>2020-02-23T10:54:19Z</time>
      </trkpt>
      <trkpt lat="43.54044" lon="5.53655">
        <ele>352.46</ele>
        <time>2020-02-23T10:54:29Z</time>
      </trkpt>
      <trkpt lat="43.54043" lon="5.53654">
        <ele>352.46</ele>
        <time>2020-02-23T10:54:30Z</time>
      </trkpt>
      <trkpt lat="43.54042" lon="5.53653">
        <ele>352.46</ele>
        <time>2020-02-23T10:54:31Z</time>
      </trkpt>
      <trkpt lat="43.54041" lon="5.53653">
        <ele>352.46</ele>
        <time>2020-02-23T10:54:32Z</time>
      </trkpt>
      <trkpt lat="43.54039" lon="5.53653">
        <ele>352.46</ele>
        <time>2020-02-23T10:54:33Z</time>
      </trkpt>
      <trkpt lat="43.54026" lon="5.53653">
        <ele>352.46</ele>
        <time>2020-02-23T10:54:44Z</time>
      </trkpt>
      <trkpt lat="43.54022" lon="5.53653">
        <ele>352.46</ele>
        <time>2020-02-23T10:54:53Z</time>
      </trkpt>
      <trkpt lat="43.54021" lon="5.53653">
        <ele>352.46</ele>
        <time>2020-02-23T10:54:54Z</time>
      </trkpt>
      <trkpt lat="43.5402" lon="5.53653">
        <ele>352.46</ele>
        <time>2020-02-23T10:54:55Z</time>
      </trkpt>
      <trkpt lat="43.53999" lon="5.53648">
        <ele>352.46</ele>
        <time>2020-02-23T10:55:13Z</time>
      </trkpt>
      <trkpt lat="43.53979" lon="5.53638">
        <ele>352.46</ele>
        <time>2020-02-23T10:55:33Z</time>
      </trkpt>
      <trkpt lat="43.53978" lon="5.53636">
        <ele>352.46</ele>
        <time>2020-02-23T10:55:49Z</time>
      </trkpt>
      <trkpt lat="43.53965" lon="5.53626">
        <ele>352.46</ele>
        <time>2020-02-23T10:56:05Z</time>
      </trkpt>
      <trkpt lat="43.53944" lon="5.53614">
        <ele>352.46</ele>
        <time>2020-02-23T10:56:23Z</time>
      </trkpt>
      <trkpt lat="43.53934" lon="5.53601">
        <ele>352.46</ele>
        <time>2020-02-23T10:56:38Z</time>
      </trkpt>
      <trkpt lat="43.53931" lon="5.53595">
        <ele>352.94</ele>
        <time>2020-02-23T10:56:51Z</time>
      </trkpt>
      <trkpt lat="43.53925" lon="5.53582">
        <ele>354.38</ele>
        <time>2020-02-23T10:57:04Z</time>
      </trkpt>
      <trkpt lat="43.53914" lon="5.53568">
        <ele>355.34</ele>
        <time>2020-02-23T10:57:20Z</time>
      </trkpt>
      <trkpt lat="43.53906" lon="5.53563">
        <ele>356.31</ele>
        <time>2020-02-23T10:57:36Z</time>
      </trkpt>
      <trkpt lat="43.53905" lon="5.5356">
        <ele>356.31</ele>
        <time>2020-02-23T10:57:56Z</time>
      </trkpt>
      <trkpt lat="43.53903" lon="5.5356">
        <ele>356.31</ele>
        <time>2020-02-23T10:57:58Z</time>
      </trkpt>
      <trkpt lat="43.53885" lon="5.53567">
        <ele>357.75</ele>
        <time>2020-02-23T10:58:16Z</time>
      </trkpt>
      <trkpt lat="43.53871" lon="5.53581">
        <ele>359.19</ele>
        <time>2020-02-23T10:58:35Z</time>
      </trkpt>
      <trkpt lat="43.53858" lon="5.53593">
        <ele>361.11</ele>
        <time>2020-02-23T10:58:52Z</time>
      </trkpt>
      <trkpt lat="43.53844" lon="5.53596">
        <ele>362.07</ele>
        <time>2020-02-23T10:59:08Z</time>
      </trkpt>
      <trkpt lat="43.53831" lon="5.53601">
        <ele>364</ele>
        <time>2020-02-23T10:59:24Z</time>
      </trkpt>
      <trkpt lat="43.5383" lon="5.53598">
        <ele>364</ele>
        <time>2020-02-23T10:59:42Z</time>
      </trkpt>
      <trkpt lat="43.53827" lon="5.53602">
        <ele>363.52</ele>
        <time>2020-02-23T11:00:12Z</time>
      </trkpt>
      <trkpt lat="43.53826" lon="5.53602">
        <ele>363.52</ele>
        <time>2020-02-23T11:00:34Z</time>
      </trkpt>
      <trkpt lat="43.53821" lon="5.53616">
        <ele>364.48</ele>
        <time>2020-02-23T11:00:47Z</time>
      </trkpt>
      <trkpt lat="43.53817" lon="5.53631">
        <ele>365.44</ele>
        <time>2020-02-23T11:01:03Z</time>
      </trkpt>
      <trkpt lat="43.53822" lon="5.53638">
        <ele>365.92</ele>
        <time>2020-02-23T11:01:20Z</time>
      </trkpt>
      <trkpt lat="43.53825" lon="5.53641">
        <ele>365.92</ele>
        <time>2020-02-23T11:01:39Z</time>
      </trkpt>
      <trkpt lat="43.53828" lon="5.53654">
        <ele>366.4</ele>
        <time>2020-02-23T11:01:55Z</time>
      </trkpt>
      <trkpt lat="43.53832" lon="5.5366">
        <ele>366.4</ele>
        <time>2020-02-23T11:02:01Z</time>
      </trkpt>
      <trkpt lat="43.53841" lon="5.53672">
        <ele>366.88</ele>
        <time>2020-02-23T11:02:14Z</time>
      </trkpt>
      <trkpt lat="43.53842" lon="5.53674">
        <ele>366.88</ele>
        <time>2020-02-23T11:02:15Z</time>
      </trkpt>
      <trkpt lat="43.5385" lon="5.53694">
        <ele>367.84</ele>
        <time>2020-02-23T11:02:29Z</time>
      </trkpt>
      <trkpt lat="43.53853" lon="5.5372">
        <ele>368.8</ele>
        <time>2020-02-23T11:02:44Z</time>
      </trkpt>
      <trkpt lat="43.53856" lon="5.53739">
        <ele>369.28</ele>
        <time>2020-02-23T11:02:57Z</time>
      </trkpt>
      <trkpt lat="43.53855" lon="5.53748">
        <ele>369.28</ele>
        <time>2020-02-23T11:03:02Z</time>
      </trkpt>
      <trkpt lat="43.53841" lon="5.53767">
        <ele>370.24</ele>
        <time>2020-02-23T11:03:18Z</time>
      </trkpt>
      <trkpt lat="43.53839" lon="5.53771">
        <ele>370.24</ele>
        <time>2020-02-23T11:03:21Z</time>
      </trkpt>
      <trkpt lat="43.53838" lon="5.53773">
        <ele>370.24</ele>
        <time>2020-02-23T11:03:22Z</time>
      </trkpt>
      <trkpt lat="43.53834" lon="5.53783">
        <ele>370.24</ele>
        <time>2020-02-23T11:03:29Z</time>
      </trkpt>
      <trkpt lat="43.53819" lon="5.5379">
        <ele>371.21</ele>
        <time>2020-02-23T11:03:43Z</time>
      </trkpt>
      <trkpt lat="43.53807" lon="5.53797">
        <ele>371.21</ele>
        <time>2020-02-23T11:03:57Z</time>
      </trkpt>
      <trkpt lat="43.53803" lon="5.53806">
        <ele>371.21</ele>
        <time>2020-02-23T11:04:04Z</time>
      </trkpt>
      <trkpt lat="43.53798" lon="5.53822">
        <ele>371.21</ele>
        <time>2020-02-23T11:04:14Z</time>
      </trkpt>
      <trkpt lat="43.53798" lon="5.53824">
        <ele>371.21</ele>
        <time>2020-02-23T11:04:15Z</time>
      </trkpt>
      <trkpt lat="43.53798" lon="5.53825">
        <ele>371.21</ele>
        <time>2020-02-23T11:04:16Z</time>
      </trkpt>
      <trkpt lat="43.53792" lon="5.53844">
        <ele>371.21</ele>
        <time>2020-02-23T11:04:31Z</time>
      </trkpt>
      <trkpt lat="43.53785" lon="5.53859">
        <ele>371.21</ele>
        <time>2020-02-23T11:04:44Z</time>
      </trkpt>
      <trkpt lat="43.53781" lon="5.53875">
        <ele>371.21</ele>
        <time>2020-02-23T11:04:54Z</time>
      </trkpt>
      <trkpt lat="43.53774" lon="5.53895">
        <ele>371.21</ele>
        <time>2020-02-23T11:05:07Z</time>
      </trkpt>
      <trkpt lat="43.5376" lon="5.53906">
        <ele>372.17</ele>
        <time>2020-02-23T11:05:21Z</time>
      </trkpt>
      <trkpt lat="43.5375" lon="5.53906">
        <ele>372.65</ele>
        <time>2020-02-23T11:05:29Z</time>
      </trkpt>
      <trkpt lat="43.53731" lon="5.53905">
        <ele>373.13</ele>
        <time>2020-02-23T11:05:44Z</time>
      </trkpt>
      <trkpt lat="43.5373" lon="5.53905">
        <ele>373.13</ele>
        <time>2020-02-23T11:05:45Z</time>
      </trkpt>
      <trkpt lat="43.53718" lon="5.53902">
        <ele>373.13</ele>
        <time>2020-02-23T11:05:59Z</time>
      </trkpt>
      <trkpt lat="43.53702" lon="5.53901">
        <ele>373.61</ele>
        <time>2020-02-23T11:06:15Z</time>
      </trkpt>
      <trkpt lat="43.53701" lon="5.53901">
        <ele>373.61</ele>
        <time>2020-02-23T11:06:16Z</time>
      </trkpt>
      <trkpt lat="43.53681" lon="5.53904">
        <ele>374.57</ele>
        <time>2020-02-23T11:06:31Z</time>
      </trkpt>
      <trkpt lat="43.53669" lon="5.53906">
        <ele>374.57</ele>
        <time>2020-02-23T11:06:40Z</time>
      </trkpt>
      <trkpt lat="43.53667" lon="5.53905">
        <ele>374.57</ele>
        <time>2020-02-23T11:06:41Z</time>
      </trkpt>
      <trkpt lat="43.53652" lon="5.53905">
        <ele>374.57</ele>
        <time>2020-02-23T11:06:53Z</time>
      </trkpt>
      <trkpt lat="43.53651" lon="5.53905">
        <ele>374.57</ele>
        <time>2020-02-23T11:06:54Z</time>
      </trkpt>
      <trkpt lat="43.5363" lon="5.53904">
        <ele>374.57</ele>
        <time>2020-02-23T11:07:09Z</time>
      </trkpt>
      <trkpt lat="43.53611" lon="5.53903">
        <ele>375.05</ele>
        <time>2020-02-23T11:07:25Z</time>
      </trkpt>
      <trkpt lat="43.53607" lon="5.53902">
        <ele>375.05</ele>
        <time>2020-02-23T11:07:28Z</time>
      </trkpt>
      <trkpt lat="43.53606" lon="5.53903">
        <ele>375.05</ele>
        <time>2020-02-23T11:07:29Z</time>
      </trkpt>
      <trkpt lat="43.53593" lon="5.53907">
        <ele>375.05</ele>
        <time>2020-02-23T11:07:43Z</time>
      </trkpt>
      <trkpt lat="43.53577" lon="5.53915">
        <ele>375.05</ele>
        <time>2020-02-23T11:07:58Z</time>
      </trkpt>
      <trkpt lat="43.53559" lon="5.53924">
        <ele>375.05</ele>
        <time>2020-02-23T11:08:14Z</time>
      </trkpt>
      <trkpt lat="43.53539" lon="5.53931">
        <ele>375.53</ele>
        <time>2020-02-23T11:08:31Z</time>
      </trkpt>
      <trkpt lat="43.5352" lon="5.53936">
        <ele>375.05</ele>
        <time>2020-02-23T11:08:47Z</time>
      </trkpt>
      <trkpt lat="43.53519" lon="5.53937">
        <ele>375.05</ele>
        <time>2020-02-23T11:08:48Z</time>
      </trkpt>
      <trkpt lat="43.53512" lon="5.5394">
        <ele>375.05</ele>
        <time>2020-02-23T11:08:55Z</time>
      </trkpt>
      <trkpt lat="43.53511" lon="5.53941">
        <ele>375.05</ele>
        <time>2020-02-23T11:08:56Z</time>
      </trkpt>
      <trkpt lat="43.5351" lon="5.53941">
        <ele>375.05</ele>
        <time>2020-02-23T11:08:57Z</time>
      </trkpt>
      <trkpt lat="43.53488" lon="5.5395">
        <ele>375.05</ele>
        <time>2020-02-23T11:09:15Z</time>
      </trkpt>
      <trkpt lat="43.53473" lon="5.53957">
        <ele>375.05</ele>
        <time>2020-02-23T11:09:30Z</time>
      </trkpt>
      <trkpt lat="43.53469" lon="5.53956">
        <ele>375.05</ele>
        <time>2020-02-23T11:09:45Z</time>
      </trkpt>
      <trkpt lat="43.53468" lon="5.53951">
        <ele>375.05</ele>
        <time>2020-02-23T11:09:52Z</time>
      </trkpt>
      <trkpt lat="43.53471" lon="5.53937">
        <ele>373.61</ele>
        <time>2020-02-23T11:10:02Z</time>
      </trkpt>
      <trkpt lat="43.53475" lon="5.53923">
        <ele>373.13</ele>
        <time>2020-02-23T11:10:15Z</time>
      </trkpt>
      <trkpt lat="43.53473" lon="5.53923">
        <ele>373.13</ele>
        <time>2020-02-23T11:10:22Z</time>
      </trkpt>
      <trkpt lat="43.5347" lon="5.53922">
        <ele>373.13</ele>
        <time>2020-02-23T11:10:24Z</time>
      </trkpt>
      <trkpt lat="43.53458" lon="5.53921">
        <ele>372.65</ele>
        <time>2020-02-23T11:10:37Z</time>
      </trkpt>
      <trkpt lat="43.53454" lon="5.53918">
        <ele>371.69</ele>
        <time>2020-02-23T11:10:51Z</time>
      </trkpt>
      <trkpt lat="43.53451" lon="5.53919">
        <ele>371.69</ele>
        <time>2020-02-23T11:11:26Z</time>
      </trkpt>
      <trkpt lat="43.53458" lon="5.53922">
        <ele>372.65</ele>
        <time>2020-02-23T11:11:40Z</time>
      </trkpt>
      <trkpt lat="43.53465" lon="5.5392">
        <ele>372.65</ele>
        <time>2020-02-23T11:11:47Z</time>
      </trkpt>
      <trkpt lat="43.53474" lon="5.53921">
        <ele>373.61</ele>
        <time>2020-02-23T11:12:01Z</time>
      </trkpt>
      <trkpt lat="43.53476" lon="5.53922">
        <ele>373.61</ele>
        <time>2020-02-23T11:12:19Z</time>
      </trkpt>
      <trkpt lat="43.53475" lon="5.53923">
        <ele>372.17</ele>
        <time>2020-02-23T11:12:30Z</time>
      </trkpt>
      <trkpt lat="43.53476" lon="5.53923">
        <ele>372.65</ele>
        <time>2020-02-23T11:37:27Z</time>
      </trkpt>
      <trkpt lat="43.53477" lon="5.53922">
        <ele>371.21</ele>
        <time>2020-02-23T11:37:43Z</time>
      </trkpt>
      <trkpt lat="43.53478" lon="5.53924">
        <ele>371.21</ele>
        <time>2020-02-23T11:37:56Z</time>
      </trkpt>
      <trkpt lat="43.53477" lon="5.53923">
        <ele>371.21</ele>
        <time>2020-02-23T11:38:16Z</time>
      </trkpt>
      <trkpt lat="43.53479" lon="5.53923">
        <ele>371.21</ele>
        <time>2020-02-23T11:38:42Z</time>
      </trkpt>
      <trkpt lat="43.53479" lon="5.53924">
        <ele>371.21</ele>
        <time>2020-02-23T11:39:08Z</time>
      </trkpt>
      <trkpt lat="43.53479" lon="5.53924">
        <ele>371.21</ele>
        <time>2020-02-23T11:39:26Z</time>
      </trkpt>
      <trkpt lat="43.53477" lon="5.53924">
        <ele>371.21</ele>
        <time>2020-02-23T11:39:52Z</time>
      </trkpt>
      <trkpt lat="43.53479" lon="5.53925">
        <ele>371.21</ele>
        <time>2020-02-23T11:40:25Z</time>
      </trkpt>
      <trkpt lat="43.5348" lon="5.53936">
        <ele>371.69</ele>
        <time>2020-02-23T11:40:47Z</time>
      </trkpt>
      <trkpt lat="43.53481" lon="5.5395">
        <ele>372.65</ele>
        <time>2020-02-23T11:40:58Z</time>
      </trkpt>
      <trkpt lat="43.53477" lon="5.53963">
        <ele>373.61</ele>
        <time>2020-02-23T11:41:11Z</time>
      </trkpt>
      <trkpt lat="43.53468" lon="5.53976">
        <ele>374.09</ele>
        <time>2020-02-23T11:41:27Z</time>
      </trkpt>
      <trkpt lat="43.53464" lon="5.53984">
        <ele>375.05</ele>
        <time>2020-02-23T11:41:41Z</time>
      </trkpt>
      <trkpt lat="43.53462" lon="5.53985">
        <ele>375.05</ele>
        <time>2020-02-23T11:41:53Z</time>
      </trkpt>
      <trkpt lat="43.53463" lon="5.53984">
        <ele>375.05</ele>
        <time>2020-02-23T11:42:09Z</time>
      </trkpt>
      <trkpt lat="43.53467" lon="5.53977">
        <ele>375.05</ele>
        <time>2020-02-23T11:42:31Z</time>
      </trkpt>
      <trkpt lat="43.53467" lon="5.53973">
        <ele>375.05</ele>
        <time>2020-02-23T11:42:56Z</time>
      </trkpt>
      <trkpt lat="43.53467" lon="5.53974">
        <ele>375.05</ele>
        <time>2020-02-23T11:42:59Z</time>
      </trkpt>
      <trkpt lat="43.53465" lon="5.53981">
        <ele>375.05</ele>
        <time>2020-02-23T11:43:04Z</time>
      </trkpt>
      <trkpt lat="43.53463" lon="5.53989">
        <ele>375.05</ele>
        <time>2020-02-23T11:43:09Z</time>
      </trkpt>
      <trkpt lat="43.53459" lon="5.53996">
        <ele>375.05</ele>
        <time>2020-02-23T11:43:14Z</time>
      </trkpt>
      <trkpt lat="43.53447" lon="5.54016">
        <ele>374.57</ele>
        <time>2020-02-23T11:43:32Z</time>
      </trkpt>
      <trkpt lat="43.53446" lon="5.54019">
        <ele>374.09</ele>
        <time>2020-02-23T11:43:34Z</time>
      </trkpt>
      <trkpt lat="43.53442" lon="5.5404">
        <ele>374.57</ele>
        <time>2020-02-23T11:43:48Z</time>
      </trkpt>
      <trkpt lat="43.53431" lon="5.5406">
        <ele>374.09</ele>
        <time>2020-02-23T11:44:04Z</time>
      </trkpt>
      <trkpt lat="43.53418" lon="5.54078">
        <ele>373.13</ele>
        <time>2020-02-23T11:44:20Z</time>
      </trkpt>
      <trkpt lat="43.534" lon="5.5409">
        <ele>371.21</ele>
        <time>2020-02-23T11:44:37Z</time>
      </trkpt>
      <trkpt lat="43.5338" lon="5.54094">
        <ele>369.76</ele>
        <time>2020-02-23T11:44:53Z</time>
      </trkpt>
      <trkpt lat="43.53361" lon="5.54106">
        <ele>369.28</ele>
        <time>2020-02-23T11:45:10Z</time>
      </trkpt>
      <trkpt lat="43.53349" lon="5.54124">
        <ele>368.32</ele>
        <time>2020-02-23T11:45:26Z</time>
      </trkpt>
      <trkpt lat="43.53347" lon="5.54128">
        <ele>367.84</ele>
        <time>2020-02-23T11:45:29Z</time>
      </trkpt>
      <trkpt lat="43.53349" lon="5.54156">
        <ele>364</ele>
        <time>2020-02-23T11:45:46Z</time>
      </trkpt>
      <trkpt lat="43.53355" lon="5.54173">
        <ele>364</ele>
        <time>2020-02-23T11:45:57Z</time>
      </trkpt>
      <trkpt lat="43.53355" lon="5.54187">
        <ele>362.55</ele>
        <time>2020-02-23T11:46:06Z</time>
      </trkpt>
      <trkpt lat="43.53345" lon="5.54202">
        <ele>360.63</ele>
        <time>2020-02-23T11:46:18Z</time>
      </trkpt>
      <trkpt lat="43.53332" lon="5.54208">
        <ele>359.67</ele>
        <time>2020-02-23T11:46:31Z</time>
      </trkpt>
      <trkpt lat="43.53319" lon="5.5421">
        <ele>358.71</ele>
        <time>2020-02-23T11:46:42Z</time>
      </trkpt>
      <trkpt lat="43.53314" lon="5.54215">
        <ele>358.23</ele>
        <time>2020-02-23T11:46:58Z</time>
      </trkpt>
      <trkpt lat="43.53314" lon="5.54214">
        <ele>358.23</ele>
        <time>2020-02-23T11:47:17Z</time>
      </trkpt>
      <trkpt lat="43.53306" lon="5.54212">
        <ele>358.23</ele>
        <time>2020-02-23T11:47:29Z</time>
      </trkpt>
      <trkpt lat="43.53301" lon="5.5421">
        <ele>358.23</ele>
        <time>2020-02-23T11:47:35Z</time>
      </trkpt>
      <trkpt lat="43.53286" lon="5.54206">
        <ele>360.15</ele>
        <time>2020-02-23T11:47:50Z</time>
      </trkpt>
      <trkpt lat="43.53286" lon="5.54205">
        <ele>360.15</ele>
        <time>2020-02-23T11:47:52Z</time>
      </trkpt>
      <trkpt lat="43.53277" lon="5.54205">
        <ele>361.11</ele>
        <time>2020-02-23T11:48:01Z</time>
      </trkpt>
      <trkpt lat="43.53258" lon="5.54197">
        <ele>361.11</ele>
        <time>2020-02-23T11:48:17Z</time>
      </trkpt>
      <trkpt lat="43.53247" lon="5.54189">
        <ele>361.59</ele>
        <time>2020-02-23T11:48:27Z</time>
      </trkpt>
      <trkpt lat="43.5324" lon="5.54183">
        <ele>362.07</ele>
        <time>2020-02-23T11:48:34Z</time>
      </trkpt>
      <trkpt lat="43.53227" lon="5.54174">
        <ele>363.52</ele>
        <time>2020-02-23T11:48:48Z</time>
      </trkpt>
      <trkpt lat="43.53219" lon="5.54169">
        <ele>364.96</ele>
        <time>2020-02-23T11:49:00Z</time>
      </trkpt>
      <trkpt lat="43.53202" lon="5.54164">
        <ele>366.88</ele>
        <time>2020-02-23T11:49:14Z</time>
      </trkpt>
      <trkpt lat="43.53185" lon="5.54159">
        <ele>368.8</ele>
        <time>2020-02-23T11:49:28Z</time>
      </trkpt>
      <trkpt lat="43.53183" lon="5.54158">
        <ele>369.28</ele>
        <time>2020-02-23T11:49:30Z</time>
      </trkpt>
      <trkpt lat="43.53174" lon="5.54156">
        <ele>370.24</ele>
        <time>2020-02-23T11:49:38Z</time>
      </trkpt>
      <trkpt lat="43.53171" lon="5.54157">
        <ele>370.24</ele>
        <time>2020-02-23T11:49:41Z</time>
      </trkpt>
      <trkpt lat="43.53158" lon="5.54154">
        <ele>371.69</ele>
        <time>2020-02-23T11:49:56Z</time>
      </trkpt>
      <trkpt lat="43.53159" lon="5.54169">
        <ele>370.24</ele>
        <time>2020-02-23T11:50:07Z</time>
      </trkpt>
      <trkpt lat="43.53155" lon="5.54176">
        <ele>370.24</ele>
        <time>2020-02-23T11:50:12Z</time>
      </trkpt>
      <trkpt lat="43.53138" lon="5.54194">
        <ele>369.28</ele>
        <time>2020-02-23T11:50:28Z</time>
      </trkpt>
      <trkpt lat="43.53126" lon="5.5421">
        <ele>368.8</ele>
        <time>2020-02-23T11:50:42Z</time>
      </trkpt>
      <trkpt lat="43.53121" lon="5.54214">
        <ele>367.84</ele>
        <time>2020-02-23T11:50:55Z</time>
      </trkpt>
      <trkpt lat="43.53123" lon="5.54214">
        <ele>367.84</ele>
        <time>2020-02-23T11:51:17Z</time>
      </trkpt>
      <trkpt lat="43.53123" lon="5.54224">
        <ele>367.84</ele>
        <time>2020-02-23T11:51:28Z</time>
      </trkpt>
      <trkpt lat="43.53123" lon="5.54223">
        <ele>367.84</ele>
        <time>2020-02-23T11:51:42Z</time>
      </trkpt>
      <trkpt lat="43.53123" lon="5.54224">
        <ele>367.84</ele>
        <time>2020-02-23T11:52:01Z</time>
      </trkpt>
      <trkpt lat="43.53121" lon="5.54227">
        <ele>367.84</ele>
        <time>2020-02-23T11:52:22Z</time>
      </trkpt>
      <trkpt lat="43.53121" lon="5.54233">
        <ele>367.36</ele>
        <time>2020-02-23T11:52:47Z</time>
      </trkpt>
      <trkpt lat="43.53122" lon="5.54255">
        <ele>364.48</ele>
        <time>2020-02-23T11:53:03Z</time>
      </trkpt>
      <trkpt lat="43.53123" lon="5.54261">
        <ele>364</ele>
        <time>2020-02-23T11:53:17Z</time>
      </trkpt>
      <trkpt lat="43.53122" lon="5.5427">
        <ele>363.52</ele>
        <time>2020-02-23T11:53:31Z</time>
      </trkpt>
      <trkpt lat="43.53116" lon="5.54295">
        <ele>362.07</ele>
        <time>2020-02-23T11:53:47Z</time>
      </trkpt>
      <trkpt lat="43.5311" lon="5.5432">
        <ele>360.15</ele>
        <time>2020-02-23T11:54:04Z</time>
      </trkpt>
      <trkpt lat="43.53109" lon="5.54341">
        <ele>358.71</ele>
        <time>2020-02-23T11:54:19Z</time>
      </trkpt>
      <trkpt lat="43.53101" lon="5.54349">
        <ele>357.27</ele>
        <time>2020-02-23T11:54:33Z</time>
      </trkpt>
      <trkpt lat="43.53102" lon="5.54352">
        <ele>356.79</ele>
        <time>2020-02-23T11:54:49Z</time>
      </trkpt>
      <trkpt lat="43.53106" lon="5.54362">
        <ele>356.79</ele>
        <time>2020-02-23T11:55:00Z</time>
      </trkpt>
      <trkpt lat="43.53105" lon="5.54386">
        <ele>355.34</ele>
        <time>2020-02-23T11:55:15Z</time>
      </trkpt>
      <trkpt lat="43.53104" lon="5.54407">
        <ele>353.42</ele>
        <time>2020-02-23T11:55:28Z</time>
      </trkpt>
      <trkpt lat="43.53102" lon="5.54438">
        <ele>351.98</ele>
        <time>2020-02-23T11:55:45Z</time>
      </trkpt>
      <trkpt lat="43.531" lon="5.54467">
        <ele>349.58</ele>
        <time>2020-02-23T11:56:02Z</time>
      </trkpt>
      <trkpt lat="43.531" lon="5.54474">
        <ele>349.58</ele>
        <time>2020-02-23T11:56:06Z</time>
      </trkpt>
      <trkpt lat="43.53109" lon="5.54503">
        <ele>348.13</ele>
        <time>2020-02-23T11:56:23Z</time>
      </trkpt>
      <trkpt lat="43.53109" lon="5.54505">
        <ele>348.13</ele>
        <time>2020-02-23T11:56:24Z</time>
      </trkpt>
      <trkpt lat="43.53106" lon="5.54518">
        <ele>348.13</ele>
        <time>2020-02-23T11:56:33Z</time>
      </trkpt>
      <trkpt lat="43.53105" lon="5.54521">
        <ele>348.13</ele>
        <time>2020-02-23T11:56:35Z</time>
      </trkpt>
      <trkpt lat="43.53096" lon="5.54534">
        <ele>349.58</ele>
        <time>2020-02-23T11:56:52Z</time>
      </trkpt>
      <trkpt lat="43.531" lon="5.54539">
        <ele>349.1</ele>
        <time>2020-02-23T11:57:03Z</time>
      </trkpt>
      <trkpt lat="43.53113" lon="5.54535">
        <ele>348.13</ele>
        <time>2020-02-23T11:57:15Z</time>
      </trkpt>
      <trkpt lat="43.5312" lon="5.54528">
        <ele>347.65</ele>
        <time>2020-02-23T11:57:21Z</time>
      </trkpt>
      <trkpt lat="43.53129" lon="5.54508">
        <ele>345.25</ele>
        <time>2020-02-23T11:57:35Z</time>
      </trkpt>
      <trkpt lat="43.53136" lon="5.54501">
        <ele>343.33</ele>
        <time>2020-02-23T11:57:45Z</time>
      </trkpt>
      <trkpt lat="43.53145" lon="5.54495">
        <ele>342.37</ele>
        <time>2020-02-23T11:57:51Z</time>
      </trkpt>
      <trkpt lat="43.53149" lon="5.54498">
        <ele>341.89</ele>
        <time>2020-02-23T11:57:57Z</time>
      </trkpt>
      <trkpt lat="43.5316" lon="5.54515">
        <ele>340.92</ele>
        <time>2020-02-23T11:58:08Z</time>
      </trkpt>
      <trkpt lat="43.53165" lon="5.5452">
        <ele>339.48</ele>
        <time>2020-02-23T11:58:15Z</time>
      </trkpt>
      <trkpt lat="43.53166" lon="5.54522">
        <ele>339.48</ele>
        <time>2020-02-23T11:58:16Z</time>
      </trkpt>
      <trkpt lat="43.53168" lon="5.54523">
        <ele>339</ele>
        <time>2020-02-23T11:58:17Z</time>
      </trkpt>
      <trkpt lat="43.53169" lon="5.54525">
        <ele>339</ele>
        <time>2020-02-23T11:58:18Z</time>
      </trkpt>
      <trkpt lat="43.53171" lon="5.54526">
        <ele>338.52</ele>
        <time>2020-02-23T11:58:19Z</time>
      </trkpt>
      <trkpt lat="43.53173" lon="5.54537">
        <ele>337.56</ele>
        <time>2020-02-23T11:58:29Z</time>
      </trkpt>
      <trkpt lat="43.53174" lon="5.54538">
        <ele>337.08</ele>
        <time>2020-02-23T11:58:30Z</time>
      </trkpt>
      <trkpt lat="43.53175" lon="5.5454">
        <ele>337.08</ele>
        <time>2020-02-23T11:58:31Z</time>
      </trkpt>
      <trkpt lat="43.53182" lon="5.54557">
        <ele>334.68</ele>
        <time>2020-02-23T11:58:44Z</time>
      </trkpt>
      <trkpt lat="43.53182" lon="5.54565">
        <ele>334.2</ele>
        <time>2020-02-23T11:58:48Z</time>
      </trkpt>
      <trkpt lat="43.53182" lon="5.54567">
        <ele>334.2</ele>
        <time>2020-02-23T11:58:49Z</time>
      </trkpt>
      <trkpt lat="43.53182" lon="5.54569">
        <ele>334.2</ele>
        <time>2020-02-23T11:58:50Z</time>
      </trkpt>
      <trkpt lat="43.53183" lon="5.54581">
        <ele>333.23</ele>
        <time>2020-02-23T11:58:58Z</time>
      </trkpt>
      <trkpt lat="43.53187" lon="5.54608">
        <ele>330.35</ele>
        <time>2020-02-23T11:59:14Z</time>
      </trkpt>
      <trkpt lat="43.53192" lon="5.54632">
        <ele>327.95</ele>
        <time>2020-02-23T11:59:29Z</time>
      </trkpt>
      <trkpt lat="43.53192" lon="5.54639">
        <ele>327.95</ele>
        <time>2020-02-23T11:59:34Z</time>
      </trkpt>
      <trkpt lat="43.53192" lon="5.54645">
        <ele>326.99</ele>
        <time>2020-02-23T11:59:38Z</time>
      </trkpt>
      <trkpt lat="43.53191" lon="5.54666">
        <ele>325.06</ele>
        <time>2020-02-23T11:59:54Z</time>
      </trkpt>
      <trkpt lat="43.5319" lon="5.54671">
        <ele>324.1</ele>
        <time>2020-02-23T12:00:12Z</time>
      </trkpt>
      <trkpt lat="43.5319" lon="5.54672">
        <ele>324.1</ele>
        <time>2020-02-23T12:00:16Z</time>
      </trkpt>
      <trkpt lat="43.53189" lon="5.54673">
        <ele>324.1</ele>
        <time>2020-02-23T12:00:17Z</time>
      </trkpt>
      <trkpt lat="43.53188" lon="5.5469">
        <ele>322.66</ele>
        <time>2020-02-23T12:00:31Z</time>
      </trkpt>
      <trkpt lat="43.5319" lon="5.54698">
        <ele>321.7</ele>
        <time>2020-02-23T12:00:45Z</time>
      </trkpt>
      <trkpt lat="43.53193" lon="5.54709">
        <ele>320.74</ele>
        <time>2020-02-23T12:00:56Z</time>
      </trkpt>
      <trkpt lat="43.53195" lon="5.54714">
        <ele>320.26</ele>
        <time>2020-02-23T12:01:13Z</time>
      </trkpt>
      <trkpt lat="43.532" lon="5.54721">
        <ele>319.3</ele>
        <time>2020-02-23T12:01:20Z</time>
      </trkpt>
      <trkpt lat="43.53201" lon="5.54722">
        <ele>318.81</ele>
        <time>2020-02-23T12:01:21Z</time>
      </trkpt>
      <trkpt lat="43.53206" lon="5.54739">
        <ele>317.85</ele>
        <time>2020-02-23T12:01:35Z</time>
      </trkpt>
      <trkpt lat="43.5321" lon="5.54757">
        <ele>315.45</ele>
        <time>2020-02-23T12:01:50Z</time>
      </trkpt>
      <trkpt lat="43.53212" lon="5.54765">
        <ele>313.53</ele>
        <time>2020-02-23T12:01:57Z</time>
      </trkpt>
      <trkpt lat="43.53204" lon="5.54779">
        <ele>310.64</ele>
        <time>2020-02-23T12:02:09Z</time>
      </trkpt>
      <trkpt lat="43.53197" lon="5.54794">
        <ele>307.28</ele>
        <time>2020-02-23T12:02:22Z</time>
      </trkpt>
      <trkpt lat="43.53185" lon="5.54802">
        <ele>305.84</ele>
        <time>2020-02-23T12:02:37Z</time>
      </trkpt>
      <trkpt lat="43.53179" lon="5.54803">
        <ele>304.39</ele>
        <time>2020-02-23T12:02:46Z</time>
      </trkpt>
      <trkpt lat="43.53163" lon="5.548">
        <ele>301.99</ele>
        <time>2020-02-23T12:03:02Z</time>
      </trkpt>
      <trkpt lat="43.53158" lon="5.54799">
        <ele>301.03</ele>
        <time>2020-02-23T12:03:08Z</time>
      </trkpt>
      <trkpt lat="43.53144" lon="5.54804">
        <ele>298.63</ele>
        <time>2020-02-23T12:03:23Z</time>
      </trkpt>
      <trkpt lat="43.53142" lon="5.54805">
        <ele>297.67</ele>
        <time>2020-02-23T12:03:25Z</time>
      </trkpt>
      <trkpt lat="43.5313" lon="5.5481">
        <ele>294.3</ele>
        <time>2020-02-23T12:03:37Z</time>
      </trkpt>
      <trkpt lat="43.53115" lon="5.54818">
        <ele>291.9</ele>
        <time>2020-02-23T12:03:50Z</time>
      </trkpt>
      <trkpt lat="43.531" lon="5.54825">
        <ele>288.53</ele>
        <time>2020-02-23T12:04:02Z</time>
      </trkpt>
      <trkpt lat="43.53088" lon="5.54829">
        <ele>286.61</ele>
        <time>2020-02-23T12:04:11Z</time>
      </trkpt>
      <trkpt lat="43.53087" lon="5.54829">
        <ele>287.09</ele>
        <time>2020-02-23T12:04:12Z</time>
      </trkpt>
      <trkpt lat="43.53086" lon="5.5483">
        <ele>286.61</ele>
        <time>2020-02-23T12:04:13Z</time>
      </trkpt>
      <trkpt lat="43.53074" lon="5.54836">
        <ele>284.69</ele>
        <time>2020-02-23T12:04:27Z</time>
      </trkpt>
      <trkpt lat="43.53073" lon="5.5484">
        <ele>283.73</ele>
        <time>2020-02-23T12:04:43Z</time>
      </trkpt>
      <trkpt lat="43.53078" lon="5.54838">
        <ele>283.73</ele>
        <time>2020-02-23T12:05:20Z</time>
      </trkpt>
      <trkpt lat="43.53066" lon="5.54843">
        <ele>282.28</ele>
        <time>2020-02-23T12:05:44Z</time>
      </trkpt>
      <trkpt lat="43.53055" lon="5.54854">
        <ele>278.92</ele>
        <time>2020-02-23T12:05:55Z</time>
      </trkpt>
      <trkpt lat="43.53054" lon="5.54855">
        <ele>278.92</ele>
        <time>2020-02-23T12:05:56Z</time>
      </trkpt>
      <trkpt lat="43.53053" lon="5.54857">
        <ele>278.92</ele>
        <time>2020-02-23T12:05:57Z</time>
      </trkpt>
      <trkpt lat="43.53052" lon="5.54858">
        <ele>278.44</ele>
        <time>2020-02-23T12:05:58Z</time>
      </trkpt>
      <trkpt lat="43.53051" lon="5.54859">
        <ele>278.44</ele>
        <time>2020-02-23T12:05:59Z</time>
      </trkpt>
      <trkpt lat="43.5304" lon="5.54873">
        <ele>276.52</ele>
        <time>2020-02-23T12:06:11Z</time>
      </trkpt>
      <trkpt lat="43.53023" lon="5.54887">
        <ele>275.07</ele>
        <time>2020-02-23T12:06:26Z</time>
      </trkpt>
      <trkpt lat="43.5302" lon="5.54892">
        <ele>273.63</ele>
        <time>2020-02-23T12:06:31Z</time>
      </trkpt>
      <trkpt lat="43.53012" lon="5.54905">
        <ele>273.15</ele>
        <time>2020-02-23T12:06:40Z</time>
      </trkpt>
      <trkpt lat="43.53011" lon="5.54907">
        <ele>273.15</ele>
        <time>2020-02-23T12:06:41Z</time>
      </trkpt>
      <trkpt lat="43.53011" lon="5.54909">
        <ele>273.15</ele>
        <time>2020-02-23T12:06:42Z</time>
      </trkpt>
      <trkpt lat="43.53011" lon="5.5492">
        <ele>273.15</ele>
        <time>2020-02-23T12:06:48Z</time>
      </trkpt>
      <trkpt lat="43.5301" lon="5.54922">
        <ele>273.15</ele>
        <time>2020-02-23T12:06:49Z</time>
      </trkpt>
      <trkpt lat="43.5301" lon="5.54923">
        <ele>273.15</ele>
        <time>2020-02-23T12:06:50Z</time>
      </trkpt>
      <trkpt lat="43.53009" lon="5.54925">
        <ele>273.15</ele>
        <time>2020-02-23T12:06:51Z</time>
      </trkpt>
      <trkpt lat="43.53009" lon="5.54926">
        <ele>273.15</ele>
        <time>2020-02-23T12:06:52Z</time>
      </trkpt>
      <trkpt lat="43.53008" lon="5.54928">
        <ele>273.15</ele>
        <time>2020-02-23T12:06:53Z</time>
      </trkpt>
      <trkpt lat="43.53005" lon="5.54936">
        <ele>273.15</ele>
        <time>2020-02-23T12:07:08Z</time>
      </trkpt>
      <trkpt lat="43.53002" lon="5.5494">
        <ele>273.15</ele>
        <time>2020-02-23T12:07:13Z</time>
      </trkpt>
      <trkpt lat="43.52988" lon="5.54951">
        <ele>272.67</ele>
        <time>2020-02-23T12:07:28Z</time>
      </trkpt>
      <trkpt lat="43.52981" lon="5.54949">
        <ele>271.71</ele>
        <time>2020-02-23T12:07:34Z</time>
      </trkpt>
      <trkpt lat="43.52973" lon="5.54946">
        <ele>271.71</ele>
        <time>2020-02-23T12:07:41Z</time>
      </trkpt>
      <trkpt lat="43.52972" lon="5.54946">
        <ele>271.71</ele>
        <time>2020-02-23T12:07:42Z</time>
      </trkpt>
      <trkpt lat="43.52971" lon="5.54946">
        <ele>271.71</ele>
        <time>2020-02-23T12:07:43Z</time>
      </trkpt>
      <trkpt lat="43.52956" lon="5.54959">
        <ele>270.75</ele>
        <time>2020-02-23T12:07:58Z</time>
      </trkpt>
      <trkpt lat="43.52951" lon="5.5496">
        <ele>270.75</ele>
        <time>2020-02-23T12:08:09Z</time>
      </trkpt>
      <trkpt lat="43.52939" lon="5.54966">
        <ele>270.27</ele>
        <time>2020-02-23T12:08:19Z</time>
      </trkpt>
      <trkpt lat="43.52936" lon="5.54966">
        <ele>270.27</ele>
        <time>2020-02-23T12:08:22Z</time>
      </trkpt>
      <trkpt lat="43.52934" lon="5.54966">
        <ele>269.79</ele>
        <time>2020-02-23T12:08:23Z</time>
      </trkpt>
      <trkpt lat="43.52933" lon="5.54964">
        <ele>269.79</ele>
        <time>2020-02-23T12:08:24Z</time>
      </trkpt>
      <trkpt lat="43.52932" lon="5.54963">
        <ele>269.31</ele>
        <time>2020-02-23T12:08:25Z</time>
      </trkpt>
      <trkpt lat="43.52931" lon="5.54962">
        <ele>269.31</ele>
        <time>2020-02-23T12:08:26Z</time>
      </trkpt>
      <trkpt lat="43.52931" lon="5.54961">
        <ele>269.31</ele>
        <time>2020-02-23T12:08:27Z</time>
      </trkpt>
      <trkpt lat="43.5293" lon="5.5496">
        <ele>269.31</ele>
        <time>2020-02-23T12:08:28Z</time>
      </trkpt>
      <trkpt lat="43.52922" lon="5.54947">
        <ele>268.83</ele>
        <time>2020-02-23T12:08:43Z</time>
      </trkpt>
      <trkpt lat="43.52915" lon="5.54946">
        <ele>267.86</ele>
        <time>2020-02-23T12:08:58Z</time>
      </trkpt>
      <trkpt lat="43.52914" lon="5.54946">
        <ele>267.86</ele>
        <time>2020-02-23T12:08:59Z</time>
      </trkpt>
      <trkpt lat="43.52909" lon="5.54939">
        <ele>267.86</ele>
        <time>2020-02-23T12:09:04Z</time>
      </trkpt>
      <trkpt lat="43.52908" lon="5.54938">
        <ele>267.86</ele>
        <time>2020-02-23T12:09:05Z</time>
      </trkpt>
      <trkpt lat="43.52907" lon="5.54937">
        <ele>267.86</ele>
        <time>2020-02-23T12:09:06Z</time>
      </trkpt>
      <trkpt lat="43.52903" lon="5.54934">
        <ele>267.86</ele>
        <time>2020-02-23T12:09:10Z</time>
      </trkpt>
      <trkpt lat="43.52903" lon="5.54933">
        <ele>267.86</ele>
        <time>2020-02-23T12:09:11Z</time>
      </trkpt>
      <trkpt lat="43.52902" lon="5.54931">
        <ele>267.86</ele>
        <time>2020-02-23T12:09:12Z</time>
      </trkpt>
      <trkpt lat="43.52889" lon="5.54918">
        <ele>269.31</ele>
        <time>2020-02-23T12:09:25Z</time>
      </trkpt>
      <trkpt lat="43.52884" lon="5.54913">
        <ele>269.79</ele>
        <time>2020-02-23T12:09:36Z</time>
      </trkpt>
      <trkpt lat="43.52883" lon="5.54912">
        <ele>269.79</ele>
        <time>2020-02-23T12:09:37Z</time>
      </trkpt>
      <trkpt lat="43.52867" lon="5.54899">
        <ele>269.79</ele>
        <time>2020-02-23T12:09:51Z</time>
      </trkpt>
      <trkpt lat="43.52851" lon="5.5488">
        <ele>268.35</ele>
        <time>2020-02-23T12:10:07Z</time>
      </trkpt>
      <trkpt lat="43.52837" lon="5.54863">
        <ele>266.9</ele>
        <time>2020-02-23T12:10:23Z</time>
      </trkpt>
      <trkpt lat="43.5283" lon="5.54849">
        <ele>266.42</ele>
        <time>2020-02-23T12:10:32Z</time>
      </trkpt>
      <trkpt lat="43.52829" lon="5.54847">
        <ele>266.42</ele>
        <time>2020-02-23T12:10:33Z</time>
      </trkpt>
      <trkpt lat="43.52819" lon="5.54831">
        <ele>265.94</ele>
        <time>2020-02-23T12:10:47Z</time>
      </trkpt>
      <trkpt lat="43.52814" lon="5.54821">
        <ele>264.5</ele>
        <time>2020-02-23T12:10:55Z</time>
      </trkpt>
      <trkpt lat="43.52811" lon="5.54818">
        <ele>264.5</ele>
        <time>2020-02-23T12:10:59Z</time>
      </trkpt>
      <trkpt lat="43.52807" lon="5.54816">
        <ele>264.02</ele>
        <time>2020-02-23T12:11:03Z</time>
      </trkpt>
      <trkpt lat="43.528" lon="5.54811">
        <ele>263.06</ele>
        <time>2020-02-23T12:11:13Z</time>
      </trkpt>
      <trkpt lat="43.52791" lon="5.54807">
        <ele>263.06</ele>
        <time>2020-02-23T12:11:27Z</time>
      </trkpt>
      <trkpt lat="43.52789" lon="5.54804">
        <ele>263.06</ele>
        <time>2020-02-23T12:11:43Z</time>
      </trkpt>
      <trkpt lat="43.52788" lon="5.54802">
        <ele>264.02</ele>
        <time>2020-02-23T12:12:11Z</time>
      </trkpt>
      <trkpt lat="43.52784" lon="5.54801">
        <ele>264.5</ele>
        <time>2020-02-23T12:12:22Z</time>
      </trkpt>
      <trkpt lat="43.52783" lon="5.54801">
        <ele>264.5</ele>
        <time>2020-02-23T12:12:23Z</time>
      </trkpt>
      <trkpt lat="43.52763" lon="5.54792">
        <ele>264.5</ele>
        <time>2020-02-23T12:12:39Z</time>
      </trkpt>
      <trkpt lat="43.52744" lon="5.54782">
        <ele>264.5</ele>
        <time>2020-02-23T12:12:56Z</time>
      </trkpt>
      <trkpt lat="43.52737" lon="5.54781">
        <ele>263.54</ele>
        <time>2020-02-23T12:13:12Z</time>
      </trkpt>
      <trkpt lat="43.52733" lon="5.54778">
        <ele>263.06</ele>
        <time>2020-02-23T12:13:31Z</time>
      </trkpt>
      <trkpt lat="43.52732" lon="5.54777">
        <ele>263.06</ele>
        <time>2020-02-23T12:13:32Z</time>
      </trkpt>
      <trkpt lat="43.52731" lon="5.54776">
        <ele>263.06</ele>
        <time>2020-02-23T12:13:33Z</time>
      </trkpt>
      <trkpt lat="43.52712" lon="5.54769">
        <ele>263.06</ele>
        <time>2020-02-23T12:13:48Z</time>
      </trkpt>
      <trkpt lat="43.52709" lon="5.54763">
        <ele>263.06</ele>
        <time>2020-02-23T12:14:01Z</time>
      </trkpt>
      <trkpt lat="43.52696" lon="5.54752">
        <ele>263.06</ele>
        <time>2020-02-23T12:14:18Z</time>
      </trkpt>
      <trkpt lat="43.52694" lon="5.54747">
        <ele>263.06</ele>
        <time>2020-02-23T12:14:22Z</time>
      </trkpt>
      <trkpt lat="43.52692" lon="5.54731">
        <ele>264.98</ele>
        <time>2020-02-23T12:14:36Z</time>
      </trkpt>
      <trkpt lat="43.52685" lon="5.54721">
        <ele>265.46</ele>
        <time>2020-02-23T12:14:50Z</time>
      </trkpt>
      <trkpt lat="43.52675" lon="5.54708">
        <ele>265.46</ele>
        <time>2020-02-23T12:15:05Z</time>
      </trkpt>
      <trkpt lat="43.52668" lon="5.54695">
        <ele>265.46</ele>
        <time>2020-02-23T12:15:19Z</time>
      </trkpt>
      <trkpt lat="43.52659" lon="5.54678">
        <ele>265.46</ele>
        <time>2020-02-23T12:15:34Z</time>
      </trkpt>
      <trkpt lat="43.52655" lon="5.5467">
        <ele>265.46</ele>
        <time>2020-02-23T12:15:49Z</time>
      </trkpt>
      <trkpt lat="43.52654" lon="5.54669">
        <ele>265.46</ele>
        <time>2020-02-23T12:15:50Z</time>
      </trkpt>
      <trkpt lat="43.52641" lon="5.54648">
        <ele>265.46</ele>
        <time>2020-02-23T12:16:05Z</time>
      </trkpt>
      <trkpt lat="43.52631" lon="5.54634">
        <ele>265.46</ele>
        <time>2020-02-23T12:16:17Z</time>
      </trkpt>
      <trkpt lat="43.52627" lon="5.54628">
        <ele>265.46</ele>
        <time>2020-02-23T12:16:23Z</time>
      </trkpt>
      <trkpt lat="43.52626" lon="5.54625">
        <ele>265.46</ele>
        <time>2020-02-23T12:16:26Z</time>
      </trkpt>
      <trkpt lat="43.52621" lon="5.54614">
        <ele>265.46</ele>
        <time>2020-02-23T12:16:34Z</time>
      </trkpt>
      <trkpt lat="43.5262" lon="5.54613">
        <ele>265.46</ele>
        <time>2020-02-23T12:16:35Z</time>
      </trkpt>
      <trkpt lat="43.52619" lon="5.54612">
        <ele>265.46</ele>
        <time>2020-02-23T12:16:36Z</time>
      </trkpt>
      <trkpt lat="43.52618" lon="5.5461">
        <ele>265.46</ele>
        <time>2020-02-23T12:16:37Z</time>
      </trkpt>
      <trkpt lat="43.5261" lon="5.54596">
        <ele>265.94</ele>
        <time>2020-02-23T12:16:49Z</time>
      </trkpt>
      <trkpt lat="43.52601" lon="5.54579">
        <ele>265.94</ele>
        <time>2020-02-23T12:17:02Z</time>
      </trkpt>
      <trkpt lat="43.526" lon="5.54576">
        <ele>265.94</ele>
        <time>2020-02-23T12:17:04Z</time>
      </trkpt>
      <trkpt lat="43.52599" lon="5.54574">
        <ele>265.94</ele>
        <time>2020-02-23T12:17:05Z</time>
      </trkpt>
      <trkpt lat="43.52599" lon="5.54573">
        <ele>265.94</ele>
        <time>2020-02-23T12:17:06Z</time>
      </trkpt>
      <trkpt lat="43.52598" lon="5.54571">
        <ele>265.94</ele>
        <time>2020-02-23T12:17:07Z</time>
      </trkpt>
      <trkpt lat="43.52589" lon="5.54553">
        <ele>265.94</ele>
        <time>2020-02-23T12:17:21Z</time>
      </trkpt>
      <trkpt lat="43.52586" lon="5.54548">
        <ele>265.94</ele>
        <time>2020-02-23T12:17:25Z</time>
      </trkpt>
      <trkpt lat="43.52571" lon="5.54524">
        <ele>265.94</ele>
        <time>2020-02-23T12:17:45Z</time>
      </trkpt>
      <trkpt lat="43.52571" lon="5.54525">
        <ele>265.94</ele>
        <time>2020-02-23T12:18:07Z</time>
      </trkpt>
      <trkpt lat="43.52569" lon="5.54516">
        <ele>265.94</ele>
        <time>2020-02-23T12:18:23Z</time>
      </trkpt>
      <trkpt lat="43.52567" lon="5.54508">
        <ele>265.94</ele>
        <time>2020-02-23T12:18:38Z</time>
      </trkpt>
      <trkpt lat="43.52564" lon="5.54495">
        <ele>265.94</ele>
        <time>2020-02-23T12:18:48Z</time>
      </trkpt>
      <trkpt lat="43.5256" lon="5.54475">
        <ele>267.38</ele>
        <time>2020-02-23T12:19:02Z</time>
      </trkpt>
      <trkpt lat="43.52555" lon="5.54449">
        <ele>268.83</ele>
        <time>2020-02-23T12:19:17Z</time>
      </trkpt>
      <trkpt lat="43.52553" lon="5.54431">
        <ele>270.75</ele>
        <time>2020-02-23T12:19:31Z</time>
      </trkpt>
      <trkpt lat="43.5255" lon="5.54417">
        <ele>272.19</ele>
        <time>2020-02-23T12:19:46Z</time>
      </trkpt>
      <trkpt lat="43.52546" lon="5.544">
        <ele>274.11</ele>
        <time>2020-02-23T12:20:02Z</time>
      </trkpt>
      <trkpt lat="43.52546" lon="5.54386">
        <ele>275.56</ele>
        <time>2020-02-23T12:20:16Z</time>
      </trkpt>
      <trkpt lat="43.52543" lon="5.54367">
        <ele>277.48</ele>
        <time>2020-02-23T12:20:30Z</time>
      </trkpt>
      <trkpt lat="43.52542" lon="5.54345">
        <ele>278.92</ele>
        <time>2020-02-23T12:20:45Z</time>
      </trkpt>
      <trkpt lat="43.52541" lon="5.54318">
        <ele>281.32</ele>
        <time>2020-02-23T12:21:01Z</time>
      </trkpt>
      <trkpt lat="43.52539" lon="5.54298">
        <ele>283.25</ele>
        <time>2020-02-23T12:21:16Z</time>
      </trkpt>
      <trkpt lat="43.52543" lon="5.54287">
        <ele>284.21</ele>
        <time>2020-02-23T12:21:36Z</time>
      </trkpt>
      <trkpt lat="43.5255" lon="5.54266">
        <ele>286.61</ele>
        <time>2020-02-23T12:21:52Z</time>
      </trkpt>
      <trkpt lat="43.52555" lon="5.54244">
        <ele>287.57</ele>
        <time>2020-02-23T12:22:08Z</time>
      </trkpt>
      <trkpt lat="43.52556" lon="5.54235">
        <ele>288.53</ele>
        <time>2020-02-23T12:22:14Z</time>
      </trkpt>
      <trkpt lat="43.52556" lon="5.54233">
        <ele>289.01</ele>
        <time>2020-02-23T12:22:15Z</time>
      </trkpt>
      <trkpt lat="43.5256" lon="5.54216">
        <ele>290.46</ele>
        <time>2020-02-23T12:22:30Z</time>
      </trkpt>
      <trkpt lat="43.52564" lon="5.54198">
        <ele>291.9</ele>
        <time>2020-02-23T12:22:44Z</time>
      </trkpt>
      <trkpt lat="43.5256" lon="5.54176">
        <ele>292.86</ele>
        <time>2020-02-23T12:23:00Z</time>
      </trkpt>
      <trkpt lat="43.52561" lon="5.54168">
        <ele>292.86</ele>
        <time>2020-02-23T12:23:15Z</time>
      </trkpt>
      <trkpt lat="43.5256" lon="5.54162">
        <ele>293.34</ele>
        <time>2020-02-23T12:23:20Z</time>
      </trkpt>
      <trkpt lat="43.5256" lon="5.5416">
        <ele>293.34</ele>
        <time>2020-02-23T12:23:21Z</time>
      </trkpt>
      <trkpt lat="43.52567" lon="5.54142">
        <ele>294.3</ele>
        <time>2020-02-23T12:23:36Z</time>
      </trkpt>
      <trkpt lat="43.52572" lon="5.5412">
        <ele>294.78</ele>
        <time>2020-02-23T12:23:53Z</time>
      </trkpt>
      <trkpt lat="43.52577" lon="5.54113">
        <ele>294.78</ele>
        <time>2020-02-23T12:24:07Z</time>
      </trkpt>
      <trkpt lat="43.52575" lon="5.54115">
        <ele>294.78</ele>
        <time>2020-02-23T12:24:33Z</time>
      </trkpt>
      <trkpt lat="43.52575" lon="5.5411">
        <ele>294.78</ele>
        <time>2020-02-23T12:24:54Z</time>
      </trkpt>
      <trkpt lat="43.5257" lon="5.54109">
        <ele>294.78</ele>
        <time>2020-02-23T12:25:01Z</time>
      </trkpt>
      <trkpt lat="43.52558" lon="5.54093">
        <ele>295.26</ele>
        <time>2020-02-23T12:25:17Z</time>
      </trkpt>
      <trkpt lat="43.52558" lon="5.54091">
        <ele>295.26</ele>
        <time>2020-02-23T12:25:18Z</time>
      </trkpt>
      <trkpt lat="43.52558" lon="5.54067">
        <ele>298.15</ele>
        <time>2020-02-23T12:25:32Z</time>
      </trkpt>
      <trkpt lat="43.52561" lon="5.54052">
        <ele>299.59</ele>
        <time>2020-02-23T12:25:42Z</time>
      </trkpt>
      <trkpt lat="43.52562" lon="5.5405">
        <ele>300.55</ele>
        <time>2020-02-23T12:25:43Z</time>
      </trkpt>
      <trkpt lat="43.52573" lon="5.54029">
        <ele>303.43</ele>
        <time>2020-02-23T12:26:00Z</time>
      </trkpt>
      <trkpt lat="43.52576" lon="5.54013">
        <ele>305.84</ele>
        <time>2020-02-23T12:26:11Z</time>
      </trkpt>
      <trkpt lat="43.52577" lon="5.53992">
        <ele>307.28</ele>
        <time>2020-02-23T12:26:26Z</time>
      </trkpt>
      <trkpt lat="43.52578" lon="5.53991">
        <ele>307.76</ele>
        <time>2020-02-23T12:26:27Z</time>
      </trkpt>
      <trkpt lat="43.52578" lon="5.53985">
        <ele>308.24</ele>
        <time>2020-02-23T12:26:31Z</time>
      </trkpt>
      <trkpt lat="43.52577" lon="5.53967">
        <ele>310.64</ele>
        <time>2020-02-23T12:26:45Z</time>
      </trkpt>
      <trkpt lat="43.52579" lon="5.53947">
        <ele>313.05</ele>
        <time>2020-02-23T12:26:59Z</time>
      </trkpt>
      <trkpt lat="43.52581" lon="5.53925">
        <ele>315.93</ele>
        <time>2020-02-23T12:27:16Z</time>
      </trkpt>
      <trkpt lat="43.52581" lon="5.53916">
        <ele>316.41</ele>
        <time>2020-02-23T12:27:22Z</time>
      </trkpt>
      <trkpt lat="43.52579" lon="5.53895">
        <ele>319.3</ele>
        <time>2020-02-23T12:27:38Z</time>
      </trkpt>
      <trkpt lat="43.52579" lon="5.53873">
        <ele>321.7</ele>
        <time>2020-02-23T12:27:53Z</time>
      </trkpt>
      <trkpt lat="43.52578" lon="5.53847">
        <ele>323.62</ele>
        <time>2020-02-23T12:28:09Z</time>
      </trkpt>
      <trkpt lat="43.52577" lon="5.53834">
        <ele>323.62</ele>
        <time>2020-02-23T12:28:18Z</time>
      </trkpt>
      <trkpt lat="43.52576" lon="5.53822">
        <ele>322.18</ele>
        <time>2020-02-23T12:28:26Z</time>
      </trkpt>
      <trkpt lat="43.52572" lon="5.53798">
        <ele>321.7</ele>
        <time>2020-02-23T12:28:40Z</time>
      </trkpt>
      <trkpt lat="43.52563" lon="5.53771">
        <ele>320.74</ele>
        <time>2020-02-23T12:28:56Z</time>
      </trkpt>
      <trkpt lat="43.52555" lon="5.53747">
        <ele>322.66</ele>
        <time>2020-02-23T12:29:11Z</time>
      </trkpt>
      <trkpt lat="43.5255" lon="5.53739">
        <ele>321.22</ele>
        <time>2020-02-23T12:29:26Z</time>
      </trkpt>
      <trkpt lat="43.52549" lon="5.53738">
        <ele>321.22</ele>
        <time>2020-02-23T12:29:54Z</time>
      </trkpt>
      <trkpt lat="43.5255" lon="5.53732">
        <ele>321.22</ele>
        <time>2020-02-23T12:30:13Z</time>
      </trkpt>
      <trkpt lat="43.52549" lon="5.53721">
        <ele>320.74</ele>
        <time>2020-02-23T12:30:20Z</time>
      </trkpt>
      <trkpt lat="43.52549" lon="5.53719">
        <ele>320.26</ele>
        <time>2020-02-23T12:30:21Z</time>
      </trkpt>
      <trkpt lat="43.52549" lon="5.53718">
        <ele>320.26</ele>
        <time>2020-02-23T12:30:22Z</time>
      </trkpt>
      <trkpt lat="43.52548" lon="5.53711">
        <ele>319.78</ele>
        <time>2020-02-23T12:30:26Z</time>
      </trkpt>
      <trkpt lat="43.5255" lon="5.53693">
        <ele>318.33</ele>
        <time>2020-02-23T12:30:40Z</time>
      </trkpt>
      <trkpt lat="43.52551" lon="5.5369">
        <ele>316.89</ele>
        <time>2020-02-23T12:30:56Z</time>
      </trkpt>
      <trkpt lat="43.52551" lon="5.53685">
        <ele>316.89</ele>
        <time>2020-02-23T12:31:15Z</time>
      </trkpt>
      <trkpt lat="43.52548" lon="5.53686">
        <ele>316.41</ele>
        <time>2020-02-23T12:31:35Z</time>
      </trkpt>
      <trkpt lat="43.52541" lon="5.53691">
        <ele>316.41</ele>
        <time>2020-02-23T12:31:53Z</time>
      </trkpt>
      <trkpt lat="43.52541" lon="5.53693">
        <ele>316.41</ele>
        <time>2020-02-23T12:32:08Z</time>
      </trkpt>
      <trkpt lat="43.52545" lon="5.53694">
        <ele>316.41</ele>
        <time>2020-02-23T12:32:35Z</time>
      </trkpt>
      <trkpt lat="43.52541" lon="5.53697">
        <ele>315.45</ele>
        <time>2020-02-23T12:32:58Z</time>
      </trkpt>
      <trkpt lat="43.52539" lon="5.537">
        <ele>315.45</ele>
        <time>2020-02-23T12:33:02Z</time>
      </trkpt>
      <trkpt lat="43.52538" lon="5.53702">
        <ele>315.45</ele>
        <time>2020-02-23T12:33:03Z</time>
      </trkpt>
      <trkpt lat="43.52538" lon="5.53703">
        <ele>315.45</ele>
        <time>2020-02-23T12:33:04Z</time>
      </trkpt>
      <trkpt lat="43.52533" lon="5.53712">
        <ele>314.01</ele>
        <time>2020-02-23T12:33:12Z</time>
      </trkpt>
      <trkpt lat="43.52524" lon="5.53728">
        <ele>311.6</ele>
        <time>2020-02-23T12:33:26Z</time>
      </trkpt>
      <trkpt lat="43.5251" lon="5.53741">
        <ele>308.72</ele>
        <time>2020-02-23T12:33:42Z</time>
      </trkpt>
      <trkpt lat="43.52509" lon="5.53741">
        <ele>308.72</ele>
        <time>2020-02-23T12:33:43Z</time>
      </trkpt>
      <trkpt lat="43.52507" lon="5.53742">
        <ele>308.72</ele>
        <time>2020-02-23T12:33:45Z</time>
      </trkpt>
      <trkpt lat="43.52504" lon="5.53739">
        <ele>308.24</ele>
        <time>2020-02-23T12:33:50Z</time>
      </trkpt>
      <trkpt lat="43.52501" lon="5.53711">
        <ele>305.36</ele>
        <time>2020-02-23T12:34:06Z</time>
      </trkpt>
      <trkpt lat="43.52506" lon="5.53683">
        <ele>303.91</ele>
        <time>2020-02-23T12:34:22Z</time>
      </trkpt>
      <trkpt lat="43.52507" lon="5.53676">
        <ele>302.95</ele>
        <time>2020-02-23T12:34:27Z</time>
      </trkpt>
      <trkpt lat="43.52507" lon="5.5367">
        <ele>302.95</ele>
        <time>2020-02-23T12:34:40Z</time>
      </trkpt>
      <trkpt lat="43.52506" lon="5.53666">
        <ele>302.95</ele>
        <time>2020-02-23T12:35:14Z</time>
      </trkpt>
      <trkpt lat="43.52505" lon="5.5367">
        <ele>302.95</ele>
        <time>2020-02-23T12:35:40Z</time>
      </trkpt>
      <trkpt lat="43.52506" lon="5.53671">
        <ele>302.95</ele>
        <time>2020-02-23T12:35:57Z</time>
      </trkpt>
      <trkpt lat="43.52506" lon="5.5367">
        <ele>302.95</ele>
        <time>2020-02-23T12:35:58Z</time>
      </trkpt>
      <trkpt lat="43.52507" lon="5.53668">
        <ele>302.95</ele>
        <time>2020-02-23T12:35:59Z</time>
      </trkpt>
      <trkpt lat="43.5251" lon="5.53656">
        <ele>302.47</ele>
        <time>2020-02-23T12:36:08Z</time>
      </trkpt>
      <trkpt lat="43.52515" lon="5.53629">
        <ele>301.99</ele>
        <time>2020-02-23T12:36:26Z</time>
      </trkpt>
      <trkpt lat="43.52509" lon="5.536">
        <ele>300.55</ele>
        <time>2020-02-23T12:36:46Z</time>
      </trkpt>
      <trkpt lat="43.52497" lon="5.53576">
        <ele>299.59</ele>
        <time>2020-02-23T12:37:02Z</time>
      </trkpt>
      <trkpt lat="43.52489" lon="5.53548">
        <ele>298.15</ele>
        <time>2020-02-23T12:37:20Z</time>
      </trkpt>
      <trkpt lat="43.52487" lon="5.5352">
        <ele>295.74</ele>
        <time>2020-02-23T12:37:37Z</time>
      </trkpt>
      <trkpt lat="43.52488" lon="5.53495">
        <ele>293.82</ele>
        <time>2020-02-23T12:37:50Z</time>
      </trkpt>
      <trkpt lat="43.52489" lon="5.53462">
        <ele>291.9</ele>
        <time>2020-02-23T12:38:08Z</time>
      </trkpt>
      <trkpt lat="43.52483" lon="5.53457">
        <ele>291.42</ele>
        <time>2020-02-23T12:38:22Z</time>
      </trkpt>
      <trkpt lat="43.52482" lon="5.53459">
        <ele>292.86</ele>
        <time>2020-02-23T12:38:57Z</time>
      </trkpt>
      <trkpt lat="43.52483" lon="5.53456">
        <ele>290.94</ele>
        <time>2020-02-23T12:39:15Z</time>
      </trkpt>
      <trkpt lat="43.52484" lon="5.53453">
        <ele>290.94</ele>
        <time>2020-02-23T12:39:16Z</time>
      </trkpt>
      <trkpt lat="43.52485" lon="5.53451">
        <ele>290.94</ele>
        <time>2020-02-23T12:39:17Z</time>
      </trkpt>
      <trkpt lat="43.52486" lon="5.53449">
        <ele>290.46</ele>
        <time>2020-02-23T12:39:18Z</time>
      </trkpt>
      <trkpt lat="43.52492" lon="5.53426">
        <ele>289.01</ele>
        <time>2020-02-23T12:39:28Z</time>
      </trkpt>
      <trkpt lat="43.52493" lon="5.53424">
        <ele>289.01</ele>
        <time>2020-02-23T12:39:29Z</time>
      </trkpt>
      <trkpt lat="43.52493" lon="5.53421">
        <ele>289.01</ele>
        <time>2020-02-23T12:39:30Z</time>
      </trkpt>
      <trkpt lat="43.52493" lon="5.53418">
        <ele>288.05</ele>
        <time>2020-02-23T12:39:31Z</time>
      </trkpt>
      <trkpt lat="43.52494" lon="5.53415">
        <ele>288.05</ele>
        <time>2020-02-23T12:39:32Z</time>
      </trkpt>
      <trkpt lat="43.52494" lon="5.53413">
        <ele>288.05</ele>
        <time>2020-02-23T12:39:33Z</time>
      </trkpt>
      <trkpt lat="43.52494" lon="5.5341">
        <ele>287.57</ele>
        <time>2020-02-23T12:39:34Z</time>
      </trkpt>
      <trkpt lat="43.52494" lon="5.53378">
        <ele>286.13</ele>
        <time>2020-02-23T12:39:49Z</time>
      </trkpt>
      <trkpt lat="43.52495" lon="5.53353">
        <ele>282.77</ele>
        <time>2020-02-23T12:40:03Z</time>
      </trkpt>
      <trkpt lat="43.52494" lon="5.53318">
        <ele>280.36</ele>
        <time>2020-02-23T12:40:19Z</time>
      </trkpt>
      <trkpt lat="43.52493" lon="5.53288">
        <ele>277.48</ele>
        <time>2020-02-23T12:40:33Z</time>
      </trkpt>
      <trkpt lat="43.52489" lon="5.5327">
        <ele>276.04</ele>
        <time>2020-02-23T12:40:43Z</time>
      </trkpt>
      <trkpt lat="43.52481" lon="5.53255">
        <ele>275.56</ele>
        <time>2020-02-23T12:40:55Z</time>
      </trkpt>
      <trkpt lat="43.52473" lon="5.53252">
        <ele>274.11</ele>
        <time>2020-02-23T12:41:11Z</time>
      </trkpt>
      <trkpt lat="43.52471" lon="5.53253">
        <ele>274.11</ele>
        <time>2020-02-23T12:41:22Z</time>
      </trkpt>
      <trkpt lat="43.52468" lon="5.53251">
        <ele>274.11</ele>
        <time>2020-02-23T12:41:25Z</time>
      </trkpt>
      <trkpt lat="43.52453" lon="5.53236">
        <ele>274.11</ele>
        <time>2020-02-23T12:41:41Z</time>
      </trkpt>
      <trkpt lat="43.52439" lon="5.53225">
        <ele>274.11</ele>
        <time>2020-02-23T12:41:58Z</time>
      </trkpt>
      <trkpt lat="43.52438" lon="5.53225">
        <ele>274.11</ele>
        <time>2020-02-23T12:41:59Z</time>
      </trkpt>
      <trkpt lat="43.52437" lon="5.53224">
        <ele>274.11</ele>
        <time>2020-02-23T12:42:00Z</time>
      </trkpt>
      <trkpt lat="43.52418" lon="5.53218">
        <ele>271.23</ele>
        <time>2020-02-23T12:42:16Z</time>
      </trkpt>
      <trkpt lat="43.52404" lon="5.5321">
        <ele>268.83</ele>
        <time>2020-02-23T12:42:31Z</time>
      </trkpt>
      <trkpt lat="43.52402" lon="5.5321">
        <ele>269.31</ele>
        <time>2020-02-23T12:42:32Z</time>
      </trkpt>
      <trkpt lat="43.52387" lon="5.53192">
        <ele>267.38</ele>
        <time>2020-02-23T12:42:48Z</time>
      </trkpt>
      <trkpt lat="43.52381" lon="5.53172">
        <ele>266.9</ele>
        <time>2020-02-23T12:43:04Z</time>
      </trkpt>
      <trkpt lat="43.52385" lon="5.53166">
        <ele>266.42</ele>
        <time>2020-02-23T12:43:13Z</time>
      </trkpt>
      <trkpt lat="43.52386" lon="5.53165">
        <ele>266.42</ele>
        <time>2020-02-23T12:43:14Z</time>
      </trkpt>
      <trkpt lat="43.52398" lon="5.53146">
        <ele>265.94</ele>
        <time>2020-02-23T12:43:29Z</time>
      </trkpt>
      <trkpt lat="43.52405" lon="5.5312">
        <ele>264.98</ele>
        <time>2020-02-23T12:43:46Z</time>
      </trkpt>
      <trkpt lat="43.52404" lon="5.53088">
        <ele>264.02</ele>
        <time>2020-02-23T12:44:02Z</time>
      </trkpt>
      <trkpt lat="43.52404" lon="5.53064">
        <ele>263.54</ele>
        <time>2020-02-23T12:44:16Z</time>
      </trkpt>
      <trkpt lat="43.52406" lon="5.5304">
        <ele>262.58</ele>
        <time>2020-02-23T12:44:31Z</time>
      </trkpt>
      <trkpt lat="43.52409" lon="5.53014">
        <ele>261.62</ele>
        <time>2020-02-23T12:44:47Z</time>
      </trkpt>
      <trkpt lat="43.52412" lon="5.52994">
        <ele>261.14</ele>
        <time>2020-02-23T12:44:58Z</time>
      </trkpt>
      <trkpt lat="43.52412" lon="5.52992">
        <ele>260.17</ele>
        <time>2020-02-23T12:44:59Z</time>
      </trkpt>
      <trkpt lat="43.52412" lon="5.5299">
        <ele>260.17</ele>
        <time>2020-02-23T12:45:00Z</time>
      </trkpt>
      <trkpt lat="43.52416" lon="5.52967">
        <ele>259.21</ele>
        <time>2020-02-23T12:45:16Z</time>
      </trkpt>
      <trkpt lat="43.52419" lon="5.52948">
        <ele>258.25</ele>
        <time>2020-02-23T12:45:29Z</time>
      </trkpt>
      <trkpt lat="43.52423" lon="5.52933">
        <ele>256.81</ele>
        <time>2020-02-23T12:45:38Z</time>
      </trkpt>
      <trkpt lat="43.52424" lon="5.52929">
        <ele>256.81</ele>
        <time>2020-02-23T12:45:40Z</time>
      </trkpt>
      <trkpt lat="43.52424" lon="5.52928">
        <ele>256.81</ele>
        <time>2020-02-23T12:45:41Z</time>
      </trkpt>
      <trkpt lat="43.52434" lon="5.52901">
        <ele>255.85</ele>
        <time>2020-02-23T12:45:58Z</time>
      </trkpt>
      <trkpt lat="43.5244" lon="5.52873">
        <ele>255.37</ele>
        <time>2020-02-23T12:46:14Z</time>
      </trkpt>
      <trkpt lat="43.52442" lon="5.52847">
        <ele>256.81</ele>
        <time>2020-02-23T12:46:29Z</time>
      </trkpt>
      <trkpt lat="43.52442" lon="5.52845">
        <ele>256.81</ele>
        <time>2020-02-23T12:46:30Z</time>
      </trkpt>
      <trkpt lat="43.52446" lon="5.52825">
        <ele>257.77</ele>
        <time>2020-02-23T12:46:43Z</time>
      </trkpt>
      <trkpt lat="43.52444" lon="5.52811">
        <ele>259.69</ele>
        <time>2020-02-23T12:46:55Z</time>
      </trkpt>
      <trkpt lat="43.52444" lon="5.52799">
        <ele>261.14</ele>
        <time>2020-02-23T12:47:07Z</time>
      </trkpt>
      <trkpt lat="43.52444" lon="5.52786">
        <ele>263.06</ele>
        <time>2020-02-23T12:47:20Z</time>
      </trkpt>
      <trkpt lat="43.52444" lon="5.52772">
        <ele>265.46</ele>
        <time>2020-02-23T12:47:34Z</time>
      </trkpt>
      <trkpt lat="43.52443" lon="5.52757">
        <ele>267.38</ele>
        <time>2020-02-23T12:47:48Z</time>
      </trkpt>
      <trkpt lat="43.52441" lon="5.52743">
        <ele>269.31</ele>
        <time>2020-02-23T12:48:01Z</time>
      </trkpt>
      <trkpt lat="43.52441" lon="5.52723">
        <ele>271.23</ele>
        <time>2020-02-23T12:48:15Z</time>
      </trkpt>
      <trkpt lat="43.52443" lon="5.52702">
        <ele>272.19</ele>
        <time>2020-02-23T12:48:30Z</time>
      </trkpt>
      <trkpt lat="43.52445" lon="5.52688">
        <ele>270.75</ele>
        <time>2020-02-23T12:48:38Z</time>
      </trkpt>
      <trkpt lat="43.52449" lon="5.52674">
        <ele>270.27</ele>
        <time>2020-02-23T12:48:47Z</time>
      </trkpt>
      <trkpt lat="43.52458" lon="5.52652">
        <ele>269.79</ele>
        <time>2020-02-23T12:49:02Z</time>
      </trkpt>
      <trkpt lat="43.52461" lon="5.52647">
        <ele>269.79</ele>
        <time>2020-02-23T12:49:06Z</time>
      </trkpt>
      <trkpt lat="43.52461" lon="5.52645">
        <ele>269.79</ele>
        <time>2020-02-23T12:49:07Z</time>
      </trkpt>
      <trkpt lat="43.52462" lon="5.52644">
        <ele>269.79</ele>
        <time>2020-02-23T12:49:08Z</time>
      </trkpt>
      <trkpt lat="43.52463" lon="5.52643">
        <ele>269.79</ele>
        <time>2020-02-23T12:49:09Z</time>
      </trkpt>
      <trkpt lat="43.52464" lon="5.52641">
        <ele>269.79</ele>
        <time>2020-02-23T12:49:10Z</time>
      </trkpt>
      <trkpt lat="43.52465" lon="5.52639">
        <ele>269.79</ele>
        <time>2020-02-23T12:49:11Z</time>
      </trkpt>
      <trkpt lat="43.52466" lon="5.52638">
        <ele>269.79</ele>
        <time>2020-02-23T12:49:12Z</time>
      </trkpt>
      <trkpt lat="43.52475" lon="5.52623">
        <ele>269.79</ele>
        <time>2020-02-23T12:49:24Z</time>
      </trkpt>
      <trkpt lat="43.52476" lon="5.52621">
        <ele>269.79</ele>
        <time>2020-02-23T12:49:25Z</time>
      </trkpt>
      <trkpt lat="43.52477" lon="5.5262">
        <ele>269.79</ele>
        <time>2020-02-23T12:49:26Z</time>
      </trkpt>
      <trkpt lat="43.5249" lon="5.52599">
        <ele>269.79</ele>
        <time>2020-02-23T12:49:42Z</time>
      </trkpt>
      <trkpt lat="43.52499" lon="5.52582">
        <ele>269.79</ele>
        <time>2020-02-23T12:49:55Z</time>
      </trkpt>
      <trkpt lat="43.52506" lon="5.52556">
        <ele>269.79</ele>
        <time>2020-02-23T12:50:11Z</time>
      </trkpt>
      <trkpt lat="43.52513" lon="5.52534">
        <ele>269.79</ele>
        <time>2020-02-23T12:50:26Z</time>
      </trkpt>
      <trkpt lat="43.5252" lon="5.52508">
        <ele>270.75</ele>
        <time>2020-02-23T12:50:43Z</time>
      </trkpt>
      <trkpt lat="43.5252" lon="5.52506">
        <ele>270.75</ele>
        <time>2020-02-23T12:50:44Z</time>
      </trkpt>
      <trkpt lat="43.52527" lon="5.52485">
        <ele>272.19</ele>
        <time>2020-02-23T12:51:00Z</time>
      </trkpt>
      <trkpt lat="43.52532" lon="5.52466">
        <ele>273.15</ele>
        <time>2020-02-23T12:51:15Z</time>
      </trkpt>
      <trkpt lat="43.52536" lon="5.52443">
        <ele>275.07</ele>
        <time>2020-02-23T12:51:32Z</time>
      </trkpt>
      <trkpt lat="43.52541" lon="5.52421">
        <ele>275.56</ele>
        <time>2020-02-23T12:51:47Z</time>
      </trkpt>
      <trkpt lat="43.52541" lon="5.52411">
        <ele>276.04</ele>
        <time>2020-02-23T12:52:01Z</time>
      </trkpt>
      <trkpt lat="43.5254" lon="5.52411">
        <ele>276.52</ele>
        <time>2020-02-23T12:52:28Z</time>
      </trkpt>
      <trkpt lat="43.52541" lon="5.52413">
        <ele>276.52</ele>
        <time>2020-02-23T12:52:59Z</time>
      </trkpt>
      <trkpt lat="43.52542" lon="5.52414">
        <ele>276.52</ele>
        <time>2020-02-23T12:53:14Z</time>
      </trkpt>
      <trkpt lat="43.52541" lon="5.52411">
        <ele>276.52</ele>
        <time>2020-02-23T12:53:23Z</time>
      </trkpt>
      <trkpt lat="43.52544" lon="5.52406">
        <ele>276.52</ele>
        <time>2020-02-23T12:53:35Z</time>
      </trkpt>
      <trkpt lat="43.52545" lon="5.52405">
        <ele>276.52</ele>
        <time>2020-02-23T12:53:36Z</time>
      </trkpt>
      <trkpt lat="43.52554" lon="5.52395">
        <ele>276.52</ele>
        <time>2020-02-23T12:53:49Z</time>
      </trkpt>
      <trkpt lat="43.52556" lon="5.52393">
        <ele>276.52</ele>
        <time>2020-02-23T12:53:51Z</time>
      </trkpt>
      <trkpt lat="43.52557" lon="5.52393">
        <ele>276.52</ele>
        <time>2020-02-23T12:53:52Z</time>
      </trkpt>
      <trkpt lat="43.52569" lon="5.52376">
        <ele>277</ele>
        <time>2020-02-23T12:54:05Z</time>
      </trkpt>
      <trkpt lat="43.52582" lon="5.52355">
        <ele>278.44</ele>
        <time>2020-02-23T12:54:19Z</time>
      </trkpt>
      <trkpt lat="43.52592" lon="5.52333">
        <ele>279.88</ele>
        <time>2020-02-23T12:54:34Z</time>
      </trkpt>
      <trkpt lat="43.52594" lon="5.52305">
        <ele>280.36</ele>
        <time>2020-02-23T12:54:49Z</time>
      </trkpt>
      <trkpt lat="43.52594" lon="5.52277">
        <ele>281.8</ele>
        <time>2020-02-23T12:55:04Z</time>
      </trkpt>
      <trkpt lat="43.52594" lon="5.52266">
        <ele>282.28</ele>
        <time>2020-02-23T12:55:11Z</time>
      </trkpt>
      <trkpt lat="43.52589" lon="5.52246">
        <ele>283.73</ele>
        <time>2020-02-23T12:55:26Z</time>
      </trkpt>
      <trkpt lat="43.52586" lon="5.52232">
        <ele>284.21</ele>
        <time>2020-02-23T12:55:36Z</time>
      </trkpt>
      <trkpt lat="43.52585" lon="5.5223">
        <ele>284.21</ele>
        <time>2020-02-23T12:55:37Z</time>
      </trkpt>
      <trkpt lat="43.52579" lon="5.52218">
        <ele>285.65</ele>
        <time>2020-02-23T12:55:49Z</time>
      </trkpt>
      <trkpt lat="43.52578" lon="5.52218">
        <ele>285.65</ele>
        <time>2020-02-23T12:56:05Z</time>
      </trkpt>
      <trkpt lat="43.5258" lon="5.52219">
        <ele>286.13</ele>
        <time>2020-02-23T12:56:29Z</time>
      </trkpt>
      <trkpt lat="43.52578" lon="5.52222">
        <ele>286.13</ele>
        <time>2020-02-23T12:56:46Z</time>
      </trkpt>
      <trkpt lat="43.52575" lon="5.52224">
        <ele>286.13</ele>
        <time>2020-02-23T12:57:11Z</time>
      </trkpt>
      <trkpt lat="43.52569" lon="5.52237">
        <ele>286.13</ele>
        <time>2020-02-23T12:57:27Z</time>
      </trkpt>
      <trkpt lat="43.52567" lon="5.52241">
        <ele>286.13</ele>
        <time>2020-02-23T12:57:48Z</time>
      </trkpt>
      <trkpt lat="43.52565" lon="5.5224">
        <ele>286.61</ele>
        <time>2020-02-23T12:58:08Z</time>
      </trkpt>
      <trkpt lat="43.52565" lon="5.52242">
        <ele>286.61</ele>
        <time>2020-02-23T12:58:27Z</time>
      </trkpt>
      <trkpt lat="43.52565" lon="5.52242">
        <ele>286.61</ele>
        <time>2020-02-23T12:58:45Z</time>
      </trkpt>
      <trkpt lat="43.52563" lon="5.5224">
        <ele>286.61</ele>
        <time>2020-02-23T12:59:00Z</time>
      </trkpt>
      <trkpt lat="43.52562" lon="5.52241">
        <ele>286.61</ele>
        <time>2020-02-23T12:59:01Z</time>
      </trkpt>
      <trkpt lat="43.5256" lon="5.52241">
        <ele>286.61</ele>
        <time>2020-02-23T12:59:02Z</time>
      </trkpt>
      <trkpt lat="43.52559" lon="5.52242">
        <ele>286.61</ele>
        <time>2020-02-23T12:59:03Z</time>
      </trkpt>
      <trkpt lat="43.52558" lon="5.52242">
        <ele>286.61</ele>
        <time>2020-02-23T12:59:04Z</time>
      </trkpt>
      <trkpt lat="43.52556" lon="5.52246">
        <ele>286.61</ele>
        <time>2020-02-23T12:59:07Z</time>
      </trkpt>
      <trkpt lat="43.52556" lon="5.52248">
        <ele>286.61</ele>
        <time>2020-02-23T12:59:08Z</time>
      </trkpt>
      <trkpt lat="43.52557" lon="5.52264">
        <ele>286.61</ele>
        <time>2020-02-23T12:59:16Z</time>
      </trkpt>
      <trkpt lat="43.52554" lon="5.52267">
        <ele>286.61</ele>
        <time>2020-02-23T12:59:20Z</time>
      </trkpt>
      <trkpt lat="43.52553" lon="5.52268">
        <ele>286.61</ele>
        <time>2020-02-23T12:59:21Z</time>
      </trkpt>
      <trkpt lat="43.52543" lon="5.52284">
        <ele>286.61</ele>
        <time>2020-02-23T12:59:35Z</time>
      </trkpt>
      <trkpt lat="43.52529" lon="5.52302">
        <ele>286.61</ele>
        <time>2020-02-23T12:59:54Z</time>
      </trkpt>
      <trkpt lat="43.52517" lon="5.52314">
        <ele>286.61</ele>
        <time>2020-02-23T13:00:08Z</time>
      </trkpt>
      <trkpt lat="43.52509" lon="5.52322">
        <ele>286.61</ele>
        <time>2020-02-23T13:00:16Z</time>
      </trkpt>
      <trkpt lat="43.52508" lon="5.52324">
        <ele>286.61</ele>
        <time>2020-02-23T13:00:17Z</time>
      </trkpt>
      <trkpt lat="43.52507" lon="5.52325">
        <ele>286.61</ele>
        <time>2020-02-23T13:00:18Z</time>
      </trkpt>
      <trkpt lat="43.52494" lon="5.52337">
        <ele>286.61</ele>
        <time>2020-02-23T13:00:31Z</time>
      </trkpt>
      <trkpt lat="43.5248" lon="5.5235">
        <ele>286.61</ele>
        <time>2020-02-23T13:00:44Z</time>
      </trkpt>
      <trkpt lat="43.52474" lon="5.52354">
        <ele>286.13</ele>
        <time>2020-02-23T13:00:50Z</time>
      </trkpt>
      <trkpt lat="43.52473" lon="5.52354">
        <ele>285.17</ele>
        <time>2020-02-23T13:00:51Z</time>
      </trkpt>
      <trkpt lat="43.52468" lon="5.52355">
        <ele>285.17</ele>
        <time>2020-02-23T13:00:56Z</time>
      </trkpt>
      <trkpt lat="43.52466" lon="5.52355">
        <ele>285.17</ele>
        <time>2020-02-23T13:00:57Z</time>
      </trkpt>
      <trkpt lat="43.52465" lon="5.52355">
        <ele>285.17</ele>
        <time>2020-02-23T13:00:58Z</time>
      </trkpt>
      <trkpt lat="43.52463" lon="5.52355">
        <ele>285.17</ele>
        <time>2020-02-23T13:00:59Z</time>
      </trkpt>
      <trkpt lat="43.52462" lon="5.52356">
        <ele>285.17</ele>
        <time>2020-02-23T13:01:00Z</time>
      </trkpt>
      <trkpt lat="43.52454" lon="5.52357">
        <ele>284.69</ele>
        <time>2020-02-23T13:01:13Z</time>
      </trkpt>
      <trkpt lat="43.52449" lon="5.52355">
        <ele>284.69</ele>
        <time>2020-02-23T13:01:18Z</time>
      </trkpt>
      <trkpt lat="43.52445" lon="5.52355">
        <ele>284.69</ele>
        <time>2020-02-23T13:01:22Z</time>
      </trkpt>
      <trkpt lat="43.52439" lon="5.5236">
        <ele>285.65</ele>
        <time>2020-02-23T13:01:29Z</time>
      </trkpt>
      <trkpt lat="43.52439" lon="5.52361">
        <ele>285.65</ele>
        <time>2020-02-23T13:01:30Z</time>
      </trkpt>
      <trkpt lat="43.52431" lon="5.52374">
        <ele>287.09</ele>
        <time>2020-02-23T13:01:43Z</time>
      </trkpt>
      <trkpt lat="43.52428" lon="5.52382">
        <ele>287.09</ele>
        <time>2020-02-23T13:01:50Z</time>
      </trkpt>
      <trkpt lat="43.52427" lon="5.52389">
        <ele>285.65</ele>
        <time>2020-02-23T13:01:57Z</time>
      </trkpt>
      <trkpt lat="43.52424" lon="5.52392">
        <ele>285.65</ele>
        <time>2020-02-23T13:02:22Z</time>
      </trkpt>
      <trkpt lat="43.52426" lon="5.52393">
        <ele>285.17</ele>
        <time>2020-02-23T13:02:45Z</time>
      </trkpt>
      <trkpt lat="43.52424" lon="5.52393">
        <ele>285.17</ele>
        <time>2020-02-23T13:03:00Z</time>
      </trkpt>
      <trkpt lat="43.52424" lon="5.52391">
        <ele>285.17</ele>
        <time>2020-02-23T13:03:01Z</time>
      </trkpt>
      <trkpt lat="43.52427" lon="5.52374">
        <ele>286.61</ele>
        <time>2020-02-23T13:03:15Z</time>
      </trkpt>
      <trkpt lat="43.52431" lon="5.52364">
        <ele>286.13</ele>
        <time>2020-02-23T13:03:26Z</time>
      </trkpt>
      <trkpt lat="43.52432" lon="5.52364">
        <ele>286.13</ele>
        <time>2020-02-23T13:03:27Z</time>
      </trkpt>
      <trkpt lat="43.52433" lon="5.52359">
        <ele>284.69</ele>
        <time>2020-02-23T13:03:44Z</time>
      </trkpt>
      <trkpt lat="43.52427" lon="5.52355">
        <ele>283.73</ele>
        <time>2020-02-23T13:03:59Z</time>
      </trkpt>
      <trkpt lat="43.52428" lon="5.52356">
        <ele>283.73</ele>
        <time>2020-02-23T13:04:25Z</time>
      </trkpt>
      <trkpt lat="43.52433" lon="5.52355">
        <ele>283.73</ele>
        <time>2020-02-23T13:05:04Z</time>
      </trkpt>
      <trkpt lat="43.52433" lon="5.52342">
        <ele>282.28</ele>
        <time>2020-02-23T13:05:16Z</time>
      </trkpt>
      <trkpt lat="43.52435" lon="5.5233">
        <ele>279.88</ele>
        <time>2020-02-23T13:05:26Z</time>
      </trkpt>
      <trkpt lat="43.52437" lon="5.52324">
        <ele>278.44</ele>
        <time>2020-02-23T13:05:30Z</time>
      </trkpt>
      <trkpt lat="43.52437" lon="5.52322">
        <ele>278.44</ele>
        <time>2020-02-23T13:05:31Z</time>
      </trkpt>
      <trkpt lat="43.52437" lon="5.52315">
        <ele>277</ele>
        <time>2020-02-23T13:05:38Z</time>
      </trkpt>
      <trkpt lat="43.52437" lon="5.523">
        <ele>274.11</ele>
        <time>2020-02-23T13:05:48Z</time>
      </trkpt>
      <trkpt lat="43.52439" lon="5.52287">
        <ele>272.67</ele>
        <time>2020-02-23T13:05:59Z</time>
      </trkpt>
      <trkpt lat="43.52444" lon="5.52272">
        <ele>270.75</ele>
        <time>2020-02-23T13:06:14Z</time>
      </trkpt>
      <trkpt lat="43.5245" lon="5.52255">
        <ele>267.86</ele>
        <time>2020-02-23T13:06:29Z</time>
      </trkpt>
      <trkpt lat="43.52451" lon="5.52238">
        <ele>265.46</ele>
        <time>2020-02-23T13:06:44Z</time>
      </trkpt>
      <trkpt lat="43.52451" lon="5.52232">
        <ele>264.02</ele>
        <time>2020-02-23T13:06:59Z</time>
      </trkpt>
      <trkpt lat="43.52445" lon="5.52221">
        <ele>262.1</ele>
        <time>2020-02-23T13:07:15Z</time>
      </trkpt>
      <trkpt lat="43.52444" lon="5.52213">
        <ele>260.65</ele>
        <time>2020-02-23T13:07:26Z</time>
      </trkpt>
      <trkpt lat="43.52444" lon="5.52206">
        <ele>259.21</ele>
        <time>2020-02-23T13:07:32Z</time>
      </trkpt>
      <trkpt lat="43.52443" lon="5.52204">
        <ele>259.21</ele>
        <time>2020-02-23T13:07:33Z</time>
      </trkpt>
      <trkpt lat="43.52442" lon="5.52201">
        <ele>258.73</ele>
        <time>2020-02-23T13:07:35Z</time>
      </trkpt>
      <trkpt lat="43.52445" lon="5.5219">
        <ele>256.81</ele>
        <time>2020-02-23T13:07:45Z</time>
      </trkpt>
      <trkpt lat="43.52446" lon="5.52171">
        <ele>255.85</ele>
        <time>2020-02-23T13:07:58Z</time>
      </trkpt>
      <trkpt lat="43.52446" lon="5.52169">
        <ele>255.85</ele>
        <time>2020-02-23T13:07:59Z</time>
      </trkpt>
      <trkpt lat="43.52447" lon="5.52164">
        <ele>255.85</ele>
        <time>2020-02-23T13:08:02Z</time>
      </trkpt>
      <trkpt lat="43.52447" lon="5.52162">
        <ele>255.85</ele>
        <time>2020-02-23T13:08:03Z</time>
      </trkpt>
      <trkpt lat="43.52447" lon="5.52161">
        <ele>255.85</ele>
        <time>2020-02-23T13:08:04Z</time>
      </trkpt>
      <trkpt lat="43.52447" lon="5.52159">
        <ele>255.85</ele>
        <time>2020-02-23T13:08:05Z</time>
      </trkpt>
      <trkpt lat="43.52447" lon="5.52157">
        <ele>255.85</ele>
        <time>2020-02-23T13:08:06Z</time>
      </trkpt>
      <trkpt lat="43.52446" lon="5.52139">
        <ele>254.41</ele>
        <time>2020-02-23T13:08:18Z</time>
      </trkpt>
      <trkpt lat="43.52446" lon="5.52136">
        <ele>253.93</ele>
        <time>2020-02-23T13:08:22Z</time>
      </trkpt>
      <trkpt lat="43.52445" lon="5.52134">
        <ele>253.93</ele>
        <time>2020-02-23T13:08:23Z</time>
      </trkpt>
      <trkpt lat="43.52445" lon="5.52131">
        <ele>253.44</ele>
        <time>2020-02-23T13:08:25Z</time>
      </trkpt>
      <trkpt lat="43.52445" lon="5.52126">
        <ele>252.96</ele>
        <time>2020-02-23T13:08:38Z</time>
      </trkpt>
      <trkpt lat="43.52446" lon="5.52107">
        <ele>251.04</ele>
        <time>2020-02-23T13:08:53Z</time>
      </trkpt>
      <trkpt lat="43.52449" lon="5.52097">
        <ele>249.6</ele>
        <time>2020-02-23T13:09:03Z</time>
      </trkpt>
      <trkpt lat="43.52447" lon="5.5208">
        <ele>248.16</ele>
        <time>2020-02-23T13:09:16Z</time>
      </trkpt>
      <trkpt lat="43.52437" lon="5.52067">
        <ele>245.75</ele>
        <time>2020-02-23T13:09:31Z</time>
      </trkpt>
      <trkpt lat="43.52428" lon="5.52058">
        <ele>243.35</ele>
        <time>2020-02-23T13:09:41Z</time>
      </trkpt>
      <trkpt lat="43.52427" lon="5.52057">
        <ele>243.35</ele>
        <time>2020-02-23T13:09:42Z</time>
      </trkpt>
      <trkpt lat="43.52426" lon="5.52056">
        <ele>243.35</ele>
        <time>2020-02-23T13:09:43Z</time>
      </trkpt>
      <trkpt lat="43.52425" lon="5.52055">
        <ele>243.35</ele>
        <time>2020-02-23T13:09:44Z</time>
      </trkpt>
      <trkpt lat="43.52424" lon="5.52053">
        <ele>242.87</ele>
        <time>2020-02-23T13:09:45Z</time>
      </trkpt>
      <trkpt lat="43.52423" lon="5.52044">
        <ele>242.39</ele>
        <time>2020-02-23T13:09:50Z</time>
      </trkpt>
      <trkpt lat="43.52427" lon="5.52023">
        <ele>241.91</ele>
        <time>2020-02-23T13:10:03Z</time>
      </trkpt>
      <trkpt lat="43.52428" lon="5.51995">
        <ele>242.87</ele>
        <time>2020-02-23T13:10:19Z</time>
      </trkpt>
      <trkpt lat="43.52429" lon="5.51987">
        <ele>243.35</ele>
        <time>2020-02-23T13:10:23Z</time>
      </trkpt>
      <trkpt lat="43.52429" lon="5.51985">
        <ele>243.35</ele>
        <time>2020-02-23T13:10:24Z</time>
      </trkpt>
      <trkpt lat="43.52433" lon="5.51974">
        <ele>243.35</ele>
        <time>2020-02-23T13:10:31Z</time>
      </trkpt>
      <trkpt lat="43.52434" lon="5.51973">
        <ele>243.35</ele>
        <time>2020-02-23T13:10:32Z</time>
      </trkpt>
      <trkpt lat="43.52437" lon="5.51968">
        <ele>243.35</ele>
        <time>2020-02-23T13:10:36Z</time>
      </trkpt>
      <trkpt lat="43.52438" lon="5.51967">
        <ele>243.35</ele>
        <time>2020-02-23T13:10:37Z</time>
      </trkpt>
      <trkpt lat="43.52439" lon="5.51965">
        <ele>243.83</ele>
        <time>2020-02-23T13:10:38Z</time>
      </trkpt>
      <trkpt lat="43.5244" lon="5.51964">
        <ele>243.83</ele>
        <time>2020-02-23T13:10:39Z</time>
      </trkpt>
      <trkpt lat="43.52441" lon="5.51961">
        <ele>243.83</ele>
        <time>2020-02-23T13:10:41Z</time>
      </trkpt>
      <trkpt lat="43.52452" lon="5.51937">
        <ele>244.79</ele>
        <time>2020-02-23T13:10:56Z</time>
      </trkpt>
      <trkpt lat="43.52454" lon="5.51925">
        <ele>245.27</ele>
        <time>2020-02-23T13:11:03Z</time>
      </trkpt>
      <trkpt lat="43.52453" lon="5.51919">
        <ele>245.75</ele>
        <time>2020-02-23T13:11:07Z</time>
      </trkpt>
      <trkpt lat="43.52456" lon="5.51905">
        <ele>245.75</ele>
        <time>2020-02-23T13:11:15Z</time>
      </trkpt>
      <trkpt lat="43.52461" lon="5.51892">
        <ele>244.31</ele>
        <time>2020-02-23T13:11:24Z</time>
      </trkpt>
      <trkpt lat="43.52464" lon="5.51881">
        <ele>243.35</ele>
        <time>2020-02-23T13:11:31Z</time>
      </trkpt>
      <trkpt lat="43.52464" lon="5.51879">
        <ele>243.35</ele>
        <time>2020-02-23T13:11:32Z</time>
      </trkpt>
      <trkpt lat="43.52467" lon="5.51855">
        <ele>242.87</ele>
        <time>2020-02-23T13:11:46Z</time>
      </trkpt>
      <trkpt lat="43.52472" lon="5.5184">
        <ele>244.31</ele>
        <time>2020-02-23T13:11:57Z</time>
      </trkpt>
      <trkpt lat="43.52475" lon="5.51823">
        <ele>245.75</ele>
        <time>2020-02-23T13:12:11Z</time>
      </trkpt>
      <trkpt lat="43.52478" lon="5.51807">
        <ele>247.2</ele>
        <time>2020-02-23T13:12:22Z</time>
      </trkpt>
      <trkpt lat="43.52479" lon="5.51805">
        <ele>247.2</ele>
        <time>2020-02-23T13:12:23Z</time>
      </trkpt>
      <trkpt lat="43.52478" lon="5.51791">
        <ele>247.68</ele>
        <time>2020-02-23T13:12:30Z</time>
      </trkpt>
      <trkpt lat="43.52477" lon="5.51789">
        <ele>247.68</ele>
        <time>2020-02-23T13:12:31Z</time>
      </trkpt>
      <trkpt lat="43.52473" lon="5.51765">
        <ele>248.16</ele>
        <time>2020-02-23T13:12:45Z</time>
      </trkpt>
      <trkpt lat="43.52473" lon="5.51762">
        <ele>248.16</ele>
        <time>2020-02-23T13:12:47Z</time>
      </trkpt>
      <trkpt lat="43.52473" lon="5.5176">
        <ele>248.16</ele>
        <time>2020-02-23T13:12:48Z</time>
      </trkpt>
      <trkpt lat="43.52473" lon="5.51759">
        <ele>248.16</ele>
        <time>2020-02-23T13:12:49Z</time>
      </trkpt>
      <trkpt lat="43.52473" lon="5.51737">
        <ele>248.16</ele>
        <time>2020-02-23T13:13:02Z</time>
      </trkpt>
      <trkpt lat="43.52472" lon="5.51736">
        <ele>248.16</ele>
        <time>2020-02-23T13:13:03Z</time>
      </trkpt>
      <trkpt lat="43.52473" lon="5.5173">
        <ele>248.16</ele>
        <time>2020-02-23T13:13:07Z</time>
      </trkpt>
      <trkpt lat="43.52473" lon="5.51728">
        <ele>248.16</ele>
        <time>2020-02-23T13:13:08Z</time>
      </trkpt>
      <trkpt lat="43.52474" lon="5.51727">
        <ele>248.16</ele>
        <time>2020-02-23T13:13:09Z</time>
      </trkpt>
      <trkpt lat="43.52474" lon="5.51718">
        <ele>246.72</ele>
        <time>2020-02-23T13:13:15Z</time>
      </trkpt>
      <trkpt lat="43.52474" lon="5.51717">
        <ele>246.72</ele>
        <time>2020-02-23T13:13:16Z</time>
      </trkpt>
      <trkpt lat="43.52476" lon="5.51691">
        <ele>246.23</ele>
        <time>2020-02-23T13:13:33Z</time>
      </trkpt>
      <trkpt lat="43.52476" lon="5.51667">
        <ele>244.79</ele>
        <time>2020-02-23T13:13:47Z</time>
      </trkpt>
      <trkpt lat="43.52476" lon="5.51665">
        <ele>244.79</ele>
        <time>2020-02-23T13:13:48Z</time>
      </trkpt>
      <trkpt lat="43.52476" lon="5.51657">
        <ele>244.31</ele>
        <time>2020-02-23T13:13:54Z</time>
      </trkpt>
      <trkpt lat="43.52478" lon="5.51636">
        <ele>242.87</ele>
        <time>2020-02-23T13:14:09Z</time>
      </trkpt>
      <trkpt lat="43.52478" lon="5.51613">
        <ele>240.95</ele>
        <time>2020-02-23T13:14:23Z</time>
      </trkpt>
      <trkpt lat="43.52478" lon="5.51612">
        <ele>240.95</ele>
        <time>2020-02-23T13:14:24Z</time>
      </trkpt>
      <trkpt lat="43.52478" lon="5.51588">
        <ele>239.51</ele>
        <time>2020-02-23T13:14:39Z</time>
      </trkpt>
      <trkpt lat="43.52477" lon="5.51585">
        <ele>239.02</ele>
        <time>2020-02-23T13:14:40Z</time>
      </trkpt>
      <trkpt lat="43.52477" lon="5.51571">
        <ele>237.58</ele>
        <time>2020-02-23T13:14:49Z</time>
      </trkpt>
      <trkpt lat="43.52477" lon="5.51569">
        <ele>237.58</ele>
        <time>2020-02-23T13:14:50Z</time>
      </trkpt>
      <trkpt lat="43.52478" lon="5.51567">
        <ele>237.58</ele>
        <time>2020-02-23T13:14:51Z</time>
      </trkpt>
      <trkpt lat="43.52477" lon="5.51543">
        <ele>234.7</ele>
        <time>2020-02-23T13:15:06Z</time>
      </trkpt>
      <trkpt lat="43.52477" lon="5.51536">
        <ele>234.22</ele>
        <time>2020-02-23T13:15:10Z</time>
      </trkpt>
      <trkpt lat="43.52473" lon="5.51515">
        <ele>232.3</ele>
        <time>2020-02-23T13:15:24Z</time>
      </trkpt>
      <trkpt lat="43.52472" lon="5.51504">
        <ele>230.85</ele>
        <time>2020-02-23T13:15:34Z</time>
      </trkpt>
      <trkpt lat="43.52471" lon="5.51491">
        <ele>227.97</ele>
        <time>2020-02-23T13:15:45Z</time>
      </trkpt>
      <trkpt lat="43.52467" lon="5.51491">
        <ele>227.01</ele>
        <time>2020-02-23T13:15:50Z</time>
      </trkpt>
      <trkpt lat="43.52462" lon="5.51502">
        <ele>227.01</ele>
        <time>2020-02-23T13:15:59Z</time>
      </trkpt>
      <trkpt lat="43.52451" lon="5.5152">
        <ele>225.57</ele>
        <time>2020-02-23T13:16:16Z</time>
      </trkpt>
      <trkpt lat="43.52434" lon="5.51529">
        <ele>224.12</ele>
        <time>2020-02-23T13:16:32Z</time>
      </trkpt>
      <trkpt lat="43.52433" lon="5.51529">
        <ele>223.64</ele>
        <time>2020-02-23T13:16:33Z</time>
      </trkpt>
      <trkpt lat="43.52417" lon="5.51523">
        <ele>221.72</ele>
        <time>2020-02-23T13:16:48Z</time>
      </trkpt>
      <trkpt lat="43.52402" lon="5.51511">
        <ele>219.32</ele>
        <time>2020-02-23T13:17:04Z</time>
      </trkpt>
      <trkpt lat="43.52385" lon="5.51496">
        <ele>216.91</ele>
        <time>2020-02-23T13:17:20Z</time>
      </trkpt>
      <trkpt lat="43.5237" lon="5.51479">
        <ele>214.51</ele>
        <time>2020-02-23T13:17:38Z</time>
      </trkpt>
      <trkpt lat="43.52359" lon="5.51467">
        <ele>213.07</ele>
        <time>2020-02-23T13:17:53Z</time>
      </trkpt>
      <trkpt lat="43.52338" lon="5.51464">
        <ele>210.67</ele>
        <time>2020-02-23T13:18:11Z</time>
      </trkpt>
      <trkpt lat="43.52322" lon="5.51461">
        <ele>208.74</ele>
        <time>2020-02-23T13:18:25Z</time>
      </trkpt>
      <trkpt lat="43.52306" lon="5.51457">
        <ele>206.34</ele>
        <time>2020-02-23T13:18:41Z</time>
      </trkpt>
      <trkpt lat="43.52287" lon="5.51455">
        <ele>204.9</ele>
        <time>2020-02-23T13:18:55Z</time>
      </trkpt>
      <trkpt lat="43.52273" lon="5.51451">
        <ele>203.46</ele>
        <time>2020-02-23T13:19:10Z</time>
      </trkpt>
      <trkpt lat="43.52262" lon="5.51446">
        <ele>202.49</ele>
        <time>2020-02-23T13:19:21Z</time>
      </trkpt>
      <trkpt lat="43.52249" lon="5.51448">
        <ele>201.53</ele>
        <time>2020-02-23T13:19:35Z</time>
      </trkpt>
      <trkpt lat="43.52242" lon="5.51449">
        <ele>201.53</ele>
        <time>2020-02-23T13:20:00Z</time>
      </trkpt>
      <trkpt lat="43.52242" lon="5.51444">
        <ele>201.05</ele>
        <time>2020-02-23T13:20:14Z</time>
      </trkpt>
      <trkpt lat="43.5224" lon="5.51444">
        <ele>202.49</ele>
        <time>2020-02-23T13:20:21Z</time>
      </trkpt>
      <trkpt lat="43.52236" lon="5.51446">
        <ele>203.46</ele>
        <time>2020-02-23T13:20:31Z</time>
      </trkpt>
      <trkpt lat="43.52234" lon="5.51449">
        <ele>203.46</ele>
        <time>2020-02-23T13:20:46Z</time>
      </trkpt>
      <trkpt lat="43.52239" lon="5.51443">
        <ele>202.98</ele>
        <time>2020-02-23T13:21:05Z</time>
      </trkpt>
      <trkpt lat="43.52241" lon="5.51442">
        <ele>202.98</ele>
        <time>2020-02-23T13:21:07Z</time>
      </trkpt>
      <trkpt lat="43.52243" lon="5.51441">
        <ele>202.01</ele>
        <time>2020-02-23T13:21:19Z</time>
      </trkpt>
      <trkpt lat="43.52237" lon="5.51433">
        <ele>199.61</ele>
        <time>2020-02-23T13:21:32Z</time>
      </trkpt>
      <trkpt lat="43.52232" lon="5.51433">
        <ele>199.13</ele>
        <time>2020-02-23T13:21:37Z</time>
      </trkpt>
      <trkpt lat="43.52223" lon="5.51434">
        <ele>197.69</ele>
        <time>2020-02-23T13:21:52Z</time>
      </trkpt>
      <trkpt lat="43.5222" lon="5.51435">
        <ele>197.21</ele>
        <time>2020-02-23T13:22:04Z</time>
      </trkpt>
      <trkpt lat="43.52214" lon="5.51442">
        <ele>197.21</ele>
        <time>2020-02-23T13:22:34Z</time>
      </trkpt>
      <trkpt lat="43.5221" lon="5.51426">
        <ele>197.21</ele>
        <time>2020-02-23T13:22:53Z</time>
      </trkpt>
      <trkpt lat="43.52212" lon="5.51421">
        <ele>197.21</ele>
        <time>2020-02-23T13:23:01Z</time>
      </trkpt>
      <trkpt lat="43.52213" lon="5.51418">
        <ele>196.73</ele>
        <time>2020-02-23T13:23:03Z</time>
      </trkpt>
      <trkpt lat="43.52213" lon="5.51398">
        <ele>196.25</ele>
        <time>2020-02-23T13:23:15Z</time>
      </trkpt>
      <trkpt lat="43.52211" lon="5.51371">
        <ele>195.28</ele>
        <time>2020-02-23T13:23:29Z</time>
      </trkpt>
      <trkpt lat="43.52208" lon="5.51346">
        <ele>194.8</ele>
        <time>2020-02-23T13:23:43Z</time>
      </trkpt>
      <trkpt lat="43.52207" lon="5.51345">
        <ele>194.8</ele>
        <time>2020-02-23T13:23:44Z</time>
      </trkpt>
      <trkpt lat="43.52206" lon="5.51344">
        <ele>194.8</ele>
        <time>2020-02-23T13:23:45Z</time>
      </trkpt>
      <trkpt lat="43.52205" lon="5.51342">
        <ele>194.8</ele>
        <time>2020-02-23T13:23:46Z</time>
      </trkpt>
      <trkpt lat="43.52204" lon="5.51341">
        <ele>194.32</ele>
        <time>2020-02-23T13:23:47Z</time>
      </trkpt>
      <trkpt lat="43.52203" lon="5.51339">
        <ele>194.32</ele>
        <time>2020-02-23T13:23:48Z</time>
      </trkpt>
      <trkpt lat="43.52202" lon="5.51338">
        <ele>194.32</ele>
        <time>2020-02-23T13:23:49Z</time>
      </trkpt>
      <trkpt lat="43.52199" lon="5.51331">
        <ele>193.84</ele>
        <time>2020-02-23T13:23:53Z</time>
      </trkpt>
      <trkpt lat="43.52198" lon="5.5133">
        <ele>193.84</ele>
        <time>2020-02-23T13:23:54Z</time>
      </trkpt>
      <trkpt lat="43.52197" lon="5.51328">
        <ele>193.36</ele>
        <time>2020-02-23T13:23:55Z</time>
      </trkpt>
      <trkpt lat="43.52191" lon="5.51309">
        <ele>192.4</ele>
        <time>2020-02-23T13:24:08Z</time>
      </trkpt>
      <trkpt lat="43.52187" lon="5.51294">
        <ele>191.92</ele>
        <time>2020-02-23T13:24:17Z</time>
      </trkpt>
      <trkpt lat="43.52186" lon="5.51292">
        <ele>191.92</ele>
        <time>2020-02-23T13:24:18Z</time>
      </trkpt>
      <trkpt lat="43.52179" lon="5.5127">
        <ele>191.44</ele>
        <time>2020-02-23T13:24:33Z</time>
      </trkpt>
      <trkpt lat="43.52179" lon="5.51268">
        <ele>190.96</ele>
        <time>2020-02-23T13:24:34Z</time>
      </trkpt>
      <trkpt lat="43.52177" lon="5.51257">
        <ele>190</ele>
        <time>2020-02-23T13:24:42Z</time>
      </trkpt>
      <trkpt lat="43.52176" lon="5.51254">
        <ele>189.52</ele>
        <time>2020-02-23T13:24:44Z</time>
      </trkpt>
      <trkpt lat="43.52173" lon="5.51241">
        <ele>189.04</ele>
        <time>2020-02-23T13:24:54Z</time>
      </trkpt>
      <trkpt lat="43.52172" lon="5.51218">
        <ele>187.11</ele>
        <time>2020-02-23T13:25:08Z</time>
      </trkpt>
      <trkpt lat="43.52173" lon="5.51199">
        <ele>185.67</ele>
        <time>2020-02-23T13:25:21Z</time>
      </trkpt>
      <trkpt lat="43.52188" lon="5.51182">
        <ele>184.23</ele>
        <time>2020-02-23T13:25:36Z</time>
      </trkpt>
      <trkpt lat="43.52191" lon="5.51183">
        <ele>184.23</ele>
        <time>2020-02-23T13:25:39Z</time>
      </trkpt>
      <trkpt lat="43.52204" lon="5.51182">
        <ele>183.75</ele>
        <time>2020-02-23T13:25:53Z</time>
      </trkpt>
      <trkpt lat="43.52209" lon="5.51183">
        <ele>183.75</ele>
        <time>2020-02-23T13:25:57Z</time>
      </trkpt>
      <trkpt lat="43.5221" lon="5.51183">
        <ele>183.75</ele>
        <time>2020-02-23T13:25:58Z</time>
      </trkpt>
      <trkpt lat="43.52222" lon="5.51182">
        <ele>183.75</ele>
        <time>2020-02-23T13:26:08Z</time>
      </trkpt>
      <trkpt lat="43.52223" lon="5.51181">
        <ele>183.75</ele>
        <time>2020-02-23T13:26:09Z</time>
      </trkpt>
      <trkpt lat="43.52231" lon="5.51174">
        <ele>183.75</ele>
        <time>2020-02-23T13:26:17Z</time>
      </trkpt>
      <trkpt lat="43.52237" lon="5.51179">
        <ele>183.75</ele>
        <time>2020-02-23T13:26:22Z</time>
      </trkpt>
      <trkpt lat="43.5224" lon="5.51186">
        <ele>185.19</ele>
        <time>2020-02-23T13:26:28Z</time>
      </trkpt>
      <trkpt lat="43.52239" lon="5.51185">
        <ele>185.19</ele>
        <time>2020-02-23T13:26:52Z</time>
      </trkpt>
      <trkpt lat="43.52239" lon="5.51187">
        <ele>185.19</ele>
        <time>2020-02-23T13:27:14Z</time>
      </trkpt>
      <trkpt lat="43.52238" lon="5.51186">
        <ele>185.19</ele>
        <time>2020-02-23T13:27:45Z</time>
      </trkpt>
    </trkseg>
  </trk>
</gpx>